<?xml version="1.0" encoding="UTF-8" standalone="no" ?>
<gpx xmlns="http://www.topografix.com/GPX/1/1" xmlns:xsi="http://www.w3.org/2001/XMLSchema-instance" xsi:schemaLocation="http://www.topografix.com/GPX/1/1 http://www.topografix.com/GPX/1/1/gpx.xsd" version="1.1" creator="VisuGPX - https://www.visugpx.com">
  <metadata>
    <name>Peymenade - Tanneron</name>
    <desc><![CDATA[Belle balade en VTT]]></desc>
  </metadata>
  <trk>
    <name><![CDATA[2010-04-04T13:34:44Z]]></name>
    <trkseg>
      <trkpt lat="43.62257" lon="6.88328">
        <ele>279.4002686</ele>
        <time>2010-04-04T13:34:47Z</time>
      </trkpt>
      <trkpt lat="43.62257" lon="6.88334">
        <ele>278.9196777</ele>
        <time>2010-04-04T13:34:54Z</time>
      </trkpt>
      <trkpt lat="43.62258" lon="6.88337">
        <ele>277.958252</ele>
        <time>2010-04-04T13:35:00Z</time>
      </trkpt>
      <trkpt lat="43.62258" lon="6.88344">
        <ele>277.4776611</ele>
        <time>2010-04-04T13:35:13Z</time>
      </trkpt>
      <trkpt lat="43.62254" lon="6.88357">
        <ele>277.4776611</ele>
        <time>2010-04-04T13:35:18Z</time>
      </trkpt>
      <trkpt lat="43.62249" lon="6.88355">
        <ele>277.4776611</ele>
        <time>2010-04-04T13:35:22Z</time>
      </trkpt>
      <trkpt lat="43.6225" lon="6.88353">
        <ele>277.958252</ele>
        <time>2010-04-04T13:35:23Z</time>
      </trkpt>
      <trkpt lat="43.62246" lon="6.8834">
        <ele>278.4389648</ele>
        <time>2010-04-04T13:35:31Z</time>
      </trkpt>
      <trkpt lat="43.6224" lon="6.88334">
        <ele>279.8808594</ele>
        <time>2010-04-04T13:35:36Z</time>
      </trkpt>
      <trkpt lat="43.62238" lon="6.88331">
        <ele>280.3616943</ele>
        <time>2010-04-04T13:35:38Z</time>
      </trkpt>
      <trkpt lat="43.62232" lon="6.88327">
        <ele>281.322998</ele>
        <time>2010-04-04T13:35:42Z</time>
      </trkpt>
      <trkpt lat="43.62226" lon="6.88313">
        <ele>282.2843018</ele>
        <time>2010-04-04T13:35:48Z</time>
      </trkpt>
      <trkpt lat="43.62226" lon="6.88286">
        <ele>282.7650146</ele>
        <time>2010-04-04T13:35:55Z</time>
      </trkpt>
      <trkpt lat="43.62226" lon="6.88258">
        <ele>281.8035889</ele>
        <time>2010-04-04T13:36:01Z</time>
      </trkpt>
      <trkpt lat="43.62227" lon="6.88234">
        <ele>282.7650146</ele>
        <time>2010-04-04T13:36:07Z</time>
      </trkpt>
      <trkpt lat="43.62228" lon="6.88231">
        <ele>283.2456055</ele>
        <time>2010-04-04T13:36:08Z</time>
      </trkpt>
      <trkpt lat="43.62244" lon="6.88231">
        <ele>282.2843018</ele>
        <time>2010-04-04T13:36:13Z</time>
      </trkpt>
      <trkpt lat="43.62265" lon="6.88232">
        <ele>281.322998</ele>
        <time>2010-04-04T13:36:17Z</time>
      </trkpt>
      <trkpt lat="43.62278" lon="6.88232">
        <ele>280.3616943</ele>
        <time>2010-04-04T13:36:19Z</time>
      </trkpt>
      <trkpt lat="43.62324" lon="6.88227">
        <ele>276.9970703</ele>
        <time>2010-04-04T13:36:25Z</time>
      </trkpt>
      <trkpt lat="43.6237" lon="6.88222">
        <ele>272.1904297</ele>
        <time>2010-04-04T13:36:30Z</time>
      </trkpt>
      <trkpt lat="43.62418" lon="6.88211">
        <ele>269.7871094</ele>
        <time>2010-04-04T13:36:35Z</time>
      </trkpt>
      <trkpt lat="43.62426" lon="6.88209">
        <ele>269.3065186</ele>
        <time>2010-04-04T13:36:36Z</time>
      </trkpt>
      <trkpt lat="43.62443" lon="6.88216">
        <ele>269.3065186</ele>
        <time>2010-04-04T13:36:40Z</time>
      </trkpt>
      <trkpt lat="43.62435" lon="6.88226">
        <ele>268.3450928</ele>
        <time>2010-04-04T13:36:43Z</time>
      </trkpt>
      <trkpt lat="43.62405" lon="6.8825">
        <ele>266.4224854</ele>
        <time>2010-04-04T13:36:50Z</time>
      </trkpt>
      <trkpt lat="43.62379" lon="6.88281">
        <ele>264.9805908</ele>
        <time>2010-04-04T13:36:56Z</time>
      </trkpt>
      <trkpt lat="43.62375" lon="6.88288">
        <ele>264.4998779</ele>
        <time>2010-04-04T13:36:57Z</time>
      </trkpt>
      <trkpt lat="43.62362" lon="6.88327">
        <ele>260.1739502</ele>
        <time>2010-04-04T13:37:02Z</time>
      </trkpt>
      <trkpt lat="43.62352" lon="6.88385">
        <ele>252.9639893</ele>
        <time>2010-04-04T13:37:09Z</time>
      </trkpt>
      <trkpt lat="43.62349" lon="6.88428">
        <ele>247.6767578</ele>
        <time>2010-04-04T13:37:13Z</time>
      </trkpt>
      <trkpt lat="43.62344" lon="6.88461">
        <ele>243.831543</ele>
        <time>2010-04-04T13:37:16Z</time>
      </trkpt>
      <trkpt lat="43.62323" lon="6.88505">
        <ele>238.5443115</ele>
        <time>2010-04-04T13:37:20Z</time>
      </trkpt>
      <trkpt lat="43.623" lon="6.88541">
        <ele>234.2183838</ele>
        <time>2010-04-04T13:37:24Z</time>
      </trkpt>
      <trkpt lat="43.62295" lon="6.88566">
        <ele>231.8149414</ele>
        <time>2010-04-04T13:37:28Z</time>
      </trkpt>
      <trkpt lat="43.62303" lon="6.88574">
        <ele>230.8537598</ele>
        <time>2010-04-04T13:37:31Z</time>
      </trkpt>
      <trkpt lat="43.62307" lon="6.88584">
        <ele>229.4117432</ele>
        <time>2010-04-04T13:37:35Z</time>
      </trkpt>
      <trkpt lat="43.62306" lon="6.88603">
        <ele>228.9311523</ele>
        <time>2010-04-04T13:37:39Z</time>
      </trkpt>
      <trkpt lat="43.62303" lon="6.88613">
        <ele>229.4117432</ele>
        <time>2010-04-04T13:37:41Z</time>
      </trkpt>
      <trkpt lat="43.62292" lon="6.8865">
        <ele>230.3730469</ele>
        <time>2010-04-04T13:37:48Z</time>
      </trkpt>
      <trkpt lat="43.62285" lon="6.88667">
        <ele>232.2957764</ele>
        <time>2010-04-04T13:37:53Z</time>
      </trkpt>
      <trkpt lat="43.62278" lon="6.8868">
        <ele>234.2183838</ele>
        <time>2010-04-04T13:37:58Z</time>
      </trkpt>
      <trkpt lat="43.62268" lon="6.88695">
        <ele>236.1409912</ele>
        <time>2010-04-04T13:38:05Z</time>
      </trkpt>
      <trkpt lat="43.62261" lon="6.88705">
        <ele>237.5828857</ele>
        <time>2010-04-04T13:38:10Z</time>
      </trkpt>
      <trkpt lat="43.62252" lon="6.88715">
        <ele>239.0249023</ele>
        <time>2010-04-04T13:38:16Z</time>
      </trkpt>
      <trkpt lat="43.62236" lon="6.88728">
        <ele>240.9476318</ele>
        <time>2010-04-04T13:38:25Z</time>
      </trkpt>
      <trkpt lat="43.62216" lon="6.88736">
        <ele>240.467041</ele>
        <time>2010-04-04T13:38:32Z</time>
      </trkpt>
      <trkpt lat="43.62191" lon="6.88737">
        <ele>237.5828857</ele>
        <time>2010-04-04T13:38:36Z</time>
      </trkpt>
      <trkpt lat="43.62183" lon="6.88737">
        <ele>236.6217041</ele>
        <time>2010-04-04T13:38:37Z</time>
      </trkpt>
      <trkpt lat="43.62144" lon="6.88751">
        <ele>232.2957764</ele>
        <time>2010-04-04T13:38:41Z</time>
      </trkpt>
      <trkpt lat="43.62134" lon="6.88756">
        <ele>231.3343506</ele>
        <time>2010-04-04T13:38:42Z</time>
      </trkpt>
      <trkpt lat="43.62102" lon="6.8877">
        <ele>227.4891357</ele>
        <time>2010-04-04T13:38:45Z</time>
      </trkpt>
      <trkpt lat="43.62064" lon="6.88807">
        <ele>223.163208</ele>
        <time>2010-04-04T13:38:49Z</time>
      </trkpt>
      <trkpt lat="43.62049" lon="6.88841">
        <ele>222.6824951</ele>
        <time>2010-04-04T13:38:52Z</time>
      </trkpt>
      <trkpt lat="43.62042" lon="6.88869">
        <ele>223.163208</ele>
        <time>2010-04-04T13:38:55Z</time>
      </trkpt>
      <trkpt lat="43.62038" lon="6.88874">
        <ele>222.6824951</ele>
        <time>2010-04-04T13:38:56Z</time>
      </trkpt>
      <trkpt lat="43.62031" lon="6.88883">
        <ele>222.6824951</ele>
        <time>2010-04-04T13:38:58Z</time>
      </trkpt>
      <trkpt lat="43.62019" lon="6.88898">
        <ele>223.6437988</ele>
        <time>2010-04-04T13:39:01Z</time>
      </trkpt>
      <trkpt lat="43.6201" lon="6.88918">
        <ele>224.1245117</ele>
        <time>2010-04-04T13:39:04Z</time>
      </trkpt>
      <trkpt lat="43.62006" lon="6.88936">
        <ele>223.6437988</ele>
        <time>2010-04-04T13:39:07Z</time>
      </trkpt>
      <trkpt lat="43.62009" lon="6.88958">
        <ele>223.163208</ele>
        <time>2010-04-04T13:39:11Z</time>
      </trkpt>
      <trkpt lat="43.62026" lon="6.88997">
        <ele>221.2406006</ele>
        <time>2010-04-04T13:39:18Z</time>
      </trkpt>
      <trkpt lat="43.62029" lon="6.89029">
        <ele>219.3179932</ele>
        <time>2010-04-04T13:39:22Z</time>
      </trkpt>
      <trkpt lat="43.62021" lon="6.8905">
        <ele>217.3953857</ele>
        <time>2010-04-04T13:39:25Z</time>
      </trkpt>
      <trkpt lat="43.62013" lon="6.89059">
        <ele>216.43396</ele>
        <time>2010-04-04T13:39:27Z</time>
      </trkpt>
      <trkpt lat="43.6202" lon="6.89079">
        <ele>212.1080322</ele>
        <time>2010-04-04T13:39:31Z</time>
      </trkpt>
      <trkpt lat="43.6202" lon="6.89101">
        <ele>207.7821045</ele>
        <time>2010-04-04T13:39:35Z</time>
      </trkpt>
      <trkpt lat="43.62015" lon="6.89124">
        <ele>204.4174805</ele>
        <time>2010-04-04T13:39:41Z</time>
      </trkpt>
      <trkpt lat="43.62013" lon="6.8914">
        <ele>203.4561768</ele>
        <time>2010-04-04T13:39:45Z</time>
      </trkpt>
      <trkpt lat="43.62014" lon="6.89144">
        <ele>204.4174805</ele>
        <time>2010-04-04T13:39:47Z</time>
      </trkpt>
      <trkpt lat="43.62014" lon="6.89146">
        <ele>206.3400879</ele>
        <time>2010-04-04T13:39:51Z</time>
      </trkpt>
      <trkpt lat="43.62017" lon="6.89154">
        <ele>209.704834</ele>
        <time>2010-04-04T13:39:56Z</time>
      </trkpt>
      <trkpt lat="43.62017" lon="6.89162">
        <ele>212.1080322</ele>
        <time>2010-04-04T13:40:02Z</time>
      </trkpt>
      <trkpt lat="43.62017" lon="6.89164">
        <ele>212.588623</ele>
        <time>2010-04-04T13:40:03Z</time>
      </trkpt>
      <trkpt lat="43.62016" lon="6.89169">
        <ele>214.0306396</ele>
        <time>2010-04-04T13:40:08Z</time>
      </trkpt>
      <trkpt lat="43.6201" lon="6.89185">
        <ele>215.4726563</ele>
        <time>2010-04-04T13:40:14Z</time>
      </trkpt>
      <trkpt lat="43.62008" lon="6.89191">
        <ele>216.43396</ele>
        <time>2010-04-04T13:40:16Z</time>
      </trkpt>
      <trkpt lat="43.61999" lon="6.89209">
        <ele>216.43396</ele>
        <time>2010-04-04T13:40:21Z</time>
      </trkpt>
      <trkpt lat="43.61997" lon="6.89211">
        <ele>215.9532471</ele>
        <time>2010-04-04T13:40:22Z</time>
      </trkpt>
      <trkpt lat="43.61989" lon="6.89234">
        <ele>215.4726563</ele>
        <time>2010-04-04T13:40:27Z</time>
      </trkpt>
      <trkpt lat="43.61985" lon="6.8925">
        <ele>214.0306396</ele>
        <time>2010-04-04T13:40:30Z</time>
      </trkpt>
      <trkpt lat="43.61978" lon="6.89265">
        <ele>212.588623</ele>
        <time>2010-04-04T13:40:33Z</time>
      </trkpt>
      <trkpt lat="43.61973" lon="6.89272">
        <ele>212.588623</ele>
        <time>2010-04-04T13:40:35Z</time>
      </trkpt>
      <trkpt lat="43.61973" lon="6.89276">
        <ele>212.1080322</ele>
        <time>2010-04-04T13:40:36Z</time>
      </trkpt>
      <trkpt lat="43.61969" lon="6.8929">
        <ele>211.6274414</ele>
        <time>2010-04-04T13:40:41Z</time>
      </trkpt>
      <trkpt lat="43.61965" lon="6.89296">
        <ele>210.6660156</ele>
        <time>2010-04-04T13:40:43Z</time>
      </trkpt>
      <trkpt lat="43.6196" lon="6.89321">
        <ele>211.6274414</ele>
        <time>2010-04-04T13:40:49Z</time>
      </trkpt>
      <trkpt lat="43.6196" lon="6.89326">
        <ele>211.6274414</ele>
        <time>2010-04-04T13:40:50Z</time>
      </trkpt>
      <trkpt lat="43.61953" lon="6.89345">
        <ele>211.1467285</ele>
        <time>2010-04-04T13:40:55Z</time>
      </trkpt>
      <trkpt lat="43.61951" lon="6.89367">
        <ele>211.1467285</ele>
        <time>2010-04-04T13:41:00Z</time>
      </trkpt>
      <trkpt lat="43.61951" lon="6.8937">
        <ele>211.1467285</ele>
        <time>2010-04-04T13:41:01Z</time>
      </trkpt>
      <trkpt lat="43.61948" lon="6.89401">
        <ele>210.6660156</ele>
        <time>2010-04-04T13:41:08Z</time>
      </trkpt>
      <trkpt lat="43.61936" lon="6.89431">
        <ele>209.2241211</ele>
        <time>2010-04-04T13:41:13Z</time>
      </trkpt>
      <trkpt lat="43.61932" lon="6.89435">
        <ele>209.2241211</ele>
        <time>2010-04-04T13:41:14Z</time>
      </trkpt>
      <trkpt lat="43.6192" lon="6.89436">
        <ele>207.7821045</ele>
        <time>2010-04-04T13:41:18Z</time>
      </trkpt>
      <trkpt lat="43.61908" lon="6.89432">
        <ele>205.8594971</ele>
        <time>2010-04-04T13:41:22Z</time>
      </trkpt>
      <trkpt lat="43.61899" lon="6.89436">
        <ele>204.4174805</ele>
        <time>2010-04-04T13:41:24Z</time>
      </trkpt>
      <trkpt lat="43.61873" lon="6.89451">
        <ele>199.6108398</ele>
        <time>2010-04-04T13:41:29Z</time>
      </trkpt>
      <trkpt lat="43.61856" lon="6.89464">
        <ele>196.7269287</ele>
        <time>2010-04-04T13:41:32Z</time>
      </trkpt>
      <trkpt lat="43.61836" lon="6.89467">
        <ele>194.8043213</ele>
        <time>2010-04-04T13:41:35Z</time>
      </trkpt>
      <trkpt lat="43.61815" lon="6.89471">
        <ele>191.4395752</ele>
        <time>2010-04-04T13:41:39Z</time>
      </trkpt>
      <trkpt lat="43.61803" lon="6.89474">
        <ele>189.5169678</ele>
        <time>2010-04-04T13:41:42Z</time>
      </trkpt>
      <trkpt lat="43.61798" lon="6.89472">
        <ele>187.5943604</ele>
        <time>2010-04-04T13:41:44Z</time>
      </trkpt>
      <trkpt lat="43.61787" lon="6.89455">
        <ele>183.7490234</ele>
        <time>2010-04-04T13:41:48Z</time>
      </trkpt>
      <trkpt lat="43.61765" lon="6.89441">
        <ele>178.942627</ele>
        <time>2010-04-04T13:41:53Z</time>
      </trkpt>
      <trkpt lat="43.61745" lon="6.89435">
        <ele>175.09729</ele>
        <time>2010-04-04T13:41:57Z</time>
      </trkpt>
      <trkpt lat="43.61728" lon="6.89434">
        <ele>170.7713623</ele>
        <time>2010-04-04T13:42:01Z</time>
      </trkpt>
      <trkpt lat="43.61724" lon="6.8944">
        <ele>167.8873291</ele>
        <time>2010-04-04T13:42:04Z</time>
      </trkpt>
      <trkpt lat="43.61719" lon="6.89455">
        <ele>165.003418</ele>
        <time>2010-04-04T13:42:08Z</time>
      </trkpt>
      <trkpt lat="43.61713" lon="6.89457">
        <ele>162.1195068</ele>
        <time>2010-04-04T13:42:12Z</time>
      </trkpt>
      <trkpt lat="43.61708" lon="6.89438">
        <ele>160.1968994</ele>
        <time>2010-04-04T13:42:16Z</time>
      </trkpt>
      <trkpt lat="43.61706" lon="6.89425">
        <ele>159.7161865</ele>
        <time>2010-04-04T13:42:18Z</time>
      </trkpt>
      <trkpt lat="43.61696" lon="6.89418">
        <ele>156.8321533</ele>
        <time>2010-04-04T13:42:22Z</time>
      </trkpt>
      <trkpt lat="43.61689" lon="6.89418">
        <ele>153.4676514</ele>
        <time>2010-04-04T13:42:25Z</time>
      </trkpt>
      <trkpt lat="43.61683" lon="6.89428">
        <ele>151.5449219</ele>
        <time>2010-04-04T13:42:28Z</time>
      </trkpt>
      <trkpt lat="43.61679" lon="6.89425">
        <ele>150.1030273</ele>
        <time>2010-04-04T13:42:31Z</time>
      </trkpt>
      <trkpt lat="43.6168" lon="6.89408">
        <ele>149.1416016</ele>
        <time>2010-04-04T13:42:34Z</time>
      </trkpt>
      <trkpt lat="43.61683" lon="6.89395">
        <ele>147.2189941</ele>
        <time>2010-04-04T13:42:37Z</time>
      </trkpt>
      <trkpt lat="43.61681" lon="6.89385">
        <ele>145.7770996</ele>
        <time>2010-04-04T13:42:40Z</time>
      </trkpt>
      <trkpt lat="43.61675" lon="6.89381">
        <ele>145.7770996</ele>
        <time>2010-04-04T13:42:43Z</time>
      </trkpt>
      <trkpt lat="43.61676" lon="6.89381">
        <ele>146.7384033</ele>
        <time>2010-04-04T13:42:48Z</time>
      </trkpt>
      <trkpt lat="43.61675" lon="6.89382">
        <ele>148.1804199</ele>
        <time>2010-04-04T13:43:04Z</time>
      </trkpt>
      <trkpt lat="43.61673" lon="6.89381">
        <ele>149.1416016</ele>
        <time>2010-04-04T13:43:34Z</time>
      </trkpt>
      <trkpt lat="43.61674" lon="6.89378">
        <ele>152.0257568</ele>
        <time>2010-04-04T13:44:36Z</time>
      </trkpt>
      <trkpt lat="43.61663" lon="6.89373">
        <ele>150.1030273</ele>
        <time>2010-04-04T13:44:42Z</time>
      </trkpt>
      <trkpt lat="43.61647" lon="6.89369">
        <ele>146.7384033</ele>
        <time>2010-04-04T13:44:46Z</time>
      </trkpt>
      <trkpt lat="43.61628" lon="6.89368">
        <ele>144.3352051</ele>
        <time>2010-04-04T13:44:50Z</time>
      </trkpt>
      <trkpt lat="43.61623" lon="6.89367">
        <ele>143.3736572</ele>
        <time>2010-04-04T13:44:51Z</time>
      </trkpt>
      <trkpt lat="43.61607" lon="6.89381">
        <ele>141.9317627</ele>
        <time>2010-04-04T13:44:55Z</time>
      </trkpt>
      <trkpt lat="43.61587" lon="6.894">
        <ele>140.0091553</ele>
        <time>2010-04-04T13:44:59Z</time>
      </trkpt>
      <trkpt lat="43.6157" lon="6.89415">
        <ele>139.5284424</ele>
        <time>2010-04-04T13:45:02Z</time>
      </trkpt>
      <trkpt lat="43.6155" lon="6.89419">
        <ele>138.0865479</ele>
        <time>2010-04-04T13:45:05Z</time>
      </trkpt>
      <trkpt lat="43.61543" lon="6.89419">
        <ele>137.605835</ele>
        <time>2010-04-04T13:45:06Z</time>
      </trkpt>
      <trkpt lat="43.6152" lon="6.89429">
        <ele>137.1252441</ele>
        <time>2010-04-04T13:45:11Z</time>
      </trkpt>
      <trkpt lat="43.61508" lon="6.89433">
        <ele>136.1639404</ele>
        <time>2010-04-04T13:45:14Z</time>
      </trkpt>
      <trkpt lat="43.61502" lon="6.89439">
        <ele>135.2025146</ele>
        <time>2010-04-04T13:45:16Z</time>
      </trkpt>
      <trkpt lat="43.61485" lon="6.89446">
        <ele>135.6831055</ele>
        <time>2010-04-04T13:45:20Z</time>
      </trkpt>
      <trkpt lat="43.61481" lon="6.89447">
        <ele>135.2025146</ele>
        <time>2010-04-04T13:45:21Z</time>
      </trkpt>
      <trkpt lat="43.61461" lon="6.89447">
        <ele>130.876709</ele>
        <time>2010-04-04T13:45:26Z</time>
      </trkpt>
      <trkpt lat="43.61458" lon="6.8946">
        <ele>127.5119629</ele>
        <time>2010-04-04T13:45:29Z</time>
      </trkpt>
      <trkpt lat="43.61451" lon="6.89461">
        <ele>125.1087646</ele>
        <time>2010-04-04T13:45:31Z</time>
      </trkpt>
      <trkpt lat="43.61437" lon="6.89453">
        <ele>121.2635498</ele>
        <time>2010-04-04T13:45:34Z</time>
      </trkpt>
      <trkpt lat="43.61434" lon="6.89451">
        <ele>119.8214111</ele>
        <time>2010-04-04T13:45:35Z</time>
      </trkpt>
      <trkpt lat="43.6142" lon="6.89448">
        <ele>113.0922852</ele>
        <time>2010-04-04T13:45:40Z</time>
      </trkpt>
      <trkpt lat="43.61406" lon="6.89439">
        <ele>107.8050537</ele>
        <time>2010-04-04T13:45:44Z</time>
      </trkpt>
      <trkpt lat="43.61399" lon="6.89438">
        <ele>105.4017334</ele>
        <time>2010-04-04T13:45:46Z</time>
      </trkpt>
      <trkpt lat="43.61379" lon="6.89431">
        <ele>100.114502</ele>
        <time>2010-04-04T13:45:51Z</time>
      </trkpt>
      <trkpt lat="43.61374" lon="6.8943">
        <ele>99.1530762</ele>
        <time>2010-04-04T13:45:52Z</time>
      </trkpt>
      <trkpt lat="43.61353" lon="6.89427">
        <ele>93.3851318</ele>
        <time>2010-04-04T13:45:56Z</time>
      </trkpt>
      <trkpt lat="43.61329" lon="6.89418">
        <ele>89.0593262</ele>
        <time>2010-04-04T13:46:01Z</time>
      </trkpt>
      <trkpt lat="43.61319" lon="6.89415">
        <ele>87.6171875</ele>
        <time>2010-04-04T13:46:03Z</time>
      </trkpt>
      <trkpt lat="43.61298" lon="6.89407">
        <ele>81.3687744</ele>
        <time>2010-04-04T13:46:08Z</time>
      </trkpt>
      <trkpt lat="43.61294" lon="6.89404">
        <ele>80.4074707</ele>
        <time>2010-04-04T13:46:09Z</time>
      </trkpt>
      <trkpt lat="43.61288" lon="6.89399">
        <ele>78.0040283</ele>
        <time>2010-04-04T13:46:11Z</time>
      </trkpt>
      <trkpt lat="43.61287" lon="6.89406">
        <ele>74.1588135</ele>
        <time>2010-04-04T13:46:15Z</time>
      </trkpt>
      <trkpt lat="43.6128" lon="6.894">
        <ele>73.1976318</ele>
        <time>2010-04-04T13:46:18Z</time>
      </trkpt>
      <trkpt lat="43.61273" lon="6.89405">
        <ele>70.7941895</ele>
        <time>2010-04-04T13:46:21Z</time>
      </trkpt>
      <trkpt lat="43.61267" lon="6.89402">
        <ele>69.8328857</ele>
        <time>2010-04-04T13:46:24Z</time>
      </trkpt>
      <trkpt lat="43.61267" lon="6.89383">
        <ele>67.9102783</ele>
        <time>2010-04-04T13:46:28Z</time>
      </trkpt>
      <trkpt lat="43.61268" lon="6.89372">
        <ele>66.9489746</ele>
        <time>2010-04-04T13:46:30Z</time>
      </trkpt>
      <trkpt lat="43.61272" lon="6.89346">
        <ele>64.0650635</ele>
        <time>2010-04-04T13:46:34Z</time>
      </trkpt>
      <trkpt lat="43.61273" lon="6.8934">
        <ele>63.1036377</ele>
        <time>2010-04-04T13:46:35Z</time>
      </trkpt>
      <trkpt lat="43.61275" lon="6.89321">
        <ele>60.7003174</ele>
        <time>2010-04-04T13:46:39Z</time>
      </trkpt>
      <trkpt lat="43.61279" lon="6.8931">
        <ele>57.8165283</ele>
        <time>2010-04-04T13:46:42Z</time>
      </trkpt>
      <trkpt lat="43.61276" lon="6.89306">
        <ele>55.8937988</ele>
        <time>2010-04-04T13:46:45Z</time>
      </trkpt>
      <trkpt lat="43.61264" lon="6.89311">
        <ele>53.4904785</ele>
        <time>2010-04-04T13:46:49Z</time>
      </trkpt>
      <trkpt lat="43.61258" lon="6.89313">
        <ele>51.5678711</ele>
        <time>2010-04-04T13:46:52Z</time>
      </trkpt>
      <trkpt lat="43.61259" lon="6.89302">
        <ele>49.1645508</ele>
        <time>2010-04-04T13:46:55Z</time>
      </trkpt>
      <trkpt lat="43.61263" lon="6.89291">
        <ele>46.7612305</ele>
        <time>2010-04-04T13:46:58Z</time>
      </trkpt>
      <trkpt lat="43.61272" lon="6.89274">
        <ele>44.838623</ele>
        <time>2010-04-04T13:47:02Z</time>
      </trkpt>
      <trkpt lat="43.6128" lon="6.89267">
        <ele>41.473999</ele>
        <time>2010-04-04T13:47:06Z</time>
      </trkpt>
      <trkpt lat="43.61277" lon="6.89266">
        <ele>40.0321045</ele>
        <time>2010-04-04T13:47:07Z</time>
      </trkpt>
      <trkpt lat="43.61259" lon="6.89267">
        <ele>35.7060547</ele>
        <time>2010-04-04T13:47:10Z</time>
      </trkpt>
      <trkpt lat="43.61245" lon="6.89269">
        <ele>32.3415527</ele>
        <time>2010-04-04T13:47:13Z</time>
      </trkpt>
      <trkpt lat="43.61234" lon="6.89271">
        <ele>29.4575195</ele>
        <time>2010-04-04T13:47:16Z</time>
      </trkpt>
      <trkpt lat="43.61223" lon="6.89276">
        <ele>24.651001</ele>
        <time>2010-04-04T13:47:21Z</time>
      </trkpt>
      <trkpt lat="43.61221" lon="6.89275">
        <ele>20.3249512</ele>
        <time>2010-04-04T13:47:25Z</time>
      </trkpt>
      <trkpt lat="43.61214" lon="6.89255">
        <ele>18.4023438</ele>
        <time>2010-04-04T13:47:30Z</time>
      </trkpt>
      <trkpt lat="43.61207" lon="6.89258">
        <ele>17.4411621</ele>
        <time>2010-04-04T13:47:33Z</time>
      </trkpt>
      <trkpt lat="43.61211" lon="6.89261">
        <ele>19.8443604</ele>
        <time>2010-04-04T13:47:39Z</time>
      </trkpt>
      <trkpt lat="43.61214" lon="6.89262">
        <ele>22.7282715</ele>
        <time>2010-04-04T13:47:52Z</time>
      </trkpt>
      <trkpt lat="43.61212" lon="6.89261">
        <ele>23.2089844</ele>
        <time>2010-04-04T13:48:08Z</time>
      </trkpt>
      <trkpt lat="43.61212" lon="6.89271">
        <ele>22.7282715</ele>
        <time>2010-04-04T13:48:13Z</time>
      </trkpt>
      <trkpt lat="43.6121" lon="6.89278">
        <ele>22.2475586</ele>
        <time>2010-04-04T13:48:20Z</time>
      </trkpt>
      <trkpt lat="43.6121" lon="6.89279">
        <ele>22.7282715</ele>
        <time>2010-04-04T13:48:28Z</time>
      </trkpt>
      <trkpt lat="43.61209" lon="6.8928">
        <ele>22.7282715</ele>
        <time>2010-04-04T13:48:32Z</time>
      </trkpt>
      <trkpt lat="43.61209" lon="6.8928">
        <ele>23.2089844</ele>
        <time>2010-04-04T13:48:39Z</time>
      </trkpt>
      <trkpt lat="43.61209" lon="6.89281">
        <ele>25.1317139</ele>
        <time>2010-04-04T13:48:48Z</time>
      </trkpt>
      <trkpt lat="43.61209" lon="6.8928">
        <ele>24.1702881</ele>
        <time>2010-04-04T13:49:04Z</time>
      </trkpt>
      <trkpt lat="43.61209" lon="6.8928">
        <ele>23.6895752</ele>
        <time>2010-04-04T13:49:31Z</time>
      </trkpt>
      <trkpt lat="43.61209" lon="6.89281">
        <ele>23.6895752</ele>
        <time>2010-04-04T13:49:36Z</time>
      </trkpt>
      <trkpt lat="43.6121" lon="6.89282">
        <ele>25.6123047</ele>
        <time>2010-04-04T13:49:45Z</time>
      </trkpt>
      <trkpt lat="43.61211" lon="6.89283">
        <ele>27.0543213</ele>
        <time>2010-04-04T13:49:57Z</time>
      </trkpt>
      <trkpt lat="43.61211" lon="6.89283">
        <ele>26.0928955</ele>
        <time>2010-04-04T13:50:02Z</time>
      </trkpt>
      <trkpt lat="43.61212" lon="6.89289">
        <ele>26.5736084</ele>
        <time>2010-04-04T13:50:07Z</time>
      </trkpt>
      <trkpt lat="43.61211" lon="6.89294">
        <ele>25.1317139</ele>
        <time>2010-04-04T13:50:16Z</time>
      </trkpt>
      <trkpt lat="43.61212" lon="6.89312">
        <ele>25.1317139</ele>
        <time>2010-04-04T13:50:21Z</time>
      </trkpt>
      <trkpt lat="43.61213" lon="6.89334">
        <ele>23.6895752</ele>
        <time>2010-04-04T13:50:27Z</time>
      </trkpt>
      <trkpt lat="43.6121" lon="6.89353">
        <ele>23.2089844</ele>
        <time>2010-04-04T13:50:32Z</time>
      </trkpt>
      <trkpt lat="43.61203" lon="6.89382">
        <ele>23.6895752</ele>
        <time>2010-04-04T13:50:38Z</time>
      </trkpt>
      <trkpt lat="43.61194" lon="6.89414">
        <ele>24.1702881</ele>
        <time>2010-04-04T13:50:44Z</time>
      </trkpt>
      <trkpt lat="43.6119" lon="6.89426">
        <ele>23.2089844</ele>
        <time>2010-04-04T13:50:46Z</time>
      </trkpt>
      <trkpt lat="43.61185" lon="6.89438">
        <ele>22.7282715</ele>
        <time>2010-04-04T13:50:48Z</time>
      </trkpt>
      <trkpt lat="43.61161" lon="6.89464">
        <ele>21.286377</ele>
        <time>2010-04-04T13:50:54Z</time>
      </trkpt>
      <trkpt lat="43.61138" lon="6.89482">
        <ele>21.286377</ele>
        <time>2010-04-04T13:50:59Z</time>
      </trkpt>
      <trkpt lat="43.61121" lon="6.89489">
        <ele>22.7282715</ele>
        <time>2010-04-04T13:51:03Z</time>
      </trkpt>
      <trkpt lat="43.61116" lon="6.89492">
        <ele>22.2475586</ele>
        <time>2010-04-04T13:51:07Z</time>
      </trkpt>
      <trkpt lat="43.61114" lon="6.89492">
        <ele>23.6895752</ele>
        <time>2010-04-04T13:51:15Z</time>
      </trkpt>
      <trkpt lat="43.61114" lon="6.89494">
        <ele>24.1702881</ele>
        <time>2010-04-04T13:51:17Z</time>
      </trkpt>
      <trkpt lat="43.61109" lon="6.89498">
        <ele>23.6895752</ele>
        <time>2010-04-04T13:51:21Z</time>
      </trkpt>
      <trkpt lat="43.6111" lon="6.89485">
        <ele>21.7669678</ele>
        <time>2010-04-04T13:51:24Z</time>
      </trkpt>
      <trkpt lat="43.61106" lon="6.89464">
        <ele>19.3637695</ele>
        <time>2010-04-04T13:51:29Z</time>
      </trkpt>
      <trkpt lat="43.61103" lon="6.89453">
        <ele>20.8056641</ele>
        <time>2010-04-04T13:51:36Z</time>
      </trkpt>
      <trkpt lat="43.61102" lon="6.8945">
        <ele>26.0928955</ele>
        <time>2010-04-04T13:51:43Z</time>
      </trkpt>
      <trkpt lat="43.61095" lon="6.89451">
        <ele>25.1317139</ele>
        <time>2010-04-04T13:51:47Z</time>
      </trkpt>
      <trkpt lat="43.61091" lon="6.89446">
        <ele>24.651001</ele>
        <time>2010-04-04T13:51:49Z</time>
      </trkpt>
      <trkpt lat="43.61076" lon="6.8944">
        <ele>23.2089844</ele>
        <time>2010-04-04T13:51:55Z</time>
      </trkpt>
      <trkpt lat="43.61066" lon="6.89439">
        <ele>25.1317139</ele>
        <time>2010-04-04T13:51:59Z</time>
      </trkpt>
      <trkpt lat="43.61068" lon="6.89438">
        <ele>23.2089844</ele>
        <time>2010-04-04T13:52:06Z</time>
      </trkpt>
      <trkpt lat="43.61071" lon="6.89439">
        <ele>21.7669678</ele>
        <time>2010-04-04T13:52:10Z</time>
      </trkpt>
      <trkpt lat="43.61073" lon="6.89439">
        <ele>21.7669678</ele>
        <time>2010-04-04T13:52:11Z</time>
      </trkpt>
      <trkpt lat="43.61085" lon="6.89445">
        <ele>20.3249512</ele>
        <time>2010-04-04T13:52:16Z</time>
      </trkpt>
      <trkpt lat="43.61095" lon="6.89456">
        <ele>17.9217529</ele>
        <time>2010-04-04T13:52:20Z</time>
      </trkpt>
      <trkpt lat="43.61101" lon="6.89461">
        <ele>17.9217529</ele>
        <time>2010-04-04T13:52:23Z</time>
      </trkpt>
      <trkpt lat="43.61108" lon="6.89474">
        <ele>20.3249512</ele>
        <time>2010-04-04T13:52:29Z</time>
      </trkpt>
      <trkpt lat="43.61109" lon="6.89476">
        <ele>20.8056641</ele>
        <time>2010-04-04T13:52:30Z</time>
      </trkpt>
      <trkpt lat="43.6111" lon="6.89486">
        <ele>21.7669678</ele>
        <time>2010-04-04T13:52:34Z</time>
      </trkpt>
      <trkpt lat="43.61104" lon="6.895">
        <ele>22.2475586</ele>
        <time>2010-04-04T13:52:39Z</time>
      </trkpt>
      <trkpt lat="43.61092" lon="6.8951">
        <ele>22.2475586</ele>
        <time>2010-04-04T13:52:44Z</time>
      </trkpt>
      <trkpt lat="43.61068" lon="6.89526">
        <ele>22.7282715</ele>
        <time>2010-04-04T13:52:52Z</time>
      </trkpt>
      <trkpt lat="43.61046" lon="6.89539">
        <ele>22.7282715</ele>
        <time>2010-04-04T13:52:59Z</time>
      </trkpt>
      <trkpt lat="43.61023" lon="6.89555">
        <ele>21.7669678</ele>
        <time>2010-04-04T13:53:06Z</time>
      </trkpt>
      <trkpt lat="43.60998" lon="6.89573">
        <ele>21.286377</ele>
        <time>2010-04-04T13:53:13Z</time>
      </trkpt>
      <trkpt lat="43.60983" lon="6.89584">
        <ele>20.8056641</ele>
        <time>2010-04-04T13:53:17Z</time>
      </trkpt>
      <trkpt lat="43.60966" lon="6.89603">
        <ele>20.8056641</ele>
        <time>2010-04-04T13:53:22Z</time>
      </trkpt>
      <trkpt lat="43.60943" lon="6.89638">
        <ele>20.8056641</ele>
        <time>2010-04-04T13:53:30Z</time>
      </trkpt>
      <trkpt lat="43.60934" lon="6.89659">
        <ele>20.8056641</ele>
        <time>2010-04-04T13:53:34Z</time>
      </trkpt>
      <trkpt lat="43.60917" lon="6.89703">
        <ele>21.286377</ele>
        <time>2010-04-04T13:53:42Z</time>
      </trkpt>
      <trkpt lat="43.60915" lon="6.89708">
        <ele>21.286377</ele>
        <time>2010-04-04T13:53:43Z</time>
      </trkpt>
      <trkpt lat="43.60901" lon="6.8974">
        <ele>21.286377</ele>
        <time>2010-04-04T13:53:50Z</time>
      </trkpt>
      <trkpt lat="43.60885" lon="6.89772">
        <ele>21.7669678</ele>
        <time>2010-04-04T13:53:57Z</time>
      </trkpt>
      <trkpt lat="43.60873" lon="6.89788">
        <ele>22.2475586</ele>
        <time>2010-04-04T13:54:01Z</time>
      </trkpt>
      <trkpt lat="43.6086" lon="6.89802">
        <ele>22.2475586</ele>
        <time>2010-04-04T13:54:05Z</time>
      </trkpt>
      <trkpt lat="43.60843" lon="6.89819">
        <ele>21.7669678</ele>
        <time>2010-04-04T13:54:10Z</time>
      </trkpt>
      <trkpt lat="43.60832" lon="6.89826">
        <ele>21.286377</ele>
        <time>2010-04-04T13:54:13Z</time>
      </trkpt>
      <trkpt lat="43.60825" lon="6.89831">
        <ele>20.8056641</ele>
        <time>2010-04-04T13:54:15Z</time>
      </trkpt>
      <trkpt lat="43.60813" lon="6.89843">
        <ele>21.286377</ele>
        <time>2010-04-04T13:54:18Z</time>
      </trkpt>
      <trkpt lat="43.60799" lon="6.89864">
        <ele>22.2475586</ele>
        <time>2010-04-04T13:54:22Z</time>
      </trkpt>
      <trkpt lat="43.60782" lon="6.89913">
        <ele>21.7669678</ele>
        <time>2010-04-04T13:54:30Z</time>
      </trkpt>
      <trkpt lat="43.60759" lon="6.8996">
        <ele>22.2475586</ele>
        <time>2010-04-04T13:54:39Z</time>
      </trkpt>
      <trkpt lat="43.60734" lon="6.90008">
        <ele>22.2475586</ele>
        <time>2010-04-04T13:54:48Z</time>
      </trkpt>
      <trkpt lat="43.60709" lon="6.90055">
        <ele>22.2475586</ele>
        <time>2010-04-04T13:54:57Z</time>
      </trkpt>
      <trkpt lat="43.60693" lon="6.90087">
        <ele>22.2475586</ele>
        <time>2010-04-04T13:55:03Z</time>
      </trkpt>
      <trkpt lat="43.60676" lon="6.90109">
        <ele>22.2475586</ele>
        <time>2010-04-04T13:55:08Z</time>
      </trkpt>
      <trkpt lat="43.60663" lon="6.90135">
        <ele>21.7669678</ele>
        <time>2010-04-04T13:55:13Z</time>
      </trkpt>
      <trkpt lat="43.6066" lon="6.90147">
        <ele>21.7669678</ele>
        <time>2010-04-04T13:55:15Z</time>
      </trkpt>
      <trkpt lat="43.60659" lon="6.90179">
        <ele>22.2475586</ele>
        <time>2010-04-04T13:55:20Z</time>
      </trkpt>
      <trkpt lat="43.60659" lon="6.90229">
        <ele>22.2475586</ele>
        <time>2010-04-04T13:55:28Z</time>
      </trkpt>
      <trkpt lat="43.60666" lon="6.9026">
        <ele>22.7282715</ele>
        <time>2010-04-04T13:55:33Z</time>
      </trkpt>
      <trkpt lat="43.60665" lon="6.9029">
        <ele>23.2089844</ele>
        <time>2010-04-04T13:55:38Z</time>
      </trkpt>
      <trkpt lat="43.60663" lon="6.90296">
        <ele>22.7282715</ele>
        <time>2010-04-04T13:55:39Z</time>
      </trkpt>
      <trkpt lat="43.60641" lon="6.9033">
        <ele>24.1702881</ele>
        <time>2010-04-04T13:55:47Z</time>
      </trkpt>
      <trkpt lat="43.60633" lon="6.90344">
        <ele>26.5736084</ele>
        <time>2010-04-04T13:55:52Z</time>
      </trkpt>
      <trkpt lat="43.60625" lon="6.9036">
        <ele>28.9769287</ele>
        <time>2010-04-04T13:56:00Z</time>
      </trkpt>
      <trkpt lat="43.6062" lon="6.90374">
        <ele>30.8995361</ele>
        <time>2010-04-04T13:56:06Z</time>
      </trkpt>
      <trkpt lat="43.60614" lon="6.90386">
        <ele>33.3028564</ele>
        <time>2010-04-04T13:56:11Z</time>
      </trkpt>
      <trkpt lat="43.60609" lon="6.90384">
        <ele>33.7834473</ele>
        <time>2010-04-04T13:56:15Z</time>
      </trkpt>
      <trkpt lat="43.60617" lon="6.90369">
        <ele>31.8607178</ele>
        <time>2010-04-04T13:56:20Z</time>
      </trkpt>
      <trkpt lat="43.60619" lon="6.90341">
        <ele>31.380127</ele>
        <time>2010-04-04T13:56:26Z</time>
      </trkpt>
      <trkpt lat="43.60611" lon="6.90324">
        <ele>29.9381104</ele>
        <time>2010-04-04T13:56:30Z</time>
      </trkpt>
      <trkpt lat="43.60594" lon="6.90304">
        <ele>29.4575195</ele>
        <time>2010-04-04T13:56:35Z</time>
      </trkpt>
      <trkpt lat="43.60572" lon="6.90254">
        <ele>28.4962158</ele>
        <time>2010-04-04T13:56:44Z</time>
      </trkpt>
      <trkpt lat="43.60558" lon="6.90231">
        <ele>28.0155029</ele>
        <time>2010-04-04T13:56:48Z</time>
      </trkpt>
      <trkpt lat="43.60537" lon="6.90206">
        <ele>28.0155029</ele>
        <time>2010-04-04T13:56:53Z</time>
      </trkpt>
      <trkpt lat="43.60521" lon="6.90195">
        <ele>28.0155029</ele>
        <time>2010-04-04T13:56:56Z</time>
      </trkpt>
      <trkpt lat="43.60493" lon="6.90189">
        <ele>28.0155029</ele>
        <time>2010-04-04T13:57:01Z</time>
      </trkpt>
      <trkpt lat="43.60469" lon="6.90193">
        <ele>27.5349121</ele>
        <time>2010-04-04T13:57:05Z</time>
      </trkpt>
      <trkpt lat="43.60448" lon="6.90205">
        <ele>25.6123047</ele>
        <time>2010-04-04T13:57:09Z</time>
      </trkpt>
      <trkpt lat="43.60408" lon="6.90225">
        <ele>23.6895752</ele>
        <time>2010-04-04T13:57:16Z</time>
      </trkpt>
      <trkpt lat="43.60385" lon="6.90234">
        <ele>23.6895752</ele>
        <time>2010-04-04T13:57:20Z</time>
      </trkpt>
      <trkpt lat="43.60369" lon="6.90245">
        <ele>23.6895752</ele>
        <time>2010-04-04T13:57:23Z</time>
      </trkpt>
      <trkpt lat="43.60346" lon="6.9025">
        <ele>23.2089844</ele>
        <time>2010-04-04T13:57:27Z</time>
      </trkpt>
      <trkpt lat="43.60326" lon="6.90238">
        <ele>24.651001</ele>
        <time>2010-04-04T13:57:32Z</time>
      </trkpt>
      <trkpt lat="43.60324" lon="6.90234">
        <ele>26.0928955</ele>
        <time>2010-04-04T13:57:33Z</time>
      </trkpt>
      <trkpt lat="43.6032" lon="6.9023">
        <ele>26.5736084</ele>
        <time>2010-04-04T13:57:35Z</time>
      </trkpt>
      <trkpt lat="43.60315" lon="6.90221">
        <ele>27.5349121</ele>
        <time>2010-04-04T13:57:40Z</time>
      </trkpt>
      <trkpt lat="43.60309" lon="6.90211">
        <ele>27.5349121</ele>
        <time>2010-04-04T13:57:44Z</time>
      </trkpt>
      <trkpt lat="43.60298" lon="6.90193">
        <ele>28.4962158</ele>
        <time>2010-04-04T13:57:51Z</time>
      </trkpt>
      <trkpt lat="43.60295" lon="6.90175">
        <ele>29.4575195</ele>
        <time>2010-04-04T13:57:56Z</time>
      </trkpt>
      <trkpt lat="43.603" lon="6.90162">
        <ele>30.4188232</ele>
        <time>2010-04-04T13:58:00Z</time>
      </trkpt>
      <trkpt lat="43.60313" lon="6.90153">
        <ele>31.8607178</ele>
        <time>2010-04-04T13:58:06Z</time>
      </trkpt>
      <trkpt lat="43.60326" lon="6.90148">
        <ele>33.7834473</ele>
        <time>2010-04-04T13:58:13Z</time>
      </trkpt>
      <trkpt lat="43.60336" lon="6.90143">
        <ele>34.744873</ele>
        <time>2010-04-04T13:58:19Z</time>
      </trkpt>
      <trkpt lat="43.60348" lon="6.90136">
        <ele>36.1867676</ele>
        <time>2010-04-04T13:58:26Z</time>
      </trkpt>
      <trkpt lat="43.60358" lon="6.90123">
        <ele>37.1480713</ele>
        <time>2010-04-04T13:58:33Z</time>
      </trkpt>
      <trkpt lat="43.60365" lon="6.90113">
        <ele>38.109375</ele>
        <time>2010-04-04T13:58:39Z</time>
      </trkpt>
      <trkpt lat="43.60374" lon="6.90099">
        <ele>38.109375</ele>
        <time>2010-04-04T13:58:47Z</time>
      </trkpt>
      <trkpt lat="43.60378" lon="6.90084">
        <ele>39.0706787</ele>
        <time>2010-04-04T13:58:53Z</time>
      </trkpt>
      <trkpt lat="43.60379" lon="6.90069">
        <ele>40.9934082</ele>
        <time>2010-04-04T13:58:59Z</time>
      </trkpt>
      <trkpt lat="43.60373" lon="6.9006">
        <ele>41.9547119</ele>
        <time>2010-04-04T13:59:04Z</time>
      </trkpt>
      <trkpt lat="43.60364" lon="6.90053">
        <ele>43.3966064</ele>
        <time>2010-04-04T13:59:10Z</time>
      </trkpt>
      <trkpt lat="43.60356" lon="6.9004">
        <ele>43.8773193</ele>
        <time>2010-04-04T13:59:16Z</time>
      </trkpt>
      <trkpt lat="43.6036" lon="6.90023">
        <ele>44.838623</ele>
        <time>2010-04-04T13:59:22Z</time>
      </trkpt>
      <trkpt lat="43.60369" lon="6.90006">
        <ele>45.3192139</ele>
        <time>2010-04-04T13:59:30Z</time>
      </trkpt>
      <trkpt lat="43.60375" lon="6.89998">
        <ele>45.7999268</ele>
        <time>2010-04-04T13:59:35Z</time>
      </trkpt>
      <trkpt lat="43.60382" lon="6.89979">
        <ele>47.7225342</ele>
        <time>2010-04-04T13:59:42Z</time>
      </trkpt>
      <trkpt lat="43.6039" lon="6.89965">
        <ele>49.6452637</ele>
        <time>2010-04-04T13:59:48Z</time>
      </trkpt>
      <trkpt lat="43.60398" lon="6.89945">
        <ele>52.048584</ele>
        <time>2010-04-04T13:59:56Z</time>
      </trkpt>
      <trkpt lat="43.60408" lon="6.89922">
        <ele>53.4904785</ele>
        <time>2010-04-04T14:00:05Z</time>
      </trkpt>
      <trkpt lat="43.60418" lon="6.89905">
        <ele>54.932373</ele>
        <time>2010-04-04T14:00:12Z</time>
      </trkpt>
      <trkpt lat="43.60425" lon="6.89891">
        <ele>55.4130859</ele>
        <time>2010-04-04T14:00:18Z</time>
      </trkpt>
      <trkpt lat="43.60438" lon="6.89875">
        <ele>57.3358154</ele>
        <time>2010-04-04T14:00:26Z</time>
      </trkpt>
      <trkpt lat="43.60449" lon="6.89866">
        <ele>58.77771</ele>
        <time>2010-04-04T14:00:32Z</time>
      </trkpt>
      <trkpt lat="43.60458" lon="6.89853">
        <ele>60.2197266</ele>
        <time>2010-04-04T14:00:38Z</time>
      </trkpt>
      <trkpt lat="43.60461" lon="6.89839">
        <ele>60.2197266</ele>
        <time>2010-04-04T14:00:43Z</time>
      </trkpt>
      <trkpt lat="43.60456" lon="6.89817">
        <ele>60.7003174</ele>
        <time>2010-04-04T14:00:50Z</time>
      </trkpt>
      <trkpt lat="43.60446" lon="6.89794">
        <ele>62.142334</ele>
        <time>2010-04-04T14:00:58Z</time>
      </trkpt>
      <trkpt lat="43.60439" lon="6.89776">
        <ele>62.142334</ele>
        <time>2010-04-04T14:01:05Z</time>
      </trkpt>
      <trkpt lat="43.60429" lon="6.89756">
        <ele>62.142334</ele>
        <time>2010-04-04T14:01:13Z</time>
      </trkpt>
      <trkpt lat="43.60421" lon="6.8974">
        <ele>63.1036377</ele>
        <time>2010-04-04T14:01:20Z</time>
      </trkpt>
      <trkpt lat="43.60418" lon="6.89735">
        <ele>63.5843506</ele>
        <time>2010-04-04T14:01:22Z</time>
      </trkpt>
      <trkpt lat="43.60421" lon="6.89724">
        <ele>65.9876709</ele>
        <time>2010-04-04T14:01:27Z</time>
      </trkpt>
      <trkpt lat="43.60431" lon="6.89725">
        <ele>69.8328857</ele>
        <time>2010-04-04T14:01:32Z</time>
      </trkpt>
      <trkpt lat="43.60446" lon="6.89733">
        <ele>75.1202393</ele>
        <time>2010-04-04T14:01:39Z</time>
      </trkpt>
      <trkpt lat="43.60448" lon="6.89734">
        <ele>75.1202393</ele>
        <time>2010-04-04T14:01:40Z</time>
      </trkpt>
      <trkpt lat="43.60463" lon="6.8974">
        <ele>73.6782227</ele>
        <time>2010-04-04T14:01:47Z</time>
      </trkpt>
      <trkpt lat="43.60476" lon="6.89745">
        <ele>73.1976318</ele>
        <time>2010-04-04T14:01:53Z</time>
      </trkpt>
      <trkpt lat="43.60491" lon="6.89749">
        <ele>73.6782227</ele>
        <time>2010-04-04T14:02:00Z</time>
      </trkpt>
      <trkpt lat="43.60506" lon="6.89743">
        <ele>74.6395264</ele>
        <time>2010-04-04T14:02:07Z</time>
      </trkpt>
      <trkpt lat="43.60521" lon="6.89725">
        <ele>75.6008301</ele>
        <time>2010-04-04T14:02:15Z</time>
      </trkpt>
      <trkpt lat="43.60533" lon="6.89709">
        <ele>76.0814209</ele>
        <time>2010-04-04T14:02:22Z</time>
      </trkpt>
      <trkpt lat="43.60545" lon="6.89707">
        <ele>77.5234375</ele>
        <time>2010-04-04T14:02:27Z</time>
      </trkpt>
      <trkpt lat="43.60556" lon="6.89714">
        <ele>78.9654541</ele>
        <time>2010-04-04T14:02:32Z</time>
      </trkpt>
      <trkpt lat="43.6057" lon="6.89716">
        <ele>79.9266357</ele>
        <time>2010-04-04T14:02:38Z</time>
      </trkpt>
      <trkpt lat="43.60584" lon="6.89705">
        <ele>81.3687744</ele>
        <time>2010-04-04T14:02:45Z</time>
      </trkpt>
      <trkpt lat="43.606" lon="6.8968">
        <ele>83.2913818</ele>
        <time>2010-04-04T14:02:55Z</time>
      </trkpt>
      <trkpt lat="43.60609" lon="6.89661">
        <ele>84.2526855</ele>
        <time>2010-04-04T14:03:02Z</time>
      </trkpt>
      <trkpt lat="43.60618" lon="6.89636">
        <ele>85.6945801</ele>
        <time>2010-04-04T14:03:10Z</time>
      </trkpt>
      <trkpt lat="43.60626" lon="6.89619">
        <ele>86.6560059</ele>
        <time>2010-04-04T14:03:16Z</time>
      </trkpt>
      <trkpt lat="43.60635" lon="6.89605">
        <ele>88.0980225</ele>
        <time>2010-04-04T14:03:22Z</time>
      </trkpt>
      <trkpt lat="43.60642" lon="6.89592">
        <ele>90.0206299</ele>
        <time>2010-04-04T14:03:29Z</time>
      </trkpt>
      <trkpt lat="43.60643" lon="6.89588">
        <ele>90.5013428</ele>
        <time>2010-04-04T14:03:31Z</time>
      </trkpt>
      <trkpt lat="43.60637" lon="6.89582">
        <ele>91.4625244</ele>
        <time>2010-04-04T14:03:36Z</time>
      </trkpt>
      <trkpt lat="43.60636" lon="6.89583">
        <ele>91.4625244</ele>
        <time>2010-04-04T14:03:37Z</time>
      </trkpt>
      <trkpt lat="43.60629" lon="6.89591">
        <ele>91.9432373</ele>
        <time>2010-04-04T14:03:41Z</time>
      </trkpt>
      <trkpt lat="43.60624" lon="6.89601">
        <ele>91.9432373</ele>
        <time>2010-04-04T14:03:45Z</time>
      </trkpt>
      <trkpt lat="43.60614" lon="6.89619">
        <ele>92.4239502</ele>
        <time>2010-04-04T14:03:52Z</time>
      </trkpt>
      <trkpt lat="43.60607" lon="6.89631">
        <ele>93.3851318</ele>
        <time>2010-04-04T14:03:57Z</time>
      </trkpt>
      <trkpt lat="43.60591" lon="6.89654">
        <ele>93.8658447</ele>
        <time>2010-04-04T14:04:06Z</time>
      </trkpt>
      <trkpt lat="43.60576" lon="6.89665">
        <ele>95.7884521</ele>
        <time>2010-04-04T14:04:13Z</time>
      </trkpt>
      <trkpt lat="43.60563" lon="6.8966">
        <ele>96.7498779</ele>
        <time>2010-04-04T14:04:18Z</time>
      </trkpt>
      <trkpt lat="43.60546" lon="6.89648">
        <ele>98.6724854</ele>
        <time>2010-04-04T14:04:26Z</time>
      </trkpt>
      <trkpt lat="43.60531" lon="6.89653">
        <ele>99.1530762</ele>
        <time>2010-04-04T14:04:32Z</time>
      </trkpt>
      <trkpt lat="43.60517" lon="6.89666">
        <ele>99.6337891</ele>
        <time>2010-04-04T14:04:39Z</time>
      </trkpt>
      <trkpt lat="43.60502" lon="6.89679">
        <ele>100.5950928</ele>
        <time>2010-04-04T14:04:46Z</time>
      </trkpt>
      <trkpt lat="43.60488" lon="6.8968">
        <ele>101.5563965</ele>
        <time>2010-04-04T14:04:52Z</time>
      </trkpt>
      <trkpt lat="43.60484" lon="6.89679">
        <ele>102.0371094</ele>
        <time>2010-04-04T14:04:54Z</time>
      </trkpt>
      <trkpt lat="43.60474" lon="6.8967">
        <ele>102.5177002</ele>
        <time>2010-04-04T14:05:00Z</time>
      </trkpt>
      <trkpt lat="43.60459" lon="6.89661">
        <ele>103.9597168</ele>
        <time>2010-04-04T14:05:07Z</time>
      </trkpt>
      <trkpt lat="43.60443" lon="6.89655">
        <ele>104.9210205</ele>
        <time>2010-04-04T14:05:15Z</time>
      </trkpt>
      <trkpt lat="43.60423" lon="6.89649">
        <ele>105.8824463</ele>
        <time>2010-04-04T14:05:23Z</time>
      </trkpt>
      <trkpt lat="43.60409" lon="6.89645">
        <ele>106.3630371</ele>
        <time>2010-04-04T14:05:29Z</time>
      </trkpt>
      <trkpt lat="43.60395" lon="6.89649">
        <ele>107.3243408</ele>
        <time>2010-04-04T14:05:35Z</time>
      </trkpt>
      <trkpt lat="43.60375" lon="6.89654">
        <ele>108.7662354</ele>
        <time>2010-04-04T14:05:43Z</time>
      </trkpt>
      <trkpt lat="43.60355" lon="6.89655">
        <ele>110.6888428</ele>
        <time>2010-04-04T14:05:51Z</time>
      </trkpt>
      <trkpt lat="43.60345" lon="6.89665">
        <ele>112.6115723</ele>
        <time>2010-04-04T14:05:56Z</time>
      </trkpt>
      <trkpt lat="43.60345" lon="6.89683">
        <ele>113.0922852</ele>
        <time>2010-04-04T14:06:01Z</time>
      </trkpt>
      <trkpt lat="43.60351" lon="6.89716">
        <ele>114.5341797</ele>
        <time>2010-04-04T14:06:10Z</time>
      </trkpt>
      <trkpt lat="43.60352" lon="6.89748">
        <ele>116.9375</ele>
        <time>2010-04-04T14:06:19Z</time>
      </trkpt>
      <trkpt lat="43.60345" lon="6.89771">
        <ele>118.3793945</ele>
        <time>2010-04-04T14:06:26Z</time>
      </trkpt>
      <trkpt lat="43.60335" lon="6.89786">
        <ele>119.3408203</ele>
        <time>2010-04-04T14:06:32Z</time>
      </trkpt>
      <trkpt lat="43.60323" lon="6.89792">
        <ele>119.3408203</ele>
        <time>2010-04-04T14:06:37Z</time>
      </trkpt>
      <trkpt lat="43.60311" lon="6.89809">
        <ele>120.7828369</ele>
        <time>2010-04-04T14:06:44Z</time>
      </trkpt>
      <trkpt lat="43.60301" lon="6.89827">
        <ele>122.7054443</ele>
        <time>2010-04-04T14:06:51Z</time>
      </trkpt>
      <trkpt lat="43.60292" lon="6.89834">
        <ele>124.1473389</ele>
        <time>2010-04-04T14:06:56Z</time>
      </trkpt>
      <trkpt lat="43.60281" lon="6.89836">
        <ele>124.1473389</ele>
        <time>2010-04-04T14:07:01Z</time>
      </trkpt>
      <trkpt lat="43.60273" lon="6.89836">
        <ele>124.6280518</ele>
        <time>2010-04-04T14:07:06Z</time>
      </trkpt>
      <trkpt lat="43.60258" lon="6.8983">
        <ele>125.1087646</ele>
        <time>2010-04-04T14:07:13Z</time>
      </trkpt>
      <trkpt lat="43.60245" lon="6.89821">
        <ele>126.0699463</ele>
        <time>2010-04-04T14:07:20Z</time>
      </trkpt>
      <trkpt lat="43.60228" lon="6.89808">
        <ele>127.5119629</ele>
        <time>2010-04-04T14:07:29Z</time>
      </trkpt>
      <trkpt lat="43.6021" lon="6.89795">
        <ele>128.9541016</ele>
        <time>2010-04-04T14:07:38Z</time>
      </trkpt>
      <trkpt lat="43.60199" lon="6.89786">
        <ele>129.4346924</ele>
        <time>2010-04-04T14:07:44Z</time>
      </trkpt>
      <trkpt lat="43.60196" lon="6.89785">
        <ele>129.9152832</ele>
        <time>2010-04-04T14:07:46Z</time>
      </trkpt>
      <trkpt lat="43.60187" lon="6.89777">
        <ele>131.3572998</ele>
        <time>2010-04-04T14:07:52Z</time>
      </trkpt>
      <trkpt lat="43.60179" lon="6.89769">
        <ele>132.3186035</ele>
        <time>2010-04-04T14:07:57Z</time>
      </trkpt>
      <trkpt lat="43.60169" lon="6.89759">
        <ele>132.7993164</ele>
        <time>2010-04-04T14:08:03Z</time>
      </trkpt>
      <trkpt lat="43.6016" lon="6.89749">
        <ele>133.760498</ele>
        <time>2010-04-04T14:08:09Z</time>
      </trkpt>
      <trkpt lat="43.60152" lon="6.89737">
        <ele>134.2412109</ele>
        <time>2010-04-04T14:08:15Z</time>
      </trkpt>
      <trkpt lat="43.6014" lon="6.89721">
        <ele>136.1639404</ele>
        <time>2010-04-04T14:08:23Z</time>
      </trkpt>
      <trkpt lat="43.6013" lon="6.89708">
        <ele>137.605835</ele>
        <time>2010-04-04T14:08:30Z</time>
      </trkpt>
      <trkpt lat="43.60122" lon="6.89695">
        <ele>138.0865479</ele>
        <time>2010-04-04T14:08:36Z</time>
      </trkpt>
      <trkpt lat="43.60112" lon="6.89687">
        <ele>138.0865479</ele>
        <time>2010-04-04T14:08:42Z</time>
      </trkpt>
      <trkpt lat="43.60111" lon="6.89687">
        <ele>138.0865479</ele>
        <time>2010-04-04T14:08:43Z</time>
      </trkpt>
      <trkpt lat="43.60109" lon="6.89684">
        <ele>138.5672607</ele>
        <time>2010-04-04T14:08:47Z</time>
      </trkpt>
      <trkpt lat="43.60108" lon="6.89685">
        <ele>139.5284424</ele>
        <time>2010-04-04T14:08:49Z</time>
      </trkpt>
      <trkpt lat="43.60107" lon="6.89683">
        <ele>140.970459</ele>
        <time>2010-04-04T14:08:55Z</time>
      </trkpt>
      <trkpt lat="43.60107" lon="6.89684">
        <ele>141.4510498</ele>
        <time>2010-04-04T14:09:07Z</time>
      </trkpt>
      <trkpt lat="43.60108" lon="6.89683">
        <ele>141.9317627</ele>
        <time>2010-04-04T14:09:11Z</time>
      </trkpt>
      <trkpt lat="43.60107" lon="6.89683">
        <ele>143.3736572</ele>
        <time>2010-04-04T14:09:21Z</time>
      </trkpt>
      <trkpt lat="43.60106" lon="6.89683">
        <ele>146.2578125</ele>
        <time>2010-04-04T14:09:44Z</time>
      </trkpt>
      <trkpt lat="43.60107" lon="6.89684">
        <ele>146.2578125</ele>
        <time>2010-04-04T14:09:51Z</time>
      </trkpt>
      <trkpt lat="43.60107" lon="6.89683">
        <ele>147.2189941</ele>
        <time>2010-04-04T14:10:00Z</time>
      </trkpt>
      <trkpt lat="43.60108" lon="6.89682">
        <ele>142.8930664</ele>
        <time>2010-04-04T14:10:17Z</time>
      </trkpt>
      <trkpt lat="43.60107" lon="6.89685">
        <ele>143.3736572</ele>
        <time>2010-04-04T14:10:35Z</time>
      </trkpt>
      <trkpt lat="43.60109" lon="6.89683">
        <ele>144.8157959</ele>
        <time>2010-04-04T14:10:47Z</time>
      </trkpt>
      <trkpt lat="43.60105" lon="6.89685">
        <ele>144.3352051</ele>
        <time>2010-04-04T14:11:08Z</time>
      </trkpt>
      <trkpt lat="43.60107" lon="6.89685">
        <ele>142.8930664</ele>
        <time>2010-04-04T14:11:31Z</time>
      </trkpt>
      <trkpt lat="43.60107" lon="6.89685">
        <ele>142.8930664</ele>
        <time>2010-04-04T14:11:37Z</time>
      </trkpt>
      <trkpt lat="43.60106" lon="6.89686">
        <ele>142.4124756</ele>
        <time>2010-04-04T14:11:45Z</time>
      </trkpt>
      <trkpt lat="43.60106" lon="6.89685">
        <ele>145.2963867</ele>
        <time>2010-04-04T14:11:59Z</time>
      </trkpt>
      <trkpt lat="43.60103" lon="6.89689">
        <ele>145.2963867</ele>
        <time>2010-04-04T14:12:03Z</time>
      </trkpt>
      <trkpt lat="43.601" lon="6.89712">
        <ele>146.2578125</ele>
        <time>2010-04-04T14:12:11Z</time>
      </trkpt>
      <trkpt lat="43.601" lon="6.89736">
        <ele>146.2578125</ele>
        <time>2010-04-04T14:12:18Z</time>
      </trkpt>
      <trkpt lat="43.60099" lon="6.89756">
        <ele>147.699707</ele>
        <time>2010-04-04T14:12:24Z</time>
      </trkpt>
      <trkpt lat="43.60094" lon="6.89775">
        <ele>148.6610107</ele>
        <time>2010-04-04T14:12:30Z</time>
      </trkpt>
      <trkpt lat="43.60083" lon="6.89797">
        <ele>150.5836182</ele>
        <time>2010-04-04T14:12:38Z</time>
      </trkpt>
      <trkpt lat="43.60079" lon="6.89818">
        <ele>152.0257568</ele>
        <time>2010-04-04T14:12:44Z</time>
      </trkpt>
      <trkpt lat="43.60082" lon="6.89841">
        <ele>152.5063477</ele>
        <time>2010-04-04T14:12:51Z</time>
      </trkpt>
      <trkpt lat="43.60085" lon="6.89868">
        <ele>153.4676514</ele>
        <time>2010-04-04T14:12:59Z</time>
      </trkpt>
      <trkpt lat="43.6009" lon="6.89901">
        <ele>153.9483643</ele>
        <time>2010-04-04T14:13:08Z</time>
      </trkpt>
      <trkpt lat="43.60087" lon="6.8992">
        <ele>154.9095459</ele>
        <time>2010-04-04T14:13:13Z</time>
      </trkpt>
      <trkpt lat="43.60075" lon="6.89932">
        <ele>155.3902588</ele>
        <time>2010-04-04T14:13:18Z</time>
      </trkpt>
      <trkpt lat="43.60064" lon="6.89932">
        <ele>155.8709717</ele>
        <time>2010-04-04T14:13:22Z</time>
      </trkpt>
      <trkpt lat="43.60043" lon="6.89919">
        <ele>156.3515625</ele>
        <time>2010-04-04T14:13:30Z</time>
      </trkpt>
      <trkpt lat="43.60027" lon="6.89906">
        <ele>156.8321533</ele>
        <time>2010-04-04T14:13:37Z</time>
      </trkpt>
      <trkpt lat="43.60013" lon="6.89898">
        <ele>157.7935791</ele>
        <time>2010-04-04T14:13:44Z</time>
      </trkpt>
      <trkpt lat="43.60001" lon="6.8989">
        <ele>158.2741699</ele>
        <time>2010-04-04T14:13:50Z</time>
      </trkpt>
      <trkpt lat="43.59985" lon="6.89876">
        <ele>158.7547607</ele>
        <time>2010-04-04T14:13:58Z</time>
      </trkpt>
      <trkpt lat="43.59974" lon="6.89866">
        <ele>159.7161865</ele>
        <time>2010-04-04T14:14:04Z</time>
      </trkpt>
      <trkpt lat="43.5996" lon="6.8985">
        <ele>161.638916</ele>
        <time>2010-04-04T14:14:12Z</time>
      </trkpt>
      <trkpt lat="43.59952" lon="6.89836">
        <ele>162.6000977</ele>
        <time>2010-04-04T14:14:18Z</time>
      </trkpt>
      <trkpt lat="43.59942" lon="6.89812">
        <ele>164.0421143</ele>
        <time>2010-04-04T14:14:27Z</time>
      </trkpt>
      <trkpt lat="43.59933" lon="6.89792">
        <ele>165.4841309</ele>
        <time>2010-04-04T14:14:35Z</time>
      </trkpt>
      <trkpt lat="43.59923" lon="6.89768">
        <ele>166.9260254</ele>
        <time>2010-04-04T14:14:44Z</time>
      </trkpt>
      <trkpt lat="43.59916" lon="6.8974">
        <ele>168.368042</ele>
        <time>2010-04-04T14:14:54Z</time>
      </trkpt>
      <trkpt lat="43.5991" lon="6.89717">
        <ele>169.8100586</ele>
        <time>2010-04-04T14:15:02Z</time>
      </trkpt>
      <trkpt lat="43.59906" lon="6.89689">
        <ele>171.732666</ele>
        <time>2010-04-04T14:15:12Z</time>
      </trkpt>
      <trkpt lat="43.59901" lon="6.89674">
        <ele>173.1746826</ele>
        <time>2010-04-04T14:15:19Z</time>
      </trkpt>
      <trkpt lat="43.59898" lon="6.89669">
        <ele>173.1746826</ele>
        <time>2010-04-04T14:15:23Z</time>
      </trkpt>
      <trkpt lat="43.5988" lon="6.89658">
        <ele>176.5393066</ele>
        <time>2010-04-04T14:15:32Z</time>
      </trkpt>
      <trkpt lat="43.59863" lon="6.89647">
        <ele>178.4619141</ele>
        <time>2010-04-04T14:15:40Z</time>
      </trkpt>
      <trkpt lat="43.59851" lon="6.8964">
        <ele>180.3845215</ele>
        <time>2010-04-04T14:15:46Z</time>
      </trkpt>
      <trkpt lat="43.5984" lon="6.89628">
        <ele>181.826416</ele>
        <time>2010-04-04T14:15:52Z</time>
      </trkpt>
      <trkpt lat="43.5983" lon="6.89605">
        <ele>182.3071289</ele>
        <time>2010-04-04T14:16:00Z</time>
      </trkpt>
      <trkpt lat="43.59821" lon="6.8958">
        <ele>182.7878418</ele>
        <time>2010-04-04T14:16:09Z</time>
      </trkpt>
      <trkpt lat="43.59815" lon="6.89567">
        <ele>184.2298584</ele>
        <time>2010-04-04T14:16:14Z</time>
      </trkpt>
      <trkpt lat="43.59801" lon="6.89553">
        <ele>185.6717529</ele>
        <time>2010-04-04T14:16:22Z</time>
      </trkpt>
      <trkpt lat="43.59791" lon="6.89535">
        <ele>186.6331787</ele>
        <time>2010-04-04T14:16:29Z</time>
      </trkpt>
      <trkpt lat="43.59791" lon="6.89515">
        <ele>187.5943604</ele>
        <time>2010-04-04T14:16:35Z</time>
      </trkpt>
      <trkpt lat="43.59796" lon="6.89495">
        <ele>189.9976807</ele>
        <time>2010-04-04T14:16:42Z</time>
      </trkpt>
      <trkpt lat="43.59803" lon="6.89474">
        <ele>191.4395752</ele>
        <time>2010-04-04T14:16:50Z</time>
      </trkpt>
      <trkpt lat="43.598" lon="6.89463">
        <ele>192.401123</ele>
        <time>2010-04-04T14:16:55Z</time>
      </trkpt>
      <trkpt lat="43.5979" lon="6.89453">
        <ele>194.3237305</ele>
        <time>2010-04-04T14:17:01Z</time>
      </trkpt>
      <trkpt lat="43.59778" lon="6.8944">
        <ele>195.765625</ele>
        <time>2010-04-04T14:17:08Z</time>
      </trkpt>
      <trkpt lat="43.59769" lon="6.89418">
        <ele>197.2075195</ele>
        <time>2010-04-04T14:17:16Z</time>
      </trkpt>
      <trkpt lat="43.59765" lon="6.89402">
        <ele>198.1689453</ele>
        <time>2010-04-04T14:17:22Z</time>
      </trkpt>
      <trkpt lat="43.59764" lon="6.89399">
        <ele>198.1689453</ele>
        <time>2010-04-04T14:17:23Z</time>
      </trkpt>
      <trkpt lat="43.59762" lon="6.8938">
        <ele>199.6108398</ele>
        <time>2010-04-04T14:17:30Z</time>
      </trkpt>
      <trkpt lat="43.5976" lon="6.89368">
        <ele>200.5722656</ele>
        <time>2010-04-04T14:17:35Z</time>
      </trkpt>
      <trkpt lat="43.59757" lon="6.8935">
        <ele>202.494873</ele>
        <time>2010-04-04T14:17:42Z</time>
      </trkpt>
      <trkpt lat="43.59755" lon="6.89331">
        <ele>203.4561768</ele>
        <time>2010-04-04T14:17:49Z</time>
      </trkpt>
      <trkpt lat="43.59756" lon="6.89324">
        <ele>203.9368896</ele>
        <time>2010-04-04T14:17:52Z</time>
      </trkpt>
      <trkpt lat="43.59754" lon="6.89311">
        <ele>204.8980713</ele>
        <time>2010-04-04T14:17:58Z</time>
      </trkpt>
      <trkpt lat="43.59745" lon="6.89304">
        <ele>206.3400879</ele>
        <time>2010-04-04T14:18:03Z</time>
      </trkpt>
      <trkpt lat="43.59743" lon="6.89304">
        <ele>206.3400879</ele>
        <time>2010-04-04T14:18:04Z</time>
      </trkpt>
      <trkpt lat="43.59724" lon="6.89316">
        <ele>208.7434082</ele>
        <time>2010-04-04T14:18:13Z</time>
      </trkpt>
      <trkpt lat="43.59709" lon="6.8932">
        <ele>210.1854248</ele>
        <time>2010-04-04T14:18:19Z</time>
      </trkpt>
      <trkpt lat="43.59694" lon="6.89312">
        <ele>210.6660156</ele>
        <time>2010-04-04T14:18:25Z</time>
      </trkpt>
      <trkpt lat="43.59687" lon="6.89306">
        <ele>211.6274414</ele>
        <time>2010-04-04T14:18:28Z</time>
      </trkpt>
      <trkpt lat="43.59688" lon="6.89295">
        <ele>213.5500488</ele>
        <time>2010-04-04T14:18:32Z</time>
      </trkpt>
      <trkpt lat="43.59695" lon="6.89297">
        <ele>214.5112305</ele>
        <time>2010-04-04T14:18:35Z</time>
      </trkpt>
      <trkpt lat="43.59708" lon="6.89305">
        <ele>216.43396</ele>
        <time>2010-04-04T14:18:41Z</time>
      </trkpt>
      <trkpt lat="43.59722" lon="6.89301">
        <ele>217.3953857</ele>
        <time>2010-04-04T14:18:47Z</time>
      </trkpt>
      <trkpt lat="43.59729" lon="6.89288">
        <ele>218.3565674</ele>
        <time>2010-04-04T14:18:52Z</time>
      </trkpt>
      <trkpt lat="43.59736" lon="6.89273">
        <ele>221.2406006</ele>
        <time>2010-04-04T14:18:58Z</time>
      </trkpt>
      <trkpt lat="43.59747" lon="6.89261">
        <ele>224.1245117</ele>
        <time>2010-04-04T14:19:04Z</time>
      </trkpt>
      <trkpt lat="43.59759" lon="6.89263">
        <ele>225.0859375</ele>
        <time>2010-04-04T14:19:09Z</time>
      </trkpt>
      <trkpt lat="43.59774" lon="6.8928">
        <ele>226.0471191</ele>
        <time>2010-04-04T14:19:17Z</time>
      </trkpt>
      <trkpt lat="43.59782" lon="6.893">
        <ele>227.4891357</ele>
        <time>2010-04-04T14:19:24Z</time>
      </trkpt>
      <trkpt lat="43.59787" lon="6.89321">
        <ele>227.9697266</ele>
        <time>2010-04-04T14:19:31Z</time>
      </trkpt>
      <trkpt lat="43.59793" lon="6.89342">
        <ele>228.9311523</ele>
        <time>2010-04-04T14:19:38Z</time>
      </trkpt>
      <trkpt lat="43.59802" lon="6.89368">
        <ele>229.892334</ele>
        <time>2010-04-04T14:19:47Z</time>
      </trkpt>
      <trkpt lat="43.59808" lon="6.8938">
        <ele>230.8537598</ele>
        <time>2010-04-04T14:19:51Z</time>
      </trkpt>
      <trkpt lat="43.59816" lon="6.8938">
        <ele>231.3343506</ele>
        <time>2010-04-04T14:19:55Z</time>
      </trkpt>
      <trkpt lat="43.59814" lon="6.89367">
        <ele>231.8149414</ele>
        <time>2010-04-04T14:19:59Z</time>
      </trkpt>
      <trkpt lat="43.59803" lon="6.89337">
        <ele>233.2570801</ele>
        <time>2010-04-04T14:20:08Z</time>
      </trkpt>
      <trkpt lat="43.598" lon="6.89322">
        <ele>234.6990967</ele>
        <time>2010-04-04T14:20:13Z</time>
      </trkpt>
      <trkpt lat="43.598" lon="6.89318">
        <ele>234.6990967</ele>
        <time>2010-04-04T14:20:15Z</time>
      </trkpt>
      <trkpt lat="43.59799" lon="6.89303">
        <ele>235.6602783</ele>
        <time>2010-04-04T14:20:21Z</time>
      </trkpt>
      <trkpt lat="43.59798" lon="6.893">
        <ele>236.1409912</ele>
        <time>2010-04-04T14:20:22Z</time>
      </trkpt>
      <trkpt lat="43.59793" lon="6.8928">
        <ele>236.6217041</ele>
        <time>2010-04-04T14:20:29Z</time>
      </trkpt>
      <trkpt lat="43.59787" lon="6.89257">
        <ele>238.0635986</ele>
        <time>2010-04-04T14:20:37Z</time>
      </trkpt>
      <trkpt lat="43.59778" lon="6.89244">
        <ele>239.0249023</ele>
        <time>2010-04-04T14:20:43Z</time>
      </trkpt>
      <trkpt lat="43.59765" lon="6.89221">
        <ele>240.9476318</ele>
        <time>2010-04-04T14:20:52Z</time>
      </trkpt>
      <trkpt lat="43.59756" lon="6.89212">
        <ele>242.3896484</ele>
        <time>2010-04-04T14:20:58Z</time>
      </trkpt>
      <trkpt lat="43.59739" lon="6.89215">
        <ele>243.831543</ele>
        <time>2010-04-04T14:21:06Z</time>
      </trkpt>
      <trkpt lat="43.59722" lon="6.89223">
        <ele>245.2734375</ele>
        <time>2010-04-04T14:21:14Z</time>
      </trkpt>
      <trkpt lat="43.59709" lon="6.89222">
        <ele>246.2348633</ele>
        <time>2010-04-04T14:21:20Z</time>
      </trkpt>
      <trkpt lat="43.59696" lon="6.89209">
        <ele>247.6767578</ele>
        <time>2010-04-04T14:21:27Z</time>
      </trkpt>
      <trkpt lat="43.59687" lon="6.89198">
        <ele>248.6381836</ele>
        <time>2010-04-04T14:21:33Z</time>
      </trkpt>
      <trkpt lat="43.59675" lon="6.89182">
        <ele>249.5994873</ele>
        <time>2010-04-04T14:21:40Z</time>
      </trkpt>
      <trkpt lat="43.59671" lon="6.89165">
        <ele>250.560791</ele>
        <time>2010-04-04T14:21:46Z</time>
      </trkpt>
      <trkpt lat="43.59674" lon="6.89138">
        <ele>250.560791</ele>
        <time>2010-04-04T14:21:54Z</time>
      </trkpt>
      <trkpt lat="43.59676" lon="6.89115">
        <ele>251.0413818</ele>
        <time>2010-04-04T14:22:01Z</time>
      </trkpt>
      <trkpt lat="43.59674" lon="6.8909">
        <ele>251.5220947</ele>
        <time>2010-04-04T14:22:09Z</time>
      </trkpt>
      <trkpt lat="43.59665" lon="6.89078">
        <ele>251.5220947</ele>
        <time>2010-04-04T14:22:15Z</time>
      </trkpt>
      <trkpt lat="43.59652" lon="6.89072">
        <ele>251.5220947</ele>
        <time>2010-04-04T14:22:21Z</time>
      </trkpt>
      <trkpt lat="43.59633" lon="6.8907">
        <ele>251.0413818</ele>
        <time>2010-04-04T14:22:28Z</time>
      </trkpt>
      <trkpt lat="43.59614" lon="6.89059">
        <ele>251.0413818</ele>
        <time>2010-04-04T14:22:34Z</time>
      </trkpt>
      <trkpt lat="43.59599" lon="6.89043">
        <ele>250.560791</ele>
        <time>2010-04-04T14:22:41Z</time>
      </trkpt>
      <trkpt lat="43.59578" lon="6.89027">
        <ele>251.0413818</ele>
        <time>2010-04-04T14:22:50Z</time>
      </trkpt>
      <trkpt lat="43.59563" lon="6.89015">
        <ele>251.5220947</ele>
        <time>2010-04-04T14:22:57Z</time>
      </trkpt>
      <trkpt lat="43.59547" lon="6.89005">
        <ele>252.4833984</ele>
        <time>2010-04-04T14:23:04Z</time>
      </trkpt>
      <trkpt lat="43.59529" lon="6.88993">
        <ele>252.9639893</ele>
        <time>2010-04-04T14:23:11Z</time>
      </trkpt>
      <trkpt lat="43.59507" lon="6.88983">
        <ele>253.4447021</ele>
        <time>2010-04-04T14:23:19Z</time>
      </trkpt>
      <trkpt lat="43.59485" lon="6.8897">
        <ele>254.4060059</ele>
        <time>2010-04-04T14:23:27Z</time>
      </trkpt>
      <trkpt lat="43.5946" lon="6.88951">
        <ele>255.8480225</ele>
        <time>2010-04-04T14:23:37Z</time>
      </trkpt>
      <trkpt lat="43.5944" lon="6.88931">
        <ele>257.770752</ele>
        <time>2010-04-04T14:23:46Z</time>
      </trkpt>
      <trkpt lat="43.59428" lon="6.8892">
        <ele>259.2126465</ele>
        <time>2010-04-04T14:23:52Z</time>
      </trkpt>
      <trkpt lat="43.59416" lon="6.88906">
        <ele>260.654541</ele>
        <time>2010-04-04T14:23:58Z</time>
      </trkpt>
      <trkpt lat="43.59406" lon="6.88885">
        <ele>261.6159668</ele>
        <time>2010-04-04T14:24:05Z</time>
      </trkpt>
      <trkpt lat="43.59388" lon="6.88868">
        <ele>262.5771484</ele>
        <time>2010-04-04T14:24:12Z</time>
      </trkpt>
      <trkpt lat="43.59377" lon="6.8886">
        <ele>263.0578613</ele>
        <time>2010-04-04T14:24:17Z</time>
      </trkpt>
      <trkpt lat="43.5936" lon="6.88847">
        <ele>264.0192871</ele>
        <time>2010-04-04T14:24:24Z</time>
      </trkpt>
      <trkpt lat="43.59346" lon="6.88836">
        <ele>265.4613037</ele>
        <time>2010-04-04T14:24:31Z</time>
      </trkpt>
      <trkpt lat="43.59334" lon="6.88823">
        <ele>266.9031982</ele>
        <time>2010-04-04T14:24:38Z</time>
      </trkpt>
      <trkpt lat="43.59325" lon="6.88814">
        <ele>268.3450928</ele>
        <time>2010-04-04T14:24:43Z</time>
      </trkpt>
      <trkpt lat="43.59312" lon="6.88801">
        <ele>269.3065186</ele>
        <time>2010-04-04T14:24:50Z</time>
      </trkpt>
      <trkpt lat="43.59297" lon="6.88786">
        <ele>269.7871094</ele>
        <time>2010-04-04T14:24:58Z</time>
      </trkpt>
      <trkpt lat="43.59281" lon="6.88766">
        <ele>270.7484131</ele>
        <time>2010-04-04T14:25:07Z</time>
      </trkpt>
      <trkpt lat="43.59269" lon="6.88742">
        <ele>271.229126</ele>
        <time>2010-04-04T14:25:16Z</time>
      </trkpt>
      <trkpt lat="43.59261" lon="6.88717">
        <ele>272.6711426</ele>
        <time>2010-04-04T14:25:24Z</time>
      </trkpt>
      <trkpt lat="43.59251" lon="6.88694">
        <ele>273.6324463</ele>
        <time>2010-04-04T14:25:32Z</time>
      </trkpt>
      <trkpt lat="43.59235" lon="6.88679">
        <ele>275.5550537</ele>
        <time>2010-04-04T14:25:40Z</time>
      </trkpt>
      <trkpt lat="43.59225" lon="6.88672">
        <ele>276.0356445</ele>
        <time>2010-04-04T14:25:45Z</time>
      </trkpt>
      <trkpt lat="43.59211" lon="6.88657">
        <ele>275.5550537</ele>
        <time>2010-04-04T14:25:50Z</time>
      </trkpt>
      <trkpt lat="43.59196" lon="6.88624">
        <ele>274.59375</ele>
        <time>2010-04-04T14:25:56Z</time>
      </trkpt>
      <trkpt lat="43.59179" lon="6.88582">
        <ele>272.1904297</ele>
        <time>2010-04-04T14:26:02Z</time>
      </trkpt>
      <trkpt lat="43.5915" lon="6.8855">
        <ele>268.3450928</ele>
        <time>2010-04-04T14:26:07Z</time>
      </trkpt>
      <trkpt lat="43.59102" lon="6.88509">
        <ele>263.5385742</ele>
        <time>2010-04-04T14:26:13Z</time>
      </trkpt>
      <trkpt lat="43.59069" lon="6.88476">
        <ele>260.654541</ele>
        <time>2010-04-04T14:26:17Z</time>
      </trkpt>
      <trkpt lat="43.59062" lon="6.88467">
        <ele>260.1739502</ele>
        <time>2010-04-04T14:26:18Z</time>
      </trkpt>
      <trkpt lat="43.59027" lon="6.8844">
        <ele>258.7319336</ele>
        <time>2010-04-04T14:26:22Z</time>
      </trkpt>
      <trkpt lat="43.59016" lon="6.88439">
        <ele>258.2513428</ele>
        <time>2010-04-04T14:26:23Z</time>
      </trkpt>
      <trkpt lat="43.58996" lon="6.88438">
        <ele>257.2900391</ele>
        <time>2010-04-04T14:26:25Z</time>
      </trkpt>
      <trkpt lat="43.58977" lon="6.88434">
        <ele>257.2900391</ele>
        <time>2010-04-04T14:26:27Z</time>
      </trkpt>
      <trkpt lat="43.58947" lon="6.88439">
        <ele>258.2513428</ele>
        <time>2010-04-04T14:26:31Z</time>
      </trkpt>
      <trkpt lat="43.58927" lon="6.88446">
        <ele>260.1739502</ele>
        <time>2010-04-04T14:26:35Z</time>
      </trkpt>
      <trkpt lat="43.58909" lon="6.88442">
        <ele>262.5771484</ele>
        <time>2010-04-04T14:26:40Z</time>
      </trkpt>
      <trkpt lat="43.58896" lon="6.88438">
        <ele>264.0192871</ele>
        <time>2010-04-04T14:26:46Z</time>
      </trkpt>
      <trkpt lat="43.58882" lon="6.88435">
        <ele>264.9805908</ele>
        <time>2010-04-04T14:26:51Z</time>
      </trkpt>
      <trkpt lat="43.58859" lon="6.88433">
        <ele>267.864502</ele>
        <time>2010-04-04T14:26:59Z</time>
      </trkpt>
      <trkpt lat="43.58847" lon="6.88441">
        <ele>270.7484131</ele>
        <time>2010-04-04T14:27:04Z</time>
      </trkpt>
      <trkpt lat="43.58839" lon="6.88464">
        <ele>273.6324463</ele>
        <time>2010-04-04T14:27:10Z</time>
      </trkpt>
      <trkpt lat="43.58832" lon="6.88487">
        <ele>273.1518555</ele>
        <time>2010-04-04T14:27:16Z</time>
      </trkpt>
      <trkpt lat="43.58825" lon="6.88517">
        <ele>273.6324463</ele>
        <time>2010-04-04T14:27:24Z</time>
      </trkpt>
      <trkpt lat="43.58813" lon="6.88529">
        <ele>274.1130371</ele>
        <time>2010-04-04T14:27:30Z</time>
      </trkpt>
      <trkpt lat="43.58797" lon="6.88526">
        <ele>275.5550537</ele>
        <time>2010-04-04T14:27:36Z</time>
      </trkpt>
      <trkpt lat="43.58773" lon="6.88519">
        <ele>276.5163574</ele>
        <time>2010-04-04T14:27:45Z</time>
      </trkpt>
      <trkpt lat="43.58762" lon="6.88526">
        <ele>277.4776611</ele>
        <time>2010-04-04T14:27:50Z</time>
      </trkpt>
      <trkpt lat="43.58748" lon="6.88548">
        <ele>277.4776611</ele>
        <time>2010-04-04T14:27:57Z</time>
      </trkpt>
      <trkpt lat="43.58734" lon="6.88557">
        <ele>277.958252</ele>
        <time>2010-04-04T14:28:02Z</time>
      </trkpt>
      <trkpt lat="43.58715" lon="6.88552">
        <ele>279.4002686</ele>
        <time>2010-04-04T14:28:08Z</time>
      </trkpt>
      <trkpt lat="43.58686" lon="6.88547">
        <ele>279.4002686</ele>
        <time>2010-04-04T14:28:16Z</time>
      </trkpt>
      <trkpt lat="43.58666" lon="6.88557">
        <ele>280.3616943</ele>
        <time>2010-04-04T14:28:22Z</time>
      </trkpt>
      <trkpt lat="43.58655" lon="6.88576">
        <ele>281.322998</ele>
        <time>2010-04-04T14:28:27Z</time>
      </trkpt>
      <trkpt lat="43.58646" lon="6.88606">
        <ele>282.2843018</ele>
        <time>2010-04-04T14:28:34Z</time>
      </trkpt>
      <trkpt lat="43.58634" lon="6.88619">
        <ele>283.2456055</ele>
        <time>2010-04-04T14:28:39Z</time>
      </trkpt>
      <trkpt lat="43.58619" lon="6.88621">
        <ele>283.7261963</ele>
        <time>2010-04-04T14:28:44Z</time>
      </trkpt>
      <trkpt lat="43.58595" lon="6.88623">
        <ele>286.1295166</ele>
        <time>2010-04-04T14:28:52Z</time>
      </trkpt>
      <trkpt lat="43.58583" lon="6.88629">
        <ele>286.6102295</ele>
        <time>2010-04-04T14:28:58Z</time>
      </trkpt>
      <trkpt lat="43.58569" lon="6.88635">
        <ele>287.0908203</ele>
        <time>2010-04-04T14:29:04Z</time>
      </trkpt>
      <trkpt lat="43.58555" lon="6.88637">
        <ele>288.0522461</ele>
        <time>2010-04-04T14:29:10Z</time>
      </trkpt>
      <trkpt lat="43.58538" lon="6.88641">
        <ele>289.4941406</ele>
        <time>2010-04-04T14:29:17Z</time>
      </trkpt>
      <trkpt lat="43.58521" lon="6.88647">
        <ele>290.9361572</ele>
        <time>2010-04-04T14:29:24Z</time>
      </trkpt>
      <trkpt lat="43.58509" lon="6.88653">
        <ele>291.416748</ele>
        <time>2010-04-04T14:29:30Z</time>
      </trkpt>
      <trkpt lat="43.58505" lon="6.88655">
        <ele>291.416748</ele>
        <time>2010-04-04T14:29:32Z</time>
      </trkpt>
      <trkpt lat="43.58489" lon="6.88667">
        <ele>292.8587646</ele>
        <time>2010-04-04T14:29:40Z</time>
      </trkpt>
      <trkpt lat="43.58476" lon="6.88675">
        <ele>294.7813721</ele>
        <time>2010-04-04T14:29:46Z</time>
      </trkpt>
      <trkpt lat="43.58468" lon="6.88664">
        <ele>295.7426758</ele>
        <time>2010-04-04T14:29:51Z</time>
      </trkpt>
      <trkpt lat="43.58468" lon="6.88654">
        <ele>296.7041016</ele>
        <time>2010-04-04T14:29:54Z</time>
      </trkpt>
      <trkpt lat="43.58476" lon="6.88635">
        <ele>298.1461182</ele>
        <time>2010-04-04T14:30:01Z</time>
      </trkpt>
      <trkpt lat="43.5849" lon="6.8863">
        <ele>298.626709</ele>
        <time>2010-04-04T14:30:07Z</time>
      </trkpt>
      <trkpt lat="43.58509" lon="6.88625">
        <ele>300.0687256</ele>
        <time>2010-04-04T14:30:14Z</time>
      </trkpt>
      <trkpt lat="43.58535" lon="6.88618">
        <ele>302.4719238</ele>
        <time>2010-04-04T14:30:23Z</time>
      </trkpt>
      <trkpt lat="43.58552" lon="6.88613">
        <ele>303.9139404</ele>
        <time>2010-04-04T14:30:29Z</time>
      </trkpt>
      <trkpt lat="43.5857" lon="6.88602">
        <ele>305.355957</ele>
        <time>2010-04-04T14:30:36Z</time>
      </trkpt>
      <trkpt lat="43.58585" lon="6.88589">
        <ele>305.8366699</ele>
        <time>2010-04-04T14:30:42Z</time>
      </trkpt>
      <trkpt lat="43.58605" lon="6.8858">
        <ele>307.2785645</ele>
        <time>2010-04-04T14:30:49Z</time>
      </trkpt>
      <trkpt lat="43.58618" lon="6.88565">
        <ele>308.720459</ele>
        <time>2010-04-04T14:30:55Z</time>
      </trkpt>
      <trkpt lat="43.58622" lon="6.88553">
        <ele>310.1624756</ele>
        <time>2010-04-04T14:31:00Z</time>
      </trkpt>
      <trkpt lat="43.58627" lon="6.8854">
        <ele>313.0465088</ele>
        <time>2010-04-04T14:31:05Z</time>
      </trkpt>
      <trkpt lat="43.5864" lon="6.88521">
        <ele>317.8530273</ele>
        <time>2010-04-04T14:31:12Z</time>
      </trkpt>
      <trkpt lat="43.5865" lon="6.88513">
        <ele>318.8143311</ele>
        <time>2010-04-04T14:31:17Z</time>
      </trkpt>
      <trkpt lat="43.58661" lon="6.88498">
        <ele>318.8143311</ele>
        <time>2010-04-04T14:31:23Z</time>
      </trkpt>
      <trkpt lat="43.58675" lon="6.88487">
        <ele>318.8143311</ele>
        <time>2010-04-04T14:31:29Z</time>
      </trkpt>
      <trkpt lat="43.58694" lon="6.88487">
        <ele>318.3336182</ele>
        <time>2010-04-04T14:31:36Z</time>
      </trkpt>
      <trkpt lat="43.5871" lon="6.88482">
        <ele>318.8143311</ele>
        <time>2010-04-04T14:31:42Z</time>
      </trkpt>
      <trkpt lat="43.58726" lon="6.88462">
        <ele>318.8143311</ele>
        <time>2010-04-04T14:31:50Z</time>
      </trkpt>
      <trkpt lat="43.58736" lon="6.88453">
        <ele>318.8143311</ele>
        <time>2010-04-04T14:31:55Z</time>
      </trkpt>
      <trkpt lat="43.5875" lon="6.88444">
        <ele>318.8143311</ele>
        <time>2010-04-04T14:32:01Z</time>
      </trkpt>
      <trkpt lat="43.58761" lon="6.8843">
        <ele>319.2950439</ele>
        <time>2010-04-04T14:32:07Z</time>
      </trkpt>
      <trkpt lat="43.5877" lon="6.8841">
        <ele>321.2177734</ele>
        <time>2010-04-04T14:32:14Z</time>
      </trkpt>
      <trkpt lat="43.58779" lon="6.88394">
        <ele>324.5822754</ele>
        <time>2010-04-04T14:32:20Z</time>
      </trkpt>
      <trkpt lat="43.58786" lon="6.8837">
        <ele>325.5435791</ele>
        <time>2010-04-04T14:32:27Z</time>
      </trkpt>
      <trkpt lat="43.58799" lon="6.88347">
        <ele>326.5048828</ele>
        <time>2010-04-04T14:32:35Z</time>
      </trkpt>
      <trkpt lat="43.58809" lon="6.88324">
        <ele>327.4661865</ele>
        <time>2010-04-04T14:32:42Z</time>
      </trkpt>
      <trkpt lat="43.58809" lon="6.88303">
        <ele>327.4661865</ele>
        <time>2010-04-04T14:32:48Z</time>
      </trkpt>
      <trkpt lat="43.58804" lon="6.88284">
        <ele>326.9855957</ele>
        <time>2010-04-04T14:32:54Z</time>
      </trkpt>
      <trkpt lat="43.58797" lon="6.88271">
        <ele>326.9855957</ele>
        <time>2010-04-04T14:33:00Z</time>
      </trkpt>
      <trkpt lat="43.58794" lon="6.88268">
        <ele>326.5048828</ele>
        <time>2010-04-04T14:33:02Z</time>
      </trkpt>
      <trkpt lat="43.58788" lon="6.88261">
        <ele>326.9855957</ele>
        <time>2010-04-04T14:33:07Z</time>
      </trkpt>
      <trkpt lat="43.58779" lon="6.8825">
        <ele>327.4661865</ele>
        <time>2010-04-04T14:33:14Z</time>
      </trkpt>
      <trkpt lat="43.58769" lon="6.8824">
        <ele>327.4661865</ele>
        <time>2010-04-04T14:33:20Z</time>
      </trkpt>
      <trkpt lat="43.58757" lon="6.88226">
        <ele>327.4661865</ele>
        <time>2010-04-04T14:33:27Z</time>
      </trkpt>
      <trkpt lat="43.58747" lon="6.88203">
        <ele>327.9467773</ele>
        <time>2010-04-04T14:33:35Z</time>
      </trkpt>
      <trkpt lat="43.5874" lon="6.88179">
        <ele>328.9083252</ele>
        <time>2010-04-04T14:33:43Z</time>
      </trkpt>
      <trkpt lat="43.58735" lon="6.88165">
        <ele>329.388916</ele>
        <time>2010-04-04T14:33:48Z</time>
      </trkpt>
      <trkpt lat="43.58734" lon="6.88147">
        <ele>333.7147217</ele>
        <time>2010-04-04T14:33:54Z</time>
      </trkpt>
      <trkpt lat="43.58734" lon="6.88129">
        <ele>338.5214844</ele>
        <time>2010-04-04T14:34:00Z</time>
      </trkpt>
      <trkpt lat="43.58741" lon="6.88108">
        <ele>341.4052734</ele>
        <time>2010-04-04T14:34:07Z</time>
      </trkpt>
      <trkpt lat="43.58752" lon="6.881">
        <ele>342.3666992</ele>
        <time>2010-04-04T14:34:13Z</time>
      </trkpt>
      <trkpt lat="43.58764" lon="6.88092">
        <ele>343.8085938</ele>
        <time>2010-04-04T14:34:19Z</time>
      </trkpt>
      <trkpt lat="43.58776" lon="6.88084">
        <ele>345.2506104</ele>
        <time>2010-04-04T14:34:26Z</time>
      </trkpt>
      <trkpt lat="43.58777" lon="6.88082">
        <ele>344.7700195</ele>
        <time>2010-04-04T14:34:27Z</time>
      </trkpt>
      <trkpt lat="43.58796" lon="6.88069">
        <ele>346.692627</ele>
        <time>2010-04-04T14:34:36Z</time>
      </trkpt>
      <trkpt lat="43.58815" lon="6.88056">
        <ele>349.0958252</ele>
        <time>2010-04-04T14:34:45Z</time>
      </trkpt>
      <trkpt lat="43.58832" lon="6.88044">
        <ele>351.0184326</ele>
        <time>2010-04-04T14:34:53Z</time>
      </trkpt>
      <trkpt lat="43.58848" lon="6.88037">
        <ele>351.4991455</ele>
        <time>2010-04-04T14:35:00Z</time>
      </trkpt>
      <trkpt lat="43.58863" lon="6.88028">
        <ele>352.9411621</ele>
        <time>2010-04-04T14:35:07Z</time>
      </trkpt>
      <trkpt lat="43.58872" lon="6.88012">
        <ele>353.421875</ele>
        <time>2010-04-04T14:35:13Z</time>
      </trkpt>
      <trkpt lat="43.58885" lon="6.87995">
        <ele>354.8637695</ele>
        <time>2010-04-04T14:35:20Z</time>
      </trkpt>
      <trkpt lat="43.589" lon="6.87983">
        <ele>356.786377</ele>
        <time>2010-04-04T14:35:27Z</time>
      </trkpt>
      <trkpt lat="43.58911" lon="6.87965">
        <ele>357.7478027</ele>
        <time>2010-04-04T14:35:34Z</time>
      </trkpt>
      <trkpt lat="43.58912" lon="6.87942">
        <ele>357.7478027</ele>
        <time>2010-04-04T14:35:40Z</time>
      </trkpt>
      <trkpt lat="43.58905" lon="6.87919">
        <ele>357.7478027</ele>
        <time>2010-04-04T14:35:47Z</time>
      </trkpt>
      <trkpt lat="43.58895" lon="6.87898">
        <ele>358.7089844</ele>
        <time>2010-04-04T14:35:54Z</time>
      </trkpt>
      <trkpt lat="43.58882" lon="6.87876">
        <ele>359.1896973</ele>
        <time>2010-04-04T14:36:02Z</time>
      </trkpt>
      <trkpt lat="43.58875" lon="6.8785">
        <ele>362.0737305</ele>
        <time>2010-04-04T14:36:10Z</time>
      </trkpt>
      <trkpt lat="43.58885" lon="6.87831">
        <ele>367.8415527</ele>
        <time>2010-04-04T14:36:16Z</time>
      </trkpt>
      <trkpt lat="43.58899" lon="6.87813">
        <ele>370.244873</ele>
        <time>2010-04-04T14:36:23Z</time>
      </trkpt>
      <trkpt lat="43.58917" lon="6.87795">
        <ele>371.2062988</ele>
        <time>2010-04-04T14:36:31Z</time>
      </trkpt>
      <trkpt lat="43.58936" lon="6.87773">
        <ele>372.6481934</ele>
        <time>2010-04-04T14:36:40Z</time>
      </trkpt>
      <trkpt lat="43.58946" lon="6.87751">
        <ele>373.1289063</ele>
        <time>2010-04-04T14:36:47Z</time>
      </trkpt>
      <trkpt lat="43.58952" lon="6.87723">
        <ele>373.6094971</ele>
        <time>2010-04-04T14:36:55Z</time>
      </trkpt>
      <trkpt lat="43.58956" lon="6.87695">
        <ele>373.1289063</ele>
        <time>2010-04-04T14:37:03Z</time>
      </trkpt>
      <trkpt lat="43.58965" lon="6.87674">
        <ele>373.6094971</ele>
        <time>2010-04-04T14:37:09Z</time>
      </trkpt>
      <trkpt lat="43.58982" lon="6.87652">
        <ele>374.0900879</ele>
        <time>2010-04-04T14:37:16Z</time>
      </trkpt>
      <trkpt lat="43.59003" lon="6.87628">
        <ele>374.0900879</ele>
        <time>2010-04-04T14:37:24Z</time>
      </trkpt>
      <trkpt lat="43.59025" lon="6.876">
        <ele>374.0900879</ele>
        <time>2010-04-04T14:37:32Z</time>
      </trkpt>
      <trkpt lat="43.59044" lon="6.87574">
        <ele>374.0900879</ele>
        <time>2010-04-04T14:37:39Z</time>
      </trkpt>
      <trkpt lat="43.59045" lon="6.87566">
        <ele>374.5708008</ele>
        <time>2010-04-04T14:37:42Z</time>
      </trkpt>
      <trkpt lat="43.59045" lon="6.87564">
        <ele>375.0515137</ele>
        <time>2010-04-04T14:37:49Z</time>
      </trkpt>
      <trkpt lat="43.59046" lon="6.87564">
        <ele>376.4935303</ele>
        <time>2010-04-04T14:37:57Z</time>
      </trkpt>
      <trkpt lat="43.59045" lon="6.87563">
        <ele>377.454834</ele>
        <time>2010-04-04T14:38:02Z</time>
      </trkpt>
      <trkpt lat="43.59045" lon="6.87561">
        <ele>375.5321045</ele>
        <time>2010-04-04T14:38:09Z</time>
      </trkpt>
      <trkpt lat="43.59046" lon="6.87561">
        <ele>376.9742432</ele>
        <time>2010-04-04T14:38:19Z</time>
      </trkpt>
      <trkpt lat="43.59046" lon="6.87561">
        <ele>376.0128174</ele>
        <time>2010-04-04T14:38:25Z</time>
      </trkpt>
      <trkpt lat="43.59047" lon="6.87562">
        <ele>376.4935303</ele>
        <time>2010-04-04T14:38:32Z</time>
      </trkpt>
      <trkpt lat="43.59045" lon="6.87563">
        <ele>376.0128174</ele>
        <time>2010-04-04T14:38:39Z</time>
      </trkpt>
      <trkpt lat="43.59046" lon="6.87562">
        <ele>378.4161377</ele>
        <time>2010-04-04T14:38:58Z</time>
      </trkpt>
      <trkpt lat="43.59046" lon="6.8756">
        <ele>378.4161377</ele>
        <time>2010-04-04T14:39:14Z</time>
      </trkpt>
      <trkpt lat="43.59048" lon="6.87559">
        <ele>373.6094971</ele>
        <time>2010-04-04T14:39:52Z</time>
      </trkpt>
      <trkpt lat="43.59045" lon="6.87561">
        <ele>373.1289063</ele>
        <time>2010-04-04T14:40:45Z</time>
      </trkpt>
      <trkpt lat="43.59046" lon="6.87562">
        <ele>373.1289063</ele>
        <time>2010-04-04T14:40:50Z</time>
      </trkpt>
      <trkpt lat="43.59046" lon="6.87563">
        <ele>374.5708008</ele>
        <time>2010-04-04T14:40:55Z</time>
      </trkpt>
      <trkpt lat="43.59045" lon="6.87562">
        <ele>375.0515137</ele>
        <time>2010-04-04T14:41:02Z</time>
      </trkpt>
      <trkpt lat="43.59044" lon="6.87561">
        <ele>375.5321045</ele>
        <time>2010-04-04T14:41:09Z</time>
      </trkpt>
      <trkpt lat="43.59044" lon="6.8756">
        <ele>376.9742432</ele>
        <time>2010-04-04T14:41:19Z</time>
      </trkpt>
      <trkpt lat="43.59043" lon="6.87559">
        <ele>378.4161377</ele>
        <time>2010-04-04T14:41:26Z</time>
      </trkpt>
      <trkpt lat="43.59044" lon="6.87558">
        <ele>378.4161377</ele>
        <time>2010-04-04T14:41:32Z</time>
      </trkpt>
      <trkpt lat="43.59045" lon="6.87557">
        <ele>378.4161377</ele>
        <time>2010-04-04T14:41:42Z</time>
      </trkpt>
      <trkpt lat="43.59043" lon="6.87559">
        <ele>378.8968506</ele>
        <time>2010-04-04T14:41:56Z</time>
      </trkpt>
      <trkpt lat="43.59046" lon="6.87561">
        <ele>378.4161377</ele>
        <time>2010-04-04T14:42:07Z</time>
      </trkpt>
      <trkpt lat="43.59057" lon="6.87555">
        <ele>376.9742432</ele>
        <time>2010-04-04T14:42:13Z</time>
      </trkpt>
      <trkpt lat="43.59062" lon="6.87549">
        <ele>376.0128174</ele>
        <time>2010-04-04T14:42:16Z</time>
      </trkpt>
      <trkpt lat="43.59073" lon="6.87535">
        <ele>375.5321045</ele>
        <time>2010-04-04T14:42:23Z</time>
      </trkpt>
      <trkpt lat="43.59086" lon="6.87525">
        <ele>375.0515137</ele>
        <time>2010-04-04T14:42:28Z</time>
      </trkpt>
      <trkpt lat="43.59104" lon="6.87504">
        <ele>373.6094971</ele>
        <time>2010-04-04T14:42:33Z</time>
      </trkpt>
      <trkpt lat="43.5911" lon="6.87495">
        <ele>373.1289063</ele>
        <time>2010-04-04T14:42:35Z</time>
      </trkpt>
      <trkpt lat="43.59116" lon="6.87483">
        <ele>372.1674805</ele>
        <time>2010-04-04T14:42:37Z</time>
      </trkpt>
      <trkpt lat="43.5912" lon="6.87469">
        <ele>371.6868896</ele>
        <time>2010-04-04T14:42:39Z</time>
      </trkpt>
      <trkpt lat="43.59125" lon="6.87419">
        <ele>370.244873</ele>
        <time>2010-04-04T14:42:45Z</time>
      </trkpt>
      <trkpt lat="43.59129" lon="6.8739">
        <ele>369.2836914</ele>
        <time>2010-04-04T14:42:48Z</time>
      </trkpt>
      <trkpt lat="43.59144" lon="6.87338">
        <ele>367.8415527</ele>
        <time>2010-04-04T14:42:54Z</time>
      </trkpt>
      <trkpt lat="43.59156" lon="6.87304">
        <ele>367.3609619</ele>
        <time>2010-04-04T14:42:58Z</time>
      </trkpt>
      <trkpt lat="43.59182" lon="6.8727">
        <ele>366.3995361</ele>
        <time>2010-04-04T14:43:03Z</time>
      </trkpt>
      <trkpt lat="43.59209" lon="6.87255">
        <ele>364.9576416</ele>
        <time>2010-04-04T14:43:07Z</time>
      </trkpt>
      <trkpt lat="43.59252" lon="6.87241">
        <ele>362.5543213</ele>
        <time>2010-04-04T14:43:13Z</time>
      </trkpt>
      <trkpt lat="43.59266" lon="6.87233">
        <ele>361.5931396</ele>
        <time>2010-04-04T14:43:15Z</time>
      </trkpt>
      <trkpt lat="43.59295" lon="6.87196">
        <ele>359.1896973</ele>
        <time>2010-04-04T14:43:20Z</time>
      </trkpt>
      <trkpt lat="43.59301" lon="6.87164">
        <ele>357.7478027</ele>
        <time>2010-04-04T14:43:23Z</time>
      </trkpt>
      <trkpt lat="43.59302" lon="6.87096">
        <ele>355.8251953</ele>
        <time>2010-04-04T14:43:29Z</time>
      </trkpt>
      <trkpt lat="43.59316" lon="6.87055">
        <ele>356.786377</ele>
        <time>2010-04-04T14:43:33Z</time>
      </trkpt>
      <trkpt lat="43.59339" lon="6.87038">
        <ele>357.7478027</ele>
        <time>2010-04-04T14:43:36Z</time>
      </trkpt>
      <trkpt lat="43.59362" lon="6.87025">
        <ele>356.3057861</ele>
        <time>2010-04-04T14:43:39Z</time>
      </trkpt>
      <trkpt lat="43.59385" lon="6.86995">
        <ele>353.421875</ele>
        <time>2010-04-04T14:43:43Z</time>
      </trkpt>
      <trkpt lat="43.59382" lon="6.86961">
        <ele>351.0184326</ele>
        <time>2010-04-04T14:43:46Z</time>
      </trkpt>
      <trkpt lat="43.59364" lon="6.86921">
        <ele>347.6539307</ele>
        <time>2010-04-04T14:43:50Z</time>
      </trkpt>
      <trkpt lat="43.59345" lon="6.86883">
        <ele>344.7700195</ele>
        <time>2010-04-04T14:43:54Z</time>
      </trkpt>
      <trkpt lat="43.59349" lon="6.86848">
        <ele>343.3278809</ele>
        <time>2010-04-04T14:43:57Z</time>
      </trkpt>
      <trkpt lat="43.59351" lon="6.86837">
        <ele>342.84729</ele>
        <time>2010-04-04T14:43:58Z</time>
      </trkpt>
      <trkpt lat="43.59353" lon="6.86789">
        <ele>341.4052734</ele>
        <time>2010-04-04T14:44:02Z</time>
      </trkpt>
      <trkpt lat="43.5937" lon="6.86747">
        <ele>340.4440918</ele>
        <time>2010-04-04T14:44:06Z</time>
      </trkpt>
      <trkpt lat="43.59378" lon="6.8674">
        <ele>340.4440918</ele>
        <time>2010-04-04T14:44:07Z</time>
      </trkpt>
      <trkpt lat="43.59399" lon="6.8669">
        <ele>336.598877</ele>
        <time>2010-04-04T14:44:12Z</time>
      </trkpt>
      <trkpt lat="43.59388" lon="6.86671">
        <ele>335.6373291</ele>
        <time>2010-04-04T14:44:14Z</time>
      </trkpt>
      <trkpt lat="43.5938" lon="6.86665">
        <ele>335.1567383</ele>
        <time>2010-04-04T14:44:15Z</time>
      </trkpt>
      <trkpt lat="43.5935" lon="6.86646">
        <ele>333.2341309</ele>
        <time>2010-04-04T14:44:19Z</time>
      </trkpt>
      <trkpt lat="43.59322" lon="6.86621">
        <ele>331.3115234</ele>
        <time>2010-04-04T14:44:23Z</time>
      </trkpt>
      <trkpt lat="43.59298" lon="6.86611">
        <ele>329.8695068</ele>
        <time>2010-04-04T14:44:26Z</time>
      </trkpt>
      <trkpt lat="43.59271" lon="6.8659">
        <ele>327.9467773</ele>
        <time>2010-04-04T14:44:30Z</time>
      </trkpt>
      <trkpt lat="43.59266" lon="6.86575">
        <ele>326.9855957</ele>
        <time>2010-04-04T14:44:32Z</time>
      </trkpt>
      <trkpt lat="43.59248" lon="6.86544">
        <ele>325.0629883</ele>
        <time>2010-04-04T14:44:37Z</time>
      </trkpt>
      <trkpt lat="43.59235" lon="6.86508">
        <ele>323.1403809</ele>
        <time>2010-04-04T14:44:41Z</time>
      </trkpt>
      <trkpt lat="43.59234" lon="6.86498">
        <ele>322.659668</ele>
        <time>2010-04-04T14:44:42Z</time>
      </trkpt>
      <trkpt lat="43.59225" lon="6.86421">
        <ele>319.2950439</ele>
        <time>2010-04-04T14:44:49Z</time>
      </trkpt>
      <trkpt lat="43.59217" lon="6.86368">
        <ele>316.8917236</ele>
        <time>2010-04-04T14:44:54Z</time>
      </trkpt>
      <trkpt lat="43.59217" lon="6.86328">
        <ele>314.9691162</ele>
        <time>2010-04-04T14:44:58Z</time>
      </trkpt>
      <trkpt lat="43.59218" lon="6.86321">
        <ele>314.4884033</ele>
        <time>2010-04-04T14:44:59Z</time>
      </trkpt>
      <trkpt lat="43.59221" lon="6.86308">
        <ele>313.0465088</ele>
        <time>2010-04-04T14:45:03Z</time>
      </trkpt>
      <trkpt lat="43.59222" lon="6.86304">
        <ele>315.9304199</ele>
        <time>2010-04-04T14:45:17Z</time>
      </trkpt>
      <trkpt lat="43.59226" lon="6.86289">
        <ele>315.4498291</ele>
        <time>2010-04-04T14:45:21Z</time>
      </trkpt>
      <trkpt lat="43.59239" lon="6.86266">
        <ele>314.4884033</ele>
        <time>2010-04-04T14:45:26Z</time>
      </trkpt>
      <trkpt lat="43.59253" lon="6.86246">
        <ele>313.5272217</ele>
        <time>2010-04-04T14:45:30Z</time>
      </trkpt>
      <trkpt lat="43.59273" lon="6.86208">
        <ele>313.5272217</ele>
        <time>2010-04-04T14:45:36Z</time>
      </trkpt>
      <trkpt lat="43.59282" lon="6.86196">
        <ele>313.0465088</ele>
        <time>2010-04-04T14:45:38Z</time>
      </trkpt>
      <trkpt lat="43.5931" lon="6.86178">
        <ele>312.5657959</ele>
        <time>2010-04-04T14:45:43Z</time>
      </trkpt>
      <trkpt lat="43.59337" lon="6.86154">
        <ele>311.6044922</ele>
        <time>2010-04-04T14:45:48Z</time>
      </trkpt>
      <trkpt lat="43.59361" lon="6.8612">
        <ele>310.6430664</ele>
        <time>2010-04-04T14:45:53Z</time>
      </trkpt>
      <trkpt lat="43.59377" lon="6.86087">
        <ele>310.1624756</ele>
        <time>2010-04-04T14:45:57Z</time>
      </trkpt>
      <trkpt lat="43.59397" lon="6.86062">
        <ele>309.6818848</ele>
        <time>2010-04-04T14:46:01Z</time>
      </trkpt>
      <trkpt lat="43.59407" lon="6.86056">
        <ele>308.2398682</ele>
        <time>2010-04-04T14:46:03Z</time>
      </trkpt>
      <trkpt lat="43.59422" lon="6.86037">
        <ele>305.355957</ele>
        <time>2010-04-04T14:46:07Z</time>
      </trkpt>
      <trkpt lat="43.59432" lon="6.86017">
        <ele>303.9139404</ele>
        <time>2010-04-04T14:46:10Z</time>
      </trkpt>
      <trkpt lat="43.59465" lon="6.85984">
        <ele>303.4332275</ele>
        <time>2010-04-04T14:46:17Z</time>
      </trkpt>
      <trkpt lat="43.59504" lon="6.85955">
        <ele>300.5493164</ele>
        <time>2010-04-04T14:46:24Z</time>
      </trkpt>
      <trkpt lat="43.59517" lon="6.85947">
        <ele>299.5880127</ele>
        <time>2010-04-04T14:46:26Z</time>
      </trkpt>
      <trkpt lat="43.59547" lon="6.85925">
        <ele>297.1846924</ele>
        <time>2010-04-04T14:46:31Z</time>
      </trkpt>
      <trkpt lat="43.59559" lon="6.85913">
        <ele>295.7426758</ele>
        <time>2010-04-04T14:46:33Z</time>
      </trkpt>
      <trkpt lat="43.59575" lon="6.85883">
        <ele>292.8587646</ele>
        <time>2010-04-04T14:46:37Z</time>
      </trkpt>
      <trkpt lat="43.59586" lon="6.85852">
        <ele>291.416748</ele>
        <time>2010-04-04T14:46:41Z</time>
      </trkpt>
      <trkpt lat="43.59602" lon="6.85839">
        <ele>290.9361572</ele>
        <time>2010-04-04T14:46:44Z</time>
      </trkpt>
      <trkpt lat="43.59617" lon="6.8583">
        <ele>289.9748535</ele>
        <time>2010-04-04T14:46:47Z</time>
      </trkpt>
      <trkpt lat="43.59632" lon="6.85817">
        <ele>288.532959</ele>
        <time>2010-04-04T14:46:51Z</time>
      </trkpt>
      <trkpt lat="43.59646" lon="6.8581">
        <ele>287.5714111</ele>
        <time>2010-04-04T14:46:54Z</time>
      </trkpt>
      <trkpt lat="43.59669" lon="6.8579">
        <ele>284.6876221</ele>
        <time>2010-04-04T14:46:59Z</time>
      </trkpt>
      <trkpt lat="43.59697" lon="6.85765">
        <ele>282.7650146</ele>
        <time>2010-04-04T14:47:04Z</time>
      </trkpt>
      <trkpt lat="43.59711" lon="6.85759">
        <ele>281.322998</ele>
        <time>2010-04-04T14:47:06Z</time>
      </trkpt>
      <trkpt lat="43.59743" lon="6.8573">
        <ele>279.4002686</ele>
        <time>2010-04-04T14:47:11Z</time>
      </trkpt>
      <trkpt lat="43.59767" lon="6.85723">
        <ele>277.958252</ele>
        <time>2010-04-04T14:47:14Z</time>
      </trkpt>
      <trkpt lat="43.59776" lon="6.85723">
        <ele>277.4776611</ele>
        <time>2010-04-04T14:47:15Z</time>
      </trkpt>
      <trkpt lat="43.59794" lon="6.85725">
        <ele>276.0356445</ele>
        <time>2010-04-04T14:47:17Z</time>
      </trkpt>
      <trkpt lat="43.59836" lon="6.85706">
        <ele>273.1518555</ele>
        <time>2010-04-04T14:47:22Z</time>
      </trkpt>
      <trkpt lat="43.59854" lon="6.85682">
        <ele>271.7097168</ele>
        <time>2010-04-04T14:47:25Z</time>
      </trkpt>
      <trkpt lat="43.5986" lon="6.85677">
        <ele>271.229126</ele>
        <time>2010-04-04T14:47:26Z</time>
      </trkpt>
      <trkpt lat="43.5987" lon="6.8567">
        <ele>270.2677002</ele>
        <time>2010-04-04T14:47:28Z</time>
      </trkpt>
      <trkpt lat="43.59874" lon="6.85652">
        <ele>268.8258057</ele>
        <time>2010-04-04T14:47:32Z</time>
      </trkpt>
      <trkpt lat="43.59873" lon="6.85647">
        <ele>268.8258057</ele>
        <time>2010-04-04T14:47:33Z</time>
      </trkpt>
      <trkpt lat="43.5987" lon="6.85634">
        <ele>267.864502</ele>
        <time>2010-04-04T14:47:39Z</time>
      </trkpt>
      <trkpt lat="43.59869" lon="6.85634">
        <ele>269.7871094</ele>
        <time>2010-04-04T14:47:47Z</time>
      </trkpt>
      <trkpt lat="43.59869" lon="6.85634">
        <ele>269.7871094</ele>
        <time>2010-04-04T14:47:53Z</time>
      </trkpt>
      <trkpt lat="43.59869" lon="6.85632">
        <ele>271.7097168</ele>
        <time>2010-04-04T14:48:06Z</time>
      </trkpt>
      <trkpt lat="43.5987" lon="6.85632">
        <ele>271.229126</ele>
        <time>2010-04-04T14:48:22Z</time>
      </trkpt>
      <trkpt lat="43.59872" lon="6.85629">
        <ele>269.3065186</ele>
        <time>2010-04-04T14:49:09Z</time>
      </trkpt>
      <trkpt lat="43.59871" lon="6.85629">
        <ele>270.2677002</ele>
        <time>2010-04-04T14:49:51Z</time>
      </trkpt>
      <trkpt lat="43.59871" lon="6.8563">
        <ele>269.3065186</ele>
        <time>2010-04-04T14:50:03Z</time>
      </trkpt>
      <trkpt lat="43.59871" lon="6.85631">
        <ele>269.7871094</ele>
        <time>2010-04-04T14:50:07Z</time>
      </trkpt>
      <trkpt lat="43.59871" lon="6.85632">
        <ele>270.7484131</ele>
        <time>2010-04-04T14:50:13Z</time>
      </trkpt>
      <trkpt lat="43.5987" lon="6.85633">
        <ele>268.8258057</ele>
        <time>2010-04-04T14:50:50Z</time>
      </trkpt>
      <trkpt lat="43.59869" lon="6.85633">
        <ele>268.8258057</ele>
        <time>2010-04-04T14:50:57Z</time>
      </trkpt>
      <trkpt lat="43.5987" lon="6.85632">
        <ele>268.8258057</ele>
        <time>2010-04-04T14:51:04Z</time>
      </trkpt>
      <trkpt lat="43.59871" lon="6.85631">
        <ele>269.3065186</ele>
        <time>2010-04-04T14:51:11Z</time>
      </trkpt>
      <trkpt lat="43.5987" lon="6.8563">
        <ele>269.3065186</ele>
        <time>2010-04-04T14:51:15Z</time>
      </trkpt>
      <trkpt lat="43.59869" lon="6.85627">
        <ele>269.3065186</ele>
        <time>2010-04-04T14:51:23Z</time>
      </trkpt>
      <trkpt lat="43.59868" lon="6.85625">
        <ele>269.3065186</ele>
        <time>2010-04-04T14:51:28Z</time>
      </trkpt>
      <trkpt lat="43.59868" lon="6.85627">
        <ele>270.2677002</ele>
        <time>2010-04-04T14:51:48Z</time>
      </trkpt>
      <trkpt lat="43.59869" lon="6.85623">
        <ele>269.7871094</ele>
        <time>2010-04-04T14:51:55Z</time>
      </trkpt>
      <trkpt lat="43.59869" lon="6.85619">
        <ele>270.2677002</ele>
        <time>2010-04-04T14:52:01Z</time>
      </trkpt>
      <trkpt lat="43.5987" lon="6.85617">
        <ele>273.1518555</ele>
        <time>2010-04-04T14:52:37Z</time>
      </trkpt>
      <trkpt lat="43.59871" lon="6.85617">
        <ele>272.6711426</ele>
        <time>2010-04-04T14:53:10Z</time>
      </trkpt>
      <trkpt lat="43.59869" lon="6.85611">
        <ele>271.7097168</ele>
        <time>2010-04-04T14:53:27Z</time>
      </trkpt>
      <trkpt lat="43.59865" lon="6.85598">
        <ele>270.7484131</ele>
        <time>2010-04-04T14:53:32Z</time>
      </trkpt>
      <trkpt lat="43.59864" lon="6.85594">
        <ele>270.7484131</ele>
        <time>2010-04-04T14:53:33Z</time>
      </trkpt>
      <trkpt lat="43.59855" lon="6.85563">
        <ele>268.3450928</ele>
        <time>2010-04-04T14:53:41Z</time>
      </trkpt>
      <trkpt lat="43.59848" lon="6.85538">
        <ele>266.9031982</ele>
        <time>2010-04-04T14:53:45Z</time>
      </trkpt>
      <trkpt lat="43.59841" lon="6.85516">
        <ele>265.4613037</ele>
        <time>2010-04-04T14:53:48Z</time>
      </trkpt>
      <trkpt lat="43.59842" lon="6.85482">
        <ele>263.5385742</ele>
        <time>2010-04-04T14:53:52Z</time>
      </trkpt>
      <trkpt lat="43.59852" lon="6.85472">
        <ele>262.5771484</ele>
        <time>2010-04-04T14:53:54Z</time>
      </trkpt>
      <trkpt lat="43.59865" lon="6.85466">
        <ele>261.6159668</ele>
        <time>2010-04-04T14:53:56Z</time>
      </trkpt>
      <trkpt lat="43.59889" lon="6.85443">
        <ele>260.654541</ele>
        <time>2010-04-04T14:54:00Z</time>
      </trkpt>
      <trkpt lat="43.59908" lon="6.85435">
        <ele>258.7319336</ele>
        <time>2010-04-04T14:54:04Z</time>
      </trkpt>
      <trkpt lat="43.5992" lon="6.85432">
        <ele>257.770752</ele>
        <time>2010-04-04T14:54:07Z</time>
      </trkpt>
      <trkpt lat="43.59935" lon="6.8543">
        <ele>255.8480225</ele>
        <time>2010-04-04T14:54:10Z</time>
      </trkpt>
      <trkpt lat="43.59947" lon="6.85426">
        <ele>254.8865967</ele>
        <time>2010-04-04T14:54:12Z</time>
      </trkpt>
      <trkpt lat="43.59976" lon="6.854">
        <ele>252.9639893</ele>
        <time>2010-04-04T14:54:17Z</time>
      </trkpt>
      <trkpt lat="43.60007" lon="6.8538">
        <ele>250.0802002</ele>
        <time>2010-04-04T14:54:22Z</time>
      </trkpt>
      <trkpt lat="43.60023" lon="6.85365">
        <ele>248.6381836</ele>
        <time>2010-04-04T14:54:25Z</time>
      </trkpt>
      <trkpt lat="43.60038" lon="6.85346">
        <ele>246.7154541</ele>
        <time>2010-04-04T14:54:30Z</time>
      </trkpt>
      <trkpt lat="43.60042" lon="6.85342">
        <ele>246.2348633</ele>
        <time>2010-04-04T14:54:35Z</time>
      </trkpt>
      <trkpt lat="43.60041" lon="6.85342">
        <ele>246.7154541</ele>
        <time>2010-04-04T14:54:43Z</time>
      </trkpt>
      <trkpt lat="43.60041" lon="6.85342">
        <ele>247.1960449</ele>
        <time>2010-04-04T14:54:47Z</time>
      </trkpt>
      <trkpt lat="43.60041" lon="6.85341">
        <ele>247.1960449</ele>
        <time>2010-04-04T14:54:55Z</time>
      </trkpt>
      <trkpt lat="43.60041" lon="6.85341">
        <ele>247.6767578</ele>
        <time>2010-04-04T14:55:03Z</time>
      </trkpt>
      <trkpt lat="43.60039" lon="6.85341">
        <ele>248.6381836</ele>
        <time>2010-04-04T14:55:31Z</time>
      </trkpt>
      <trkpt lat="43.6004" lon="6.85343">
        <ele>248.1575928</ele>
        <time>2010-04-04T14:56:06Z</time>
      </trkpt>
      <trkpt lat="43.6004" lon="6.85343">
        <ele>247.1960449</ele>
        <time>2010-04-04T14:56:57Z</time>
      </trkpt>
      <trkpt lat="43.60039" lon="6.85342">
        <ele>246.7154541</ele>
        <time>2010-04-04T14:57:06Z</time>
      </trkpt>
      <trkpt lat="43.6004" lon="6.85341">
        <ele>246.7154541</ele>
        <time>2010-04-04T14:57:11Z</time>
      </trkpt>
      <trkpt lat="43.60039" lon="6.85341">
        <ele>246.7154541</ele>
        <time>2010-04-04T14:57:18Z</time>
      </trkpt>
      <trkpt lat="43.6004" lon="6.8534">
        <ele>246.7154541</ele>
        <time>2010-04-04T14:57:19Z</time>
      </trkpt>
      <trkpt lat="43.60051" lon="6.85328">
        <ele>246.2348633</ele>
        <time>2010-04-04T14:57:24Z</time>
      </trkpt>
      <trkpt lat="43.60075" lon="6.85301">
        <ele>244.3122559</ele>
        <time>2010-04-04T14:57:31Z</time>
      </trkpt>
      <trkpt lat="43.6008" lon="6.85295">
        <ele>244.3122559</ele>
        <time>2010-04-04T14:57:32Z</time>
      </trkpt>
      <trkpt lat="43.60099" lon="6.8527">
        <ele>242.8702393</ele>
        <time>2010-04-04T14:57:36Z</time>
      </trkpt>
      <trkpt lat="43.60113" lon="6.85245">
        <ele>240.467041</ele>
        <time>2010-04-04T14:57:40Z</time>
      </trkpt>
      <trkpt lat="43.60117" lon="6.85233">
        <ele>238.5443115</ele>
        <time>2010-04-04T14:57:42Z</time>
      </trkpt>
      <trkpt lat="43.6012" lon="6.85225">
        <ele>237.1022949</ele>
        <time>2010-04-04T14:57:46Z</time>
      </trkpt>
      <trkpt lat="43.60118" lon="6.85229">
        <ele>239.0249023</ele>
        <time>2010-04-04T14:58:02Z</time>
      </trkpt>
      <trkpt lat="43.6012" lon="6.8523">
        <ele>244.3122559</ele>
        <time>2010-04-04T14:58:16Z</time>
      </trkpt>
      <trkpt lat="43.6012" lon="6.8523">
        <ele>243.3508301</ele>
        <time>2010-04-04T14:58:26Z</time>
      </trkpt>
      <trkpt lat="43.6012" lon="6.85227">
        <ele>244.3122559</ele>
        <time>2010-04-04T14:58:40Z</time>
      </trkpt>
      <trkpt lat="43.60118" lon="6.85224">
        <ele>244.7928467</ele>
        <time>2010-04-04T14:58:52Z</time>
      </trkpt>
      <trkpt lat="43.60117" lon="6.85222">
        <ele>244.3122559</ele>
        <time>2010-04-04T14:59:08Z</time>
      </trkpt>
      <trkpt lat="43.60117" lon="6.85223">
        <ele>242.3896484</ele>
        <time>2010-04-04T14:59:38Z</time>
      </trkpt>
      <trkpt lat="43.60116" lon="6.85229">
        <ele>240.9476318</ele>
        <time>2010-04-04T14:59:44Z</time>
      </trkpt>
      <trkpt lat="43.60114" lon="6.85249">
        <ele>237.5828857</ele>
        <time>2010-04-04T14:59:50Z</time>
      </trkpt>
      <trkpt lat="43.60114" lon="6.85253">
        <ele>236.6217041</ele>
        <time>2010-04-04T14:59:52Z</time>
      </trkpt>
      <trkpt lat="43.60111" lon="6.85264">
        <ele>234.2183838</ele>
        <time>2010-04-04T14:59:58Z</time>
      </trkpt>
      <trkpt lat="43.60107" lon="6.85285">
        <ele>231.8149414</ele>
        <time>2010-04-04T15:00:01Z</time>
      </trkpt>
      <trkpt lat="43.60106" lon="6.85305">
        <ele>229.4117432</ele>
        <time>2010-04-04T15:00:03Z</time>
      </trkpt>
      <trkpt lat="43.60125" lon="6.85354">
        <ele>224.6052246</ele>
        <time>2010-04-04T15:00:07Z</time>
      </trkpt>
      <trkpt lat="43.60146" lon="6.85371">
        <ele>218.3565674</ele>
        <time>2010-04-04T15:00:10Z</time>
      </trkpt>
      <trkpt lat="43.60165" lon="6.85387">
        <ele>213.0693359</ele>
        <time>2010-04-04T15:00:13Z</time>
      </trkpt>
      <trkpt lat="43.60173" lon="6.85395">
        <ele>210.1854248</ele>
        <time>2010-04-04T15:00:15Z</time>
      </trkpt>
      <trkpt lat="43.60176" lon="6.8542">
        <ele>204.4174805</ele>
        <time>2010-04-04T15:00:19Z</time>
      </trkpt>
      <trkpt lat="43.60167" lon="6.85434">
        <ele>201.5335693</ele>
        <time>2010-04-04T15:00:21Z</time>
      </trkpt>
      <trkpt lat="43.60136" lon="6.85459">
        <ele>194.3237305</ele>
        <time>2010-04-04T15:00:26Z</time>
      </trkpt>
      <trkpt lat="43.60118" lon="6.85489">
        <ele>189.5169678</ele>
        <time>2010-04-04T15:00:30Z</time>
      </trkpt>
      <trkpt lat="43.60106" lon="6.85505">
        <ele>185.6717529</ele>
        <time>2010-04-04T15:00:33Z</time>
      </trkpt>
      <trkpt lat="43.60098" lon="6.85512">
        <ele>183.2684326</ele>
        <time>2010-04-04T15:00:35Z</time>
      </trkpt>
      <trkpt lat="43.60092" lon="6.85521">
        <ele>181.826416</ele>
        <time>2010-04-04T15:00:37Z</time>
      </trkpt>
      <trkpt lat="43.60087" lon="6.85525">
        <ele>179.9038086</ele>
        <time>2010-04-04T15:00:40Z</time>
      </trkpt>
      <trkpt lat="43.60075" lon="6.85523">
        <ele>176.5393066</ele>
        <time>2010-04-04T15:00:44Z</time>
      </trkpt>
      <trkpt lat="43.60071" lon="6.85529">
        <ele>175.09729</ele>
        <time>2010-04-04T15:00:47Z</time>
      </trkpt>
      <trkpt lat="43.60079" lon="6.85534">
        <ele>174.6165771</ele>
        <time>2010-04-04T15:00:49Z</time>
      </trkpt>
      <trkpt lat="43.60097" lon="6.85537">
        <ele>175.5778809</ele>
        <time>2010-04-04T15:00:52Z</time>
      </trkpt>
      <trkpt lat="43.60121" lon="6.85525">
        <ele>174.6165771</ele>
        <time>2010-04-04T15:00:56Z</time>
      </trkpt>
      <trkpt lat="43.60147" lon="6.855">
        <ele>173.1746826</ele>
        <time>2010-04-04T15:01:01Z</time>
      </trkpt>
      <trkpt lat="43.60159" lon="6.85494">
        <ele>172.6939697</ele>
        <time>2010-04-04T15:01:03Z</time>
      </trkpt>
      <trkpt lat="43.60191" lon="6.85485">
        <ele>169.3294678</ele>
        <time>2010-04-04T15:01:07Z</time>
      </trkpt>
      <trkpt lat="43.60225" lon="6.85498">
        <ele>165.4841309</ele>
        <time>2010-04-04T15:01:11Z</time>
      </trkpt>
      <trkpt lat="43.6025" lon="6.85514">
        <ele>161.1582031</ele>
        <time>2010-04-04T15:01:14Z</time>
      </trkpt>
      <trkpt lat="43.60272" lon="6.85532">
        <ele>155.8709717</ele>
        <time>2010-04-04T15:01:17Z</time>
      </trkpt>
      <trkpt lat="43.60298" lon="6.85541">
        <ele>150.1030273</ele>
        <time>2010-04-04T15:01:21Z</time>
      </trkpt>
      <trkpt lat="43.60337" lon="6.85538">
        <ele>142.8930664</ele>
        <time>2010-04-04T15:01:26Z</time>
      </trkpt>
      <trkpt lat="43.60369" lon="6.85541">
        <ele>134.2412109</ele>
        <time>2010-04-04T15:01:31Z</time>
      </trkpt>
      <trkpt lat="43.60372" lon="6.85542">
        <ele>132.7993164</ele>
        <time>2010-04-04T15:01:32Z</time>
      </trkpt>
      <trkpt lat="43.60388" lon="6.85546">
        <ele>128.9541016</ele>
        <time>2010-04-04T15:01:37Z</time>
      </trkpt>
      <trkpt lat="43.604" lon="6.8555">
        <ele>127.5119629</ele>
        <time>2010-04-04T15:01:42Z</time>
      </trkpt>
      <trkpt lat="43.60414" lon="6.85557">
        <ele>127.0313721</ele>
        <time>2010-04-04T15:01:47Z</time>
      </trkpt>
      <trkpt lat="43.6043" lon="6.85565">
        <ele>125.1087646</ele>
        <time>2010-04-04T15:01:50Z</time>
      </trkpt>
      <trkpt lat="43.60445" lon="6.85572">
        <ele>123.1861572</ele>
        <time>2010-04-04T15:01:52Z</time>
      </trkpt>
      <trkpt lat="43.60472" lon="6.85573">
        <ele>118.8601074</ele>
        <time>2010-04-04T15:01:56Z</time>
      </trkpt>
      <trkpt lat="43.60479" lon="6.85568">
        <ele>116.9375</ele>
        <time>2010-04-04T15:01:57Z</time>
      </trkpt>
      <trkpt lat="43.60503" lon="6.85552">
        <ele>112.1309814</ele>
        <time>2010-04-04T15:02:00Z</time>
      </trkpt>
      <trkpt lat="43.60549" lon="6.85537">
        <ele>106.3630371</ele>
        <time>2010-04-04T15:02:05Z</time>
      </trkpt>
      <trkpt lat="43.60571" lon="6.85539">
        <ele>105.4017334</ele>
        <time>2010-04-04T15:02:08Z</time>
      </trkpt>
      <trkpt lat="43.60582" lon="6.85537">
        <ele>105.4017334</ele>
        <time>2010-04-04T15:02:10Z</time>
      </trkpt>
      <trkpt lat="43.60596" lon="6.85539">
        <ele>109.2469482</ele>
        <time>2010-04-04T15:02:15Z</time>
      </trkpt>
      <trkpt lat="43.60605" lon="6.8554">
        <ele>111.6502686</ele>
        <time>2010-04-04T15:02:20Z</time>
      </trkpt>
      <trkpt lat="43.60615" lon="6.85536">
        <ele>114.0535889</ele>
        <time>2010-04-04T15:02:25Z</time>
      </trkpt>
      <trkpt lat="43.6063" lon="6.85532">
        <ele>115.4956055</ele>
        <time>2010-04-04T15:02:31Z</time>
      </trkpt>
      <trkpt lat="43.60632" lon="6.85531">
        <ele>115.9761963</ele>
        <time>2010-04-04T15:02:35Z</time>
      </trkpt>
      <trkpt lat="43.60632" lon="6.85532">
        <ele>117.8988037</ele>
        <time>2010-04-04T15:02:44Z</time>
      </trkpt>
      <trkpt lat="43.60635" lon="6.85533">
        <ele>117.4182129</ele>
        <time>2010-04-04T15:02:52Z</time>
      </trkpt>
      <trkpt lat="43.60638" lon="6.85532">
        <ele>120.302124</ele>
        <time>2010-04-04T15:03:05Z</time>
      </trkpt>
      <trkpt lat="43.60653" lon="6.85527">
        <ele>123.1861572</ele>
        <time>2010-04-04T15:03:12Z</time>
      </trkpt>
      <trkpt lat="43.60666" lon="6.85524">
        <ele>124.6280518</ele>
        <time>2010-04-04T15:03:17Z</time>
      </trkpt>
      <trkpt lat="43.60678" lon="6.8552">
        <ele>127.0313721</ele>
        <time>2010-04-04T15:03:23Z</time>
      </trkpt>
      <trkpt lat="43.60692" lon="6.8552">
        <ele>127.0313721</ele>
        <time>2010-04-04T15:03:28Z</time>
      </trkpt>
      <trkpt lat="43.60697" lon="6.85521">
        <ele>126.5506592</ele>
        <time>2010-04-04T15:03:30Z</time>
      </trkpt>
      <trkpt lat="43.60705" lon="6.85536">
        <ele>126.5506592</ele>
        <time>2010-04-04T15:03:36Z</time>
      </trkpt>
      <trkpt lat="43.60713" lon="6.85553">
        <ele>126.0699463</ele>
        <time>2010-04-04T15:03:41Z</time>
      </trkpt>
      <trkpt lat="43.60717" lon="6.85558">
        <ele>125.5893555</ele>
        <time>2010-04-04T15:03:45Z</time>
      </trkpt>
      <trkpt lat="43.60715" lon="6.85556">
        <ele>126.0699463</ele>
        <time>2010-04-04T15:03:50Z</time>
      </trkpt>
      <trkpt lat="43.60713" lon="6.85553">
        <ele>126.0699463</ele>
        <time>2010-04-04T15:03:52Z</time>
      </trkpt>
      <trkpt lat="43.60705" lon="6.85537">
        <ele>126.0699463</ele>
        <time>2010-04-04T15:03:57Z</time>
      </trkpt>
      <trkpt lat="43.60697" lon="6.85522">
        <ele>125.5893555</ele>
        <time>2010-04-04T15:04:01Z</time>
      </trkpt>
      <trkpt lat="43.60685" lon="6.8552">
        <ele>125.5893555</ele>
        <time>2010-04-04T15:04:05Z</time>
      </trkpt>
      <trkpt lat="43.60678" lon="6.85522">
        <ele>126.5506592</ele>
        <time>2010-04-04T15:04:10Z</time>
      </trkpt>
      <trkpt lat="43.60678" lon="6.85521">
        <ele>126.5506592</ele>
        <time>2010-04-04T15:04:14Z</time>
      </trkpt>
      <trkpt lat="43.60678" lon="6.8552">
        <ele>127.5119629</ele>
        <time>2010-04-04T15:04:21Z</time>
      </trkpt>
      <trkpt lat="43.60673" lon="6.85521">
        <ele>126.0699463</ele>
        <time>2010-04-04T15:04:29Z</time>
      </trkpt>
      <trkpt lat="43.60662" lon="6.85521">
        <ele>124.1473389</ele>
        <time>2010-04-04T15:04:33Z</time>
      </trkpt>
      <trkpt lat="43.60641" lon="6.85529">
        <ele>121.2635498</ele>
        <time>2010-04-04T15:04:36Z</time>
      </trkpt>
      <trkpt lat="43.60631" lon="6.85531">
        <ele>118.8601074</ele>
        <time>2010-04-04T15:04:38Z</time>
      </trkpt>
      <trkpt lat="43.60636" lon="6.85522">
        <ele>115.9761963</ele>
        <time>2010-04-04T15:04:41Z</time>
      </trkpt>
      <trkpt lat="43.60641" lon="6.85518">
        <ele>115.0148926</ele>
        <time>2010-04-04T15:04:42Z</time>
      </trkpt>
      <trkpt lat="43.60669" lon="6.85493">
        <ele>112.6115723</ele>
        <time>2010-04-04T15:04:48Z</time>
      </trkpt>
      <trkpt lat="43.60679" lon="6.85484">
        <ele>112.1309814</ele>
        <time>2010-04-04T15:04:50Z</time>
      </trkpt>
      <trkpt lat="43.60707" lon="6.85475">
        <ele>109.2469482</ele>
        <time>2010-04-04T15:04:54Z</time>
      </trkpt>
      <trkpt lat="43.60732" lon="6.85479">
        <ele>106.3630371</ele>
        <time>2010-04-04T15:04:57Z</time>
      </trkpt>
      <trkpt lat="43.60741" lon="6.85484">
        <ele>105.4017334</ele>
        <time>2010-04-04T15:04:58Z</time>
      </trkpt>
      <trkpt lat="43.60765" lon="6.85503">
        <ele>101.0756836</ele>
        <time>2010-04-04T15:05:02Z</time>
      </trkpt>
      <trkpt lat="43.60772" lon="6.85504">
        <ele>99.6337891</ele>
        <time>2010-04-04T15:05:05Z</time>
      </trkpt>
      <trkpt lat="43.60774" lon="6.85497">
        <ele>99.1530762</ele>
        <time>2010-04-04T15:05:07Z</time>
      </trkpt>
      <trkpt lat="43.6077" lon="6.85481">
        <ele>96.2692871</ele>
        <time>2010-04-04T15:05:12Z</time>
      </trkpt>
      <trkpt lat="43.60755" lon="6.85444">
        <ele>91.4625244</ele>
        <time>2010-04-04T15:05:17Z</time>
      </trkpt>
      <trkpt lat="43.60753" lon="6.85436">
        <ele>90.0206299</ele>
        <time>2010-04-04T15:05:18Z</time>
      </trkpt>
      <trkpt lat="43.60751" lon="6.85395">
        <ele>83.7719727</ele>
        <time>2010-04-04T15:05:23Z</time>
      </trkpt>
      <trkpt lat="43.6076" lon="6.85376">
        <ele>79.9266357</ele>
        <time>2010-04-04T15:05:27Z</time>
      </trkpt>
      <trkpt lat="43.60767" lon="6.85368">
        <ele>78.4847412</ele>
        <time>2010-04-04T15:05:29Z</time>
      </trkpt>
      <trkpt lat="43.60791" lon="6.85355">
        <ele>73.6782227</ele>
        <time>2010-04-04T15:05:33Z</time>
      </trkpt>
      <trkpt lat="43.60803" lon="6.85351">
        <ele>70.7941895</ele>
        <time>2010-04-04T15:05:35Z</time>
      </trkpt>
      <trkpt lat="43.60829" lon="6.85338">
        <ele>65.9876709</ele>
        <time>2010-04-04T15:05:40Z</time>
      </trkpt>
      <trkpt lat="43.60839" lon="6.85338">
        <ele>64.0650635</ele>
        <time>2010-04-04T15:05:42Z</time>
      </trkpt>
      <trkpt lat="43.60859" lon="6.85348">
        <ele>60.2197266</ele>
        <time>2010-04-04T15:05:47Z</time>
      </trkpt>
      <trkpt lat="43.60868" lon="6.8535">
        <ele>58.77771</ele>
        <time>2010-04-04T15:05:52Z</time>
      </trkpt>
      <trkpt lat="43.60867" lon="6.85347">
        <ele>58.77771</ele>
        <time>2010-04-04T15:05:53Z</time>
      </trkpt>
      <trkpt lat="43.60862" lon="6.85318">
        <ele>58.2971191</ele>
        <time>2010-04-04T15:05:58Z</time>
      </trkpt>
      <trkpt lat="43.60858" lon="6.85296">
        <ele>56.8551025</ele>
        <time>2010-04-04T15:06:01Z</time>
      </trkpt>
      <trkpt lat="43.60841" lon="6.85287">
        <ele>55.8937988</ele>
        <time>2010-04-04T15:06:05Z</time>
      </trkpt>
      <trkpt lat="43.60836" lon="6.85288">
        <ele>56.3745117</ele>
        <time>2010-04-04T15:06:06Z</time>
      </trkpt>
      <trkpt lat="43.60804" lon="6.85289">
        <ele>53.9711914</ele>
        <time>2010-04-04T15:06:13Z</time>
      </trkpt>
      <trkpt lat="43.608" lon="6.85288">
        <ele>53.4904785</ele>
        <time>2010-04-04T15:06:14Z</time>
      </trkpt>
      <trkpt lat="43.60794" lon="6.85287">
        <ele>53.0097656</ele>
        <time>2010-04-04T15:06:19Z</time>
      </trkpt>
      <trkpt lat="43.60796" lon="6.85285">
        <ele>52.5291748</ele>
        <time>2010-04-04T15:06:32Z</time>
      </trkpt>
      <trkpt lat="43.60794" lon="6.85282">
        <ele>53.9711914</ele>
        <time>2010-04-04T15:06:40Z</time>
      </trkpt>
      <trkpt lat="43.60798" lon="6.85284">
        <ele>53.0097656</ele>
        <time>2010-04-04T15:06:53Z</time>
      </trkpt>
      <trkpt lat="43.60796" lon="6.85287">
        <ele>53.4904785</ele>
        <time>2010-04-04T15:06:57Z</time>
      </trkpt>
      <trkpt lat="43.60795" lon="6.85291">
        <ele>53.0097656</ele>
        <time>2010-04-04T15:07:05Z</time>
      </trkpt>
      <trkpt lat="43.60793" lon="6.85291">
        <ele>60.2197266</ele>
        <time>2010-04-04T15:08:07Z</time>
      </trkpt>
      <trkpt lat="43.60792" lon="6.85291">
        <ele>60.2197266</ele>
        <time>2010-04-04T15:08:12Z</time>
      </trkpt>
      <trkpt lat="43.60792" lon="6.85289">
        <ele>59.7391357</ele>
        <time>2010-04-04T15:08:17Z</time>
      </trkpt>
      <trkpt lat="43.60792" lon="6.85289">
        <ele>58.2971191</ele>
        <time>2010-04-04T15:08:23Z</time>
      </trkpt>
      <trkpt lat="43.60792" lon="6.85292">
        <ele>57.3358154</ele>
        <time>2010-04-04T15:08:27Z</time>
      </trkpt>
      <trkpt lat="43.60789" lon="6.85289">
        <ele>56.3745117</ele>
        <time>2010-04-04T15:08:32Z</time>
      </trkpt>
      <trkpt lat="43.60784" lon="6.85291">
        <ele>58.2971191</ele>
        <time>2010-04-04T15:08:36Z</time>
      </trkpt>
      <trkpt lat="43.60782" lon="6.85295">
        <ele>58.2971191</ele>
        <time>2010-04-04T15:08:40Z</time>
      </trkpt>
      <trkpt lat="43.60774" lon="6.85298">
        <ele>58.77771</ele>
        <time>2010-04-04T15:08:47Z</time>
      </trkpt>
      <trkpt lat="43.60771" lon="6.85299">
        <ele>57.8165283</ele>
        <time>2010-04-04T15:08:55Z</time>
      </trkpt>
      <trkpt lat="43.60767" lon="6.853">
        <ele>56.8551025</ele>
        <time>2010-04-04T15:09:00Z</time>
      </trkpt>
      <trkpt lat="43.60761" lon="6.85307">
        <ele>57.8165283</ele>
        <time>2010-04-04T15:09:07Z</time>
      </trkpt>
      <trkpt lat="43.60757" lon="6.8531">
        <ele>56.8551025</ele>
        <time>2010-04-04T15:09:15Z</time>
      </trkpt>
      <trkpt lat="43.60756" lon="6.85315">
        <ele>53.9711914</ele>
        <time>2010-04-04T15:09:26Z</time>
      </trkpt>
      <trkpt lat="43.6075" lon="6.85319">
        <ele>53.9711914</ele>
        <time>2010-04-04T15:09:31Z</time>
      </trkpt>
      <trkpt lat="43.60745" lon="6.85323">
        <ele>53.9711914</ele>
        <time>2010-04-04T15:09:37Z</time>
      </trkpt>
      <trkpt lat="43.6074" lon="6.85327">
        <ele>54.932373</ele>
        <time>2010-04-04T15:09:45Z</time>
      </trkpt>
      <trkpt lat="43.60736" lon="6.85334">
        <ele>54.932373</ele>
        <time>2010-04-04T15:09:51Z</time>
      </trkpt>
      <trkpt lat="43.60729" lon="6.85337">
        <ele>55.8937988</ele>
        <time>2010-04-04T15:09:56Z</time>
      </trkpt>
      <trkpt lat="43.60721" lon="6.85342">
        <ele>58.2971191</ele>
        <time>2010-04-04T15:10:01Z</time>
      </trkpt>
      <trkpt lat="43.60718" lon="6.85348">
        <ele>56.8551025</ele>
        <time>2010-04-04T15:10:07Z</time>
      </trkpt>
      <trkpt lat="43.60713" lon="6.85351">
        <ele>56.3745117</ele>
        <time>2010-04-04T15:10:12Z</time>
      </trkpt>
      <trkpt lat="43.60708" lon="6.85353">
        <ele>55.8937988</ele>
        <time>2010-04-04T15:10:17Z</time>
      </trkpt>
      <trkpt lat="43.60706" lon="6.85353">
        <ele>55.8937988</ele>
        <time>2010-04-04T15:10:18Z</time>
      </trkpt>
      <trkpt lat="43.60702" lon="6.85358">
        <ele>55.8937988</ele>
        <time>2010-04-04T15:10:25Z</time>
      </trkpt>
      <trkpt lat="43.60698" lon="6.8536">
        <ele>55.8937988</ele>
        <time>2010-04-04T15:10:32Z</time>
      </trkpt>
      <trkpt lat="43.60692" lon="6.85361">
        <ele>58.77771</ele>
        <time>2010-04-04T15:10:40Z</time>
      </trkpt>
      <trkpt lat="43.60687" lon="6.85362">
        <ele>59.7391357</ele>
        <time>2010-04-04T15:10:44Z</time>
      </trkpt>
      <trkpt lat="43.60682" lon="6.85362">
        <ele>61.1810303</ele>
        <time>2010-04-04T15:10:48Z</time>
      </trkpt>
      <trkpt lat="43.60679" lon="6.85363">
        <ele>68.871582</ele>
        <time>2010-04-04T15:10:57Z</time>
      </trkpt>
      <trkpt lat="43.60677" lon="6.85364">
        <ele>68.871582</ele>
        <time>2010-04-04T15:11:16Z</time>
      </trkpt>
      <trkpt lat="43.60674" lon="6.85367">
        <ele>68.3908691</ele>
        <time>2010-04-04T15:11:22Z</time>
      </trkpt>
      <trkpt lat="43.60673" lon="6.85371">
        <ele>62.142334</ele>
        <time>2010-04-04T15:11:36Z</time>
      </trkpt>
      <trkpt lat="43.60669" lon="6.85374">
        <ele>61.1810303</ele>
        <time>2010-04-04T15:11:41Z</time>
      </trkpt>
      <trkpt lat="43.60662" lon="6.85378">
        <ele>62.142334</ele>
        <time>2010-04-04T15:11:47Z</time>
      </trkpt>
      <trkpt lat="43.60654" lon="6.8538">
        <ele>64.5456543</ele>
        <time>2010-04-04T15:11:52Z</time>
      </trkpt>
      <trkpt lat="43.6065" lon="6.85382">
        <ele>65.0263672</ele>
        <time>2010-04-04T15:11:59Z</time>
      </trkpt>
      <trkpt lat="43.60647" lon="6.85387">
        <ele>64.5456543</ele>
        <time>2010-04-04T15:12:07Z</time>
      </trkpt>
      <trkpt lat="43.60646" lon="6.85392">
        <ele>63.1036377</ele>
        <time>2010-04-04T15:12:17Z</time>
      </trkpt>
      <trkpt lat="43.60644" lon="6.85394">
        <ele>62.6229248</ele>
        <time>2010-04-04T15:12:19Z</time>
      </trkpt>
      <trkpt lat="43.6064" lon="6.854">
        <ele>61.6617432</ele>
        <time>2010-04-04T15:12:24Z</time>
      </trkpt>
      <trkpt lat="43.60638" lon="6.85402">
        <ele>58.2971191</ele>
        <time>2010-04-04T15:12:30Z</time>
      </trkpt>
      <trkpt lat="43.60636" lon="6.85404">
        <ele>57.8165283</ele>
        <time>2010-04-04T15:12:34Z</time>
      </trkpt>
      <trkpt lat="43.60631" lon="6.85407">
        <ele>57.3358154</ele>
        <time>2010-04-04T15:12:37Z</time>
      </trkpt>
      <trkpt lat="43.60624" lon="6.85414">
        <ele>54.932373</ele>
        <time>2010-04-04T15:12:42Z</time>
      </trkpt>
      <trkpt lat="43.60618" lon="6.85419">
        <ele>53.9711914</ele>
        <time>2010-04-04T15:12:46Z</time>
      </trkpt>
      <trkpt lat="43.60616" lon="6.85421">
        <ele>54.4517822</ele>
        <time>2010-04-04T15:12:51Z</time>
      </trkpt>
      <trkpt lat="43.60613" lon="6.85422">
        <ele>55.4130859</ele>
        <time>2010-04-04T15:12:57Z</time>
      </trkpt>
      <trkpt lat="43.6061" lon="6.85424">
        <ele>55.4130859</ele>
        <time>2010-04-04T15:13:00Z</time>
      </trkpt>
      <trkpt lat="43.60604" lon="6.85425">
        <ele>56.3745117</ele>
        <time>2010-04-04T15:13:07Z</time>
      </trkpt>
      <trkpt lat="43.60603" lon="6.85426">
        <ele>56.3745117</ele>
        <time>2010-04-04T15:13:08Z</time>
      </trkpt>
      <trkpt lat="43.60599" lon="6.8543">
        <ele>56.3745117</ele>
        <time>2010-04-04T15:13:11Z</time>
      </trkpt>
      <trkpt lat="43.60594" lon="6.85429">
        <ele>56.8551025</ele>
        <time>2010-04-04T15:13:17Z</time>
      </trkpt>
      <trkpt lat="43.60583" lon="6.85431">
        <ele>60.7003174</ele>
        <time>2010-04-04T15:13:24Z</time>
      </trkpt>
      <trkpt lat="43.60578" lon="6.85431">
        <ele>61.1810303</ele>
        <time>2010-04-04T15:13:27Z</time>
      </trkpt>
      <trkpt lat="43.60569" lon="6.85433">
        <ele>63.1036377</ele>
        <time>2010-04-04T15:13:33Z</time>
      </trkpt>
      <trkpt lat="43.60562" lon="6.85434">
        <ele>63.1036377</ele>
        <time>2010-04-04T15:13:39Z</time>
      </trkpt>
      <trkpt lat="43.60558" lon="6.85436">
        <ele>61.1810303</ele>
        <time>2010-04-04T15:13:45Z</time>
      </trkpt>
      <trkpt lat="43.60551" lon="6.85437">
        <ele>59.2584229</ele>
        <time>2010-04-04T15:13:51Z</time>
      </trkpt>
      <trkpt lat="43.60546" lon="6.85439">
        <ele>59.7391357</ele>
        <time>2010-04-04T15:13:57Z</time>
      </trkpt>
      <trkpt lat="43.6054" lon="6.85439">
        <ele>62.142334</ele>
        <time>2010-04-04T15:14:03Z</time>
      </trkpt>
      <trkpt lat="43.60535" lon="6.85438">
        <ele>61.6617432</ele>
        <time>2010-04-04T15:14:09Z</time>
      </trkpt>
      <trkpt lat="43.60529" lon="6.8544">
        <ele>61.6617432</ele>
        <time>2010-04-04T15:14:16Z</time>
      </trkpt>
      <trkpt lat="43.60529" lon="6.85443">
        <ele>56.8551025</ele>
        <time>2010-04-04T15:14:22Z</time>
      </trkpt>
      <trkpt lat="43.60525" lon="6.85443">
        <ele>56.3745117</ele>
        <time>2010-04-04T15:14:28Z</time>
      </trkpt>
      <trkpt lat="43.60524" lon="6.85444">
        <ele>56.8551025</ele>
        <time>2010-04-04T15:14:33Z</time>
      </trkpt>
      <trkpt lat="43.60521" lon="6.85448">
        <ele>59.7391357</ele>
        <time>2010-04-04T15:14:39Z</time>
      </trkpt>
      <trkpt lat="43.60517" lon="6.85448">
        <ele>63.5843506</ele>
        <time>2010-04-04T15:14:43Z</time>
      </trkpt>
      <trkpt lat="43.60509" lon="6.85444">
        <ele>65.0263672</ele>
        <time>2010-04-04T15:14:49Z</time>
      </trkpt>
      <trkpt lat="43.60503" lon="6.85441">
        <ele>67.4296875</ele>
        <time>2010-04-04T15:14:54Z</time>
      </trkpt>
      <trkpt lat="43.60493" lon="6.85441">
        <ele>66.9489746</ele>
        <time>2010-04-04T15:15:01Z</time>
      </trkpt>
      <trkpt lat="43.60492" lon="6.85442">
        <ele>65.9876709</ele>
        <time>2010-04-04T15:15:02Z</time>
      </trkpt>
      <trkpt lat="43.60485" lon="6.85441">
        <ele>66.4682617</ele>
        <time>2010-04-04T15:15:08Z</time>
      </trkpt>
      <trkpt lat="43.60479" lon="6.85438">
        <ele>70.3134766</ele>
        <time>2010-04-04T15:15:14Z</time>
      </trkpt>
      <trkpt lat="43.60478" lon="6.85438">
        <ele>69.8328857</ele>
        <time>2010-04-04T15:15:15Z</time>
      </trkpt>
      <trkpt lat="43.60475" lon="6.85432">
        <ele>70.3134766</ele>
        <time>2010-04-04T15:15:20Z</time>
      </trkpt>
      <trkpt lat="43.60477" lon="6.85431">
        <ele>71.7554932</ele>
        <time>2010-04-04T15:15:23Z</time>
      </trkpt>
      <trkpt lat="43.60479" lon="6.85427">
        <ele>70.7941895</ele>
        <time>2010-04-04T15:15:31Z</time>
      </trkpt>
      <trkpt lat="43.6048" lon="6.85422">
        <ele>69.8328857</ele>
        <time>2010-04-04T15:15:36Z</time>
      </trkpt>
      <trkpt lat="43.6048" lon="6.85416">
        <ele>68.3908691</ele>
        <time>2010-04-04T15:15:43Z</time>
      </trkpt>
      <trkpt lat="43.6048" lon="6.85415">
        <ele>66.9489746</ele>
        <time>2010-04-04T15:15:48Z</time>
      </trkpt>
      <trkpt lat="43.60478" lon="6.85417">
        <ele>64.5456543</ele>
        <time>2010-04-04T15:15:55Z</time>
      </trkpt>
      <trkpt lat="43.60475" lon="6.85419">
        <ele>63.1036377</ele>
        <time>2010-04-04T15:16:01Z</time>
      </trkpt>
      <trkpt lat="43.60473" lon="6.85418">
        <ele>63.1036377</ele>
        <time>2010-04-04T15:16:05Z</time>
      </trkpt>
      <trkpt lat="43.60472" lon="6.85414">
        <ele>62.142334</ele>
        <time>2010-04-04T15:16:10Z</time>
      </trkpt>
      <trkpt lat="43.60472" lon="6.85413">
        <ele>63.1036377</ele>
        <time>2010-04-04T15:16:15Z</time>
      </trkpt>
      <trkpt lat="43.60471" lon="6.85408">
        <ele>64.0650635</ele>
        <time>2010-04-04T15:16:23Z</time>
      </trkpt>
      <trkpt lat="43.6047" lon="6.85405">
        <ele>63.1036377</ele>
        <time>2010-04-04T15:16:31Z</time>
      </trkpt>
      <trkpt lat="43.6047" lon="6.85403">
        <ele>63.1036377</ele>
        <time>2010-04-04T15:16:38Z</time>
      </trkpt>
      <trkpt lat="43.6047" lon="6.854">
        <ele>63.1036377</ele>
        <time>2010-04-04T15:16:44Z</time>
      </trkpt>
      <trkpt lat="43.60469" lon="6.85396">
        <ele>63.5843506</ele>
        <time>2010-04-04T15:16:50Z</time>
      </trkpt>
      <trkpt lat="43.60469" lon="6.85396">
        <ele>62.6229248</ele>
        <time>2010-04-04T15:16:55Z</time>
      </trkpt>
      <trkpt lat="43.60471" lon="6.85394">
        <ele>60.7003174</ele>
        <time>2010-04-04T15:17:01Z</time>
      </trkpt>
      <trkpt lat="43.60469" lon="6.85393">
        <ele>58.2971191</ele>
        <time>2010-04-04T15:17:09Z</time>
      </trkpt>
      <trkpt lat="43.60466" lon="6.85393">
        <ele>58.2971191</ele>
        <time>2010-04-04T15:17:14Z</time>
      </trkpt>
      <trkpt lat="43.60465" lon="6.85394">
        <ele>61.6617432</ele>
        <time>2010-04-04T15:17:19Z</time>
      </trkpt>
      <trkpt lat="43.60463" lon="6.85393">
        <ele>63.1036377</ele>
        <time>2010-04-04T15:17:26Z</time>
      </trkpt>
      <trkpt lat="43.60466" lon="6.85389">
        <ele>62.6229248</ele>
        <time>2010-04-04T15:17:31Z</time>
      </trkpt>
      <trkpt lat="43.60467" lon="6.85384">
        <ele>62.142334</ele>
        <time>2010-04-04T15:17:36Z</time>
      </trkpt>
      <trkpt lat="43.6047" lon="6.85387">
        <ele>64.0650635</ele>
        <time>2010-04-04T15:17:48Z</time>
      </trkpt>
      <trkpt lat="43.60474" lon="6.8539">
        <ele>63.1036377</ele>
        <time>2010-04-04T15:17:54Z</time>
      </trkpt>
      <trkpt lat="43.60473" lon="6.85382">
        <ele>63.5843506</ele>
        <time>2010-04-04T15:18:01Z</time>
      </trkpt>
      <trkpt lat="43.60473" lon="6.85375">
        <ele>63.1036377</ele>
        <time>2010-04-04T15:18:05Z</time>
      </trkpt>
      <trkpt lat="43.60473" lon="6.85369">
        <ele>63.5843506</ele>
        <time>2010-04-04T15:18:10Z</time>
      </trkpt>
      <trkpt lat="43.60472" lon="6.85367">
        <ele>63.5843506</ele>
        <time>2010-04-04T15:18:11Z</time>
      </trkpt>
      <trkpt lat="43.60472" lon="6.85361">
        <ele>63.5843506</ele>
        <time>2010-04-04T15:18:16Z</time>
      </trkpt>
      <trkpt lat="43.60473" lon="6.85358">
        <ele>65.5070801</ele>
        <time>2010-04-04T15:18:26Z</time>
      </trkpt>
      <trkpt lat="43.60472" lon="6.85357">
        <ele>67.9102783</ele>
        <time>2010-04-04T15:18:36Z</time>
      </trkpt>
      <trkpt lat="43.60474" lon="6.85357">
        <ele>66.9489746</ele>
        <time>2010-04-04T15:18:39Z</time>
      </trkpt>
      <trkpt lat="43.60481" lon="6.8536">
        <ele>65.9876709</ele>
        <time>2010-04-04T15:18:47Z</time>
      </trkpt>
      <trkpt lat="43.60484" lon="6.85362">
        <ele>65.9876709</ele>
        <time>2010-04-04T15:18:50Z</time>
      </trkpt>
      <trkpt lat="43.60488" lon="6.85363">
        <ele>66.9489746</ele>
        <time>2010-04-04T15:18:54Z</time>
      </trkpt>
      <trkpt lat="43.60488" lon="6.85361">
        <ele>66.9489746</ele>
        <time>2010-04-04T15:19:01Z</time>
      </trkpt>
      <trkpt lat="43.60487" lon="6.85367">
        <ele>69.3522949</ele>
        <time>2010-04-04T15:19:13Z</time>
      </trkpt>
      <trkpt lat="43.60489" lon="6.85374">
        <ele>72.2362061</ele>
        <time>2010-04-04T15:19:51Z</time>
      </trkpt>
      <trkpt lat="43.60486" lon="6.8537">
        <ele>78.4847412</ele>
        <time>2010-04-04T15:20:28Z</time>
      </trkpt>
      <trkpt lat="43.60486" lon="6.85365">
        <ele>69.8328857</ele>
        <time>2010-04-04T15:20:45Z</time>
      </trkpt>
      <trkpt lat="43.60487" lon="6.85373">
        <ele>73.6782227</ele>
        <time>2010-04-04T15:21:28Z</time>
      </trkpt>
      <trkpt lat="43.60488" lon="6.85371">
        <ele>78.4847412</ele>
        <time>2010-04-04T15:21:53Z</time>
      </trkpt>
      <trkpt lat="43.60488" lon="6.85374">
        <ele>68.871582</ele>
        <time>2010-04-04T15:22:23Z</time>
      </trkpt>
      <trkpt lat="43.60487" lon="6.85369">
        <ele>69.8328857</ele>
        <time>2010-04-04T15:22:52Z</time>
      </trkpt>
      <trkpt lat="43.60487" lon="6.8537">
        <ele>67.9102783</ele>
        <time>2010-04-04T15:23:49Z</time>
      </trkpt>
      <trkpt lat="43.60488" lon="6.85368">
        <ele>66.4682617</ele>
        <time>2010-04-04T15:24:00Z</time>
      </trkpt>
      <trkpt lat="43.60489" lon="6.85364">
        <ele>64.5456543</ele>
        <time>2010-04-04T15:24:11Z</time>
      </trkpt>
      <trkpt lat="43.60489" lon="6.85365">
        <ele>65.5070801</ele>
        <time>2010-04-04T15:24:18Z</time>
      </trkpt>
      <trkpt lat="43.60489" lon="6.85363">
        <ele>61.1810303</ele>
        <time>2010-04-04T15:24:35Z</time>
      </trkpt>
      <trkpt lat="43.60488" lon="6.85359">
        <ele>58.2971191</ele>
        <time>2010-04-04T15:25:04Z</time>
      </trkpt>
      <trkpt lat="43.60488" lon="6.8536">
        <ele>59.7391357</ele>
        <time>2010-04-04T15:25:15Z</time>
      </trkpt>
      <trkpt lat="43.6049" lon="6.85363">
        <ele>65.0263672</ele>
        <time>2010-04-04T15:25:38Z</time>
      </trkpt>
      <trkpt lat="43.6049" lon="6.85367">
        <ele>68.3908691</ele>
        <time>2010-04-04T15:25:47Z</time>
      </trkpt>
      <trkpt lat="43.60489" lon="6.85367">
        <ele>68.871582</ele>
        <time>2010-04-04T15:25:50Z</time>
      </trkpt>
      <trkpt lat="43.60489" lon="6.85365">
        <ele>65.0263672</ele>
        <time>2010-04-04T15:25:57Z</time>
      </trkpt>
      <trkpt lat="43.6049" lon="6.85362">
        <ele>64.5456543</ele>
        <time>2010-04-04T15:26:12Z</time>
      </trkpt>
      <trkpt lat="43.6049" lon="6.85363">
        <ele>65.0263672</ele>
        <time>2010-04-04T15:26:23Z</time>
      </trkpt>
      <trkpt lat="43.60489" lon="6.85361">
        <ele>65.0263672</ele>
        <time>2010-04-04T15:26:31Z</time>
      </trkpt>
      <trkpt lat="43.60487" lon="6.85359">
        <ele>65.0263672</ele>
        <time>2010-04-04T15:26:38Z</time>
      </trkpt>
      <trkpt lat="43.60481" lon="6.85345">
        <ele>65.0263672</ele>
        <time>2010-04-04T15:26:44Z</time>
      </trkpt>
      <trkpt lat="43.60475" lon="6.85327">
        <ele>65.9876709</ele>
        <time>2010-04-04T15:26:50Z</time>
      </trkpt>
      <trkpt lat="43.60472" lon="6.85305">
        <ele>65.9876709</ele>
        <time>2010-04-04T15:26:56Z</time>
      </trkpt>
      <trkpt lat="43.60471" lon="6.85293">
        <ele>65.5070801</ele>
        <time>2010-04-04T15:27:00Z</time>
      </trkpt>
      <trkpt lat="43.60472" lon="6.85284">
        <ele>65.0263672</ele>
        <time>2010-04-04T15:27:05Z</time>
      </trkpt>
      <trkpt lat="43.60472" lon="6.8528">
        <ele>65.5070801</ele>
        <time>2010-04-04T15:27:11Z</time>
      </trkpt>
      <trkpt lat="43.60474" lon="6.85276">
        <ele>64.5456543</ele>
        <time>2010-04-04T15:27:16Z</time>
      </trkpt>
      <trkpt lat="43.60475" lon="6.85274">
        <ele>63.5843506</ele>
        <time>2010-04-04T15:27:21Z</time>
      </trkpt>
      <trkpt lat="43.60477" lon="6.85272">
        <ele>63.5843506</ele>
        <time>2010-04-04T15:27:23Z</time>
      </trkpt>
      <trkpt lat="43.60481" lon="6.85265">
        <ele>64.0650635</ele>
        <time>2010-04-04T15:27:27Z</time>
      </trkpt>
      <trkpt lat="43.60483" lon="6.85262">
        <ele>64.0650635</ele>
        <time>2010-04-04T15:27:29Z</time>
      </trkpt>
      <trkpt lat="43.60489" lon="6.8525">
        <ele>63.5843506</ele>
        <time>2010-04-04T15:27:36Z</time>
      </trkpt>
      <trkpt lat="43.6049" lon="6.85244">
        <ele>63.5843506</ele>
        <time>2010-04-04T15:27:39Z</time>
      </trkpt>
      <trkpt lat="43.60493" lon="6.85238">
        <ele>63.5843506</ele>
        <time>2010-04-04T15:27:44Z</time>
      </trkpt>
      <trkpt lat="43.60496" lon="6.85232">
        <ele>64.0650635</ele>
        <time>2010-04-04T15:27:50Z</time>
      </trkpt>
      <trkpt lat="43.60502" lon="6.85222">
        <ele>65.0263672</ele>
        <time>2010-04-04T15:27:56Z</time>
      </trkpt>
      <trkpt lat="43.60507" lon="6.85214">
        <ele>65.5070801</ele>
        <time>2010-04-04T15:28:01Z</time>
      </trkpt>
      <trkpt lat="43.60509" lon="6.8521">
        <ele>65.5070801</ele>
        <time>2010-04-04T15:28:06Z</time>
      </trkpt>
      <trkpt lat="43.60511" lon="6.85207">
        <ele>65.9876709</ele>
        <time>2010-04-04T15:28:10Z</time>
      </trkpt>
      <trkpt lat="43.60515" lon="6.85203">
        <ele>66.9489746</ele>
        <time>2010-04-04T15:28:14Z</time>
      </trkpt>
      <trkpt lat="43.60521" lon="6.85195">
        <ele>68.3908691</ele>
        <time>2010-04-04T15:28:21Z</time>
      </trkpt>
      <trkpt lat="43.60523" lon="6.85191">
        <ele>69.3522949</ele>
        <time>2010-04-04T15:28:27Z</time>
      </trkpt>
      <trkpt lat="43.60526" lon="6.85185">
        <ele>69.3522949</ele>
        <time>2010-04-04T15:28:33Z</time>
      </trkpt>
      <trkpt lat="43.60534" lon="6.8517">
        <ele>70.3134766</ele>
        <time>2010-04-04T15:28:41Z</time>
      </trkpt>
      <trkpt lat="43.60541" lon="6.85155">
        <ele>71.7554932</ele>
        <time>2010-04-04T15:28:49Z</time>
      </trkpt>
      <trkpt lat="43.60546" lon="6.85144">
        <ele>73.1976318</ele>
        <time>2010-04-04T15:28:55Z</time>
      </trkpt>
      <trkpt lat="43.60553" lon="6.85134">
        <ele>75.1202393</ele>
        <time>2010-04-04T15:29:02Z</time>
      </trkpt>
      <trkpt lat="43.60562" lon="6.85121">
        <ele>77.5234375</ele>
        <time>2010-04-04T15:29:10Z</time>
      </trkpt>
      <trkpt lat="43.60574" lon="6.85114">
        <ele>79.9266357</ele>
        <time>2010-04-04T15:29:19Z</time>
      </trkpt>
      <trkpt lat="43.60587" lon="6.85109">
        <ele>81.3687744</ele>
        <time>2010-04-04T15:29:28Z</time>
      </trkpt>
      <trkpt lat="43.60593" lon="6.85111">
        <ele>83.2913818</ele>
        <time>2010-04-04T15:29:33Z</time>
      </trkpt>
      <trkpt lat="43.60605" lon="6.85111">
        <ele>84.2526855</ele>
        <time>2010-04-04T15:29:41Z</time>
      </trkpt>
      <trkpt lat="43.60614" lon="6.85112">
        <ele>85.6945801</ele>
        <time>2010-04-04T15:29:47Z</time>
      </trkpt>
      <trkpt lat="43.60621" lon="6.85112">
        <ele>87.1365967</ele>
        <time>2010-04-04T15:29:52Z</time>
      </trkpt>
      <trkpt lat="43.60625" lon="6.85113">
        <ele>87.6171875</ele>
        <time>2010-04-04T15:29:55Z</time>
      </trkpt>
      <trkpt lat="43.6063" lon="6.85119">
        <ele>88.5787354</ele>
        <time>2010-04-04T15:30:01Z</time>
      </trkpt>
      <trkpt lat="43.60633" lon="6.85115">
        <ele>89.0593262</ele>
        <time>2010-04-04T15:30:06Z</time>
      </trkpt>
      <trkpt lat="43.60633" lon="6.85116">
        <ele>89.0593262</ele>
        <time>2010-04-04T15:30:19Z</time>
      </trkpt>
      <trkpt lat="43.60633" lon="6.85114">
        <ele>90.0206299</ele>
        <time>2010-04-04T15:30:38Z</time>
      </trkpt>
      <trkpt lat="43.60633" lon="6.85113">
        <ele>89.539917</ele>
        <time>2010-04-04T15:30:45Z</time>
      </trkpt>
      <trkpt lat="43.60635" lon="6.85112">
        <ele>91.9432373</ele>
        <time>2010-04-04T15:31:29Z</time>
      </trkpt>
      <trkpt lat="43.60635" lon="6.85113">
        <ele>92.4239502</ele>
        <time>2010-04-04T15:31:34Z</time>
      </trkpt>
      <trkpt lat="43.60638" lon="6.8511">
        <ele>92.904541</ele>
        <time>2010-04-04T15:31:40Z</time>
      </trkpt>
      <trkpt lat="43.60647" lon="6.85103">
        <ele>93.8658447</ele>
        <time>2010-04-04T15:31:47Z</time>
      </trkpt>
      <trkpt lat="43.60654" lon="6.85099">
        <ele>93.8658447</ele>
        <time>2010-04-04T15:31:52Z</time>
      </trkpt>
      <trkpt lat="43.60666" lon="6.85099">
        <ele>94.8271484</ele>
        <time>2010-04-04T15:31:59Z</time>
      </trkpt>
      <trkpt lat="43.60674" lon="6.85101">
        <ele>95.7884521</ele>
        <time>2010-04-04T15:32:05Z</time>
      </trkpt>
      <trkpt lat="43.60681" lon="6.85103">
        <ele>95.7884521</ele>
        <time>2010-04-04T15:32:10Z</time>
      </trkpt>
      <trkpt lat="43.60688" lon="6.85106">
        <ele>96.7498779</ele>
        <time>2010-04-04T15:32:15Z</time>
      </trkpt>
      <trkpt lat="43.60704" lon="6.85105">
        <ele>98.6724854</ele>
        <time>2010-04-04T15:32:24Z</time>
      </trkpt>
      <trkpt lat="43.60719" lon="6.85097">
        <ele>100.114502</ele>
        <time>2010-04-04T15:32:34Z</time>
      </trkpt>
      <trkpt lat="43.60729" lon="6.85093">
        <ele>101.5563965</ele>
        <time>2010-04-04T15:32:41Z</time>
      </trkpt>
      <trkpt lat="43.60741" lon="6.8509">
        <ele>102.5177002</ele>
        <time>2010-04-04T15:32:49Z</time>
      </trkpt>
      <trkpt lat="43.60749" lon="6.85084">
        <ele>103.4790039</ele>
        <time>2010-04-04T15:32:55Z</time>
      </trkpt>
      <trkpt lat="43.60752" lon="6.85082">
        <ele>103.9597168</ele>
        <time>2010-04-04T15:32:57Z</time>
      </trkpt>
      <trkpt lat="43.60758" lon="6.8508">
        <ele>105.4017334</ele>
        <time>2010-04-04T15:33:01Z</time>
      </trkpt>
      <trkpt lat="43.60774" lon="6.85072">
        <ele>107.3243408</ele>
        <time>2010-04-04T15:33:12Z</time>
      </trkpt>
      <trkpt lat="43.60785" lon="6.85067">
        <ele>108.7662354</ele>
        <time>2010-04-04T15:33:20Z</time>
      </trkpt>
      <trkpt lat="43.60796" lon="6.85063">
        <ele>110.6888428</ele>
        <time>2010-04-04T15:33:28Z</time>
      </trkpt>
      <trkpt lat="43.60808" lon="6.85056">
        <ele>112.6115723</ele>
        <time>2010-04-04T15:33:36Z</time>
      </trkpt>
      <trkpt lat="43.60821" lon="6.85049">
        <ele>115.0148926</ele>
        <time>2010-04-04T15:33:44Z</time>
      </trkpt>
      <trkpt lat="43.60833" lon="6.85041">
        <ele>117.8988037</ele>
        <time>2010-04-04T15:33:53Z</time>
      </trkpt>
      <trkpt lat="43.60844" lon="6.85033">
        <ele>119.3408203</ele>
        <time>2010-04-04T15:34:01Z</time>
      </trkpt>
      <trkpt lat="43.60854" lon="6.85027">
        <ele>120.7828369</ele>
        <time>2010-04-04T15:34:08Z</time>
      </trkpt>
      <trkpt lat="43.60865" lon="6.85031">
        <ele>121.7441406</ele>
        <time>2010-04-04T15:34:16Z</time>
      </trkpt>
      <trkpt lat="43.60873" lon="6.85037">
        <ele>122.7054443</ele>
        <time>2010-04-04T15:34:22Z</time>
      </trkpt>
      <trkpt lat="43.60878" lon="6.85041">
        <ele>122.7054443</ele>
        <time>2010-04-04T15:34:28Z</time>
      </trkpt>
      <trkpt lat="43.60881" lon="6.85043">
        <ele>123.666748</ele>
        <time>2010-04-04T15:34:41Z</time>
      </trkpt>
      <trkpt lat="43.6089" lon="6.85051">
        <ele>125.1087646</ele>
        <time>2010-04-04T15:34:48Z</time>
      </trkpt>
      <trkpt lat="43.60899" lon="6.8506">
        <ele>126.5506592</ele>
        <time>2010-04-04T15:34:55Z</time>
      </trkpt>
      <trkpt lat="43.60909" lon="6.8507">
        <ele>127.9925537</ele>
        <time>2010-04-04T15:35:02Z</time>
      </trkpt>
      <trkpt lat="43.6092" lon="6.85078">
        <ele>131.3572998</ele>
        <time>2010-04-04T15:35:11Z</time>
      </trkpt>
      <trkpt lat="43.60925" lon="6.85069">
        <ele>132.7993164</ele>
        <time>2010-04-04T15:35:17Z</time>
      </trkpt>
      <trkpt lat="43.60923" lon="6.85055">
        <ele>134.2412109</ele>
        <time>2010-04-04T15:35:23Z</time>
      </trkpt>
      <trkpt lat="43.60922" lon="6.8504">
        <ele>135.6831055</ele>
        <time>2010-04-04T15:35:29Z</time>
      </trkpt>
      <trkpt lat="43.60924" lon="6.8502">
        <ele>137.605835</ele>
        <time>2010-04-04T15:35:37Z</time>
      </trkpt>
      <trkpt lat="43.60927" lon="6.85001">
        <ele>140.0091553</ele>
        <time>2010-04-04T15:35:46Z</time>
      </trkpt>
      <trkpt lat="43.60929" lon="6.84986">
        <ele>140.970459</ele>
        <time>2010-04-04T15:35:52Z</time>
      </trkpt>
      <trkpt lat="43.60938" lon="6.84985">
        <ele>141.9317627</ele>
        <time>2010-04-04T15:35:58Z</time>
      </trkpt>
      <trkpt lat="43.60939" lon="6.84994">
        <ele>141.9317627</ele>
        <time>2010-04-04T15:36:03Z</time>
      </trkpt>
      <trkpt lat="43.60939" lon="6.84996">
        <ele>142.4124756</ele>
        <time>2010-04-04T15:36:04Z</time>
      </trkpt>
      <trkpt lat="43.60944" lon="6.85011">
        <ele>143.8543701</ele>
        <time>2010-04-04T15:36:12Z</time>
      </trkpt>
      <trkpt lat="43.60952" lon="6.85026">
        <ele>145.7770996</ele>
        <time>2010-04-04T15:36:21Z</time>
      </trkpt>
      <trkpt lat="43.60964" lon="6.85032">
        <ele>147.2189941</ele>
        <time>2010-04-04T15:36:29Z</time>
      </trkpt>
      <trkpt lat="43.60978" lon="6.85031">
        <ele>148.6610107</ele>
        <time>2010-04-04T15:36:36Z</time>
      </trkpt>
      <trkpt lat="43.60992" lon="6.85025">
        <ele>150.1030273</ele>
        <time>2010-04-04T15:36:44Z</time>
      </trkpt>
      <trkpt lat="43.61006" lon="6.85019">
        <ele>152.5063477</ele>
        <time>2010-04-04T15:36:53Z</time>
      </trkpt>
      <trkpt lat="43.61017" lon="6.85017">
        <ele>155.3902588</ele>
        <time>2010-04-04T15:37:00Z</time>
      </trkpt>
      <trkpt lat="43.61026" lon="6.85015">
        <ele>156.3515625</ele>
        <time>2010-04-04T15:37:06Z</time>
      </trkpt>
      <trkpt lat="43.61037" lon="6.85014">
        <ele>157.3128662</ele>
        <time>2010-04-04T15:37:13Z</time>
      </trkpt>
      <trkpt lat="43.61039" lon="6.85011">
        <ele>156.8321533</ele>
        <time>2010-04-04T15:37:15Z</time>
      </trkpt>
      <trkpt lat="43.61036" lon="6.85001">
        <ele>157.7935791</ele>
        <time>2010-04-04T15:37:21Z</time>
      </trkpt>
      <trkpt lat="43.61029" lon="6.84998">
        <ele>158.7547607</ele>
        <time>2010-04-04T15:37:26Z</time>
      </trkpt>
      <trkpt lat="43.61023" lon="6.8499">
        <ele>160.1968994</ele>
        <time>2010-04-04T15:37:32Z</time>
      </trkpt>
      <trkpt lat="43.61017" lon="6.84977">
        <ele>162.6000977</ele>
        <time>2010-04-04T15:37:40Z</time>
      </trkpt>
      <trkpt lat="43.61014" lon="6.84963">
        <ele>163.5615234</ele>
        <time>2010-04-04T15:37:46Z</time>
      </trkpt>
      <trkpt lat="43.61015" lon="6.84947">
        <ele>163.5615234</ele>
        <time>2010-04-04T15:37:52Z</time>
      </trkpt>
      <trkpt lat="43.61021" lon="6.84927">
        <ele>163.5615234</ele>
        <time>2010-04-04T15:37:58Z</time>
      </trkpt>
      <trkpt lat="43.61033" lon="6.84911">
        <ele>163.5615234</ele>
        <time>2010-04-04T15:38:04Z</time>
      </trkpt>
      <trkpt lat="43.61044" lon="6.84902">
        <ele>164.0421143</ele>
        <time>2010-04-04T15:38:10Z</time>
      </trkpt>
      <trkpt lat="43.61058" lon="6.84894">
        <ele>164.5227051</ele>
        <time>2010-04-04T15:38:17Z</time>
      </trkpt>
      <trkpt lat="43.61065" lon="6.84888">
        <ele>165.003418</ele>
        <time>2010-04-04T15:38:23Z</time>
      </trkpt>
      <trkpt lat="43.61067" lon="6.84887">
        <ele>165.003418</ele>
        <time>2010-04-04T15:38:25Z</time>
      </trkpt>
      <trkpt lat="43.6107" lon="6.84884">
        <ele>165.9647217</ele>
        <time>2010-04-04T15:38:30Z</time>
      </trkpt>
      <trkpt lat="43.6107" lon="6.84884">
        <ele>166.4453125</ele>
        <time>2010-04-04T15:38:36Z</time>
      </trkpt>
      <trkpt lat="43.6107" lon="6.84882">
        <ele>166.9260254</ele>
        <time>2010-04-04T15:38:43Z</time>
      </trkpt>
      <trkpt lat="43.61071" lon="6.84882">
        <ele>168.368042</ele>
        <time>2010-04-04T15:38:49Z</time>
      </trkpt>
      <trkpt lat="43.6107" lon="6.84883">
        <ele>168.8487549</ele>
        <time>2010-04-04T15:38:52Z</time>
      </trkpt>
      <trkpt lat="43.61071" lon="6.84882">
        <ele>169.8100586</ele>
        <time>2010-04-04T15:38:59Z</time>
      </trkpt>
      <trkpt lat="43.61072" lon="6.84882">
        <ele>169.8100586</ele>
        <time>2010-04-04T15:39:06Z</time>
      </trkpt>
      <trkpt lat="43.61073" lon="6.84881">
        <ele>169.8100586</ele>
        <time>2010-04-04T15:39:13Z</time>
      </trkpt>
      <trkpt lat="43.61086" lon="6.8488">
        <ele>170.7713623</ele>
        <time>2010-04-04T15:39:21Z</time>
      </trkpt>
      <trkpt lat="43.611" lon="6.84877">
        <ele>172.6939697</ele>
        <time>2010-04-04T15:39:29Z</time>
      </trkpt>
      <trkpt lat="43.61113" lon="6.84877">
        <ele>173.6552734</ele>
        <time>2010-04-04T15:39:36Z</time>
      </trkpt>
      <trkpt lat="43.61125" lon="6.84873">
        <ele>175.5778809</ele>
        <time>2010-04-04T15:39:43Z</time>
      </trkpt>
      <trkpt lat="43.61136" lon="6.84869">
        <ele>176.5393066</ele>
        <time>2010-04-04T15:39:51Z</time>
      </trkpt>
      <trkpt lat="43.61137" lon="6.8487">
        <ele>177.0200195</ele>
        <time>2010-04-04T15:39:52Z</time>
      </trkpt>
      <trkpt lat="43.61136" lon="6.84879">
        <ele>177.5006104</ele>
        <time>2010-04-04T15:39:57Z</time>
      </trkpt>
      <trkpt lat="43.61125" lon="6.84888">
        <ele>178.4619141</ele>
        <time>2010-04-04T15:40:04Z</time>
      </trkpt>
      <trkpt lat="43.61115" lon="6.84897">
        <ele>179.4232178</ele>
        <time>2010-04-04T15:40:11Z</time>
      </trkpt>
      <trkpt lat="43.61109" lon="6.84909">
        <ele>180.3845215</ele>
        <time>2010-04-04T15:40:17Z</time>
      </trkpt>
      <trkpt lat="43.61104" lon="6.84925">
        <ele>180.8652344</ele>
        <time>2010-04-04T15:40:24Z</time>
      </trkpt>
      <trkpt lat="43.61107" lon="6.84945">
        <ele>181.826416</ele>
        <time>2010-04-04T15:40:32Z</time>
      </trkpt>
      <trkpt lat="43.61114" lon="6.84958">
        <ele>182.3071289</ele>
        <time>2010-04-04T15:40:40Z</time>
      </trkpt>
      <trkpt lat="43.61122" lon="6.84972">
        <ele>182.3071289</ele>
        <time>2010-04-04T15:40:48Z</time>
      </trkpt>
      <trkpt lat="43.61127" lon="6.84982">
        <ele>182.7878418</ele>
        <time>2010-04-04T15:40:55Z</time>
      </trkpt>
      <trkpt lat="43.61128" lon="6.8498">
        <ele>185.6717529</ele>
        <time>2010-04-04T15:41:50Z</time>
      </trkpt>
      <trkpt lat="43.61131" lon="6.8499">
        <ele>186.1524658</ele>
        <time>2010-04-04T15:41:55Z</time>
      </trkpt>
      <trkpt lat="43.61134" lon="6.85012">
        <ele>187.1137695</ele>
        <time>2010-04-04T15:42:02Z</time>
      </trkpt>
      <trkpt lat="43.61137" lon="6.85034">
        <ele>188.5557861</ele>
        <time>2010-04-04T15:42:09Z</time>
      </trkpt>
      <trkpt lat="43.61142" lon="6.85057">
        <ele>189.5169678</ele>
        <time>2010-04-04T15:42:17Z</time>
      </trkpt>
      <trkpt lat="43.61143" lon="6.85074">
        <ele>191.4395752</ele>
        <time>2010-04-04T15:42:24Z</time>
      </trkpt>
      <trkpt lat="43.61146" lon="6.85092">
        <ele>193.3623047</ele>
        <time>2010-04-04T15:42:32Z</time>
      </trkpt>
      <trkpt lat="43.61151" lon="6.85109">
        <ele>195.765625</ele>
        <time>2010-04-04T15:42:40Z</time>
      </trkpt>
      <trkpt lat="43.61156" lon="6.85127">
        <ele>195.2849121</ele>
        <time>2010-04-04T15:42:48Z</time>
      </trkpt>
      <trkpt lat="43.61164" lon="6.85141">
        <ele>194.3237305</ele>
        <time>2010-04-04T15:42:55Z</time>
      </trkpt>
      <trkpt lat="43.61175" lon="6.85158">
        <ele>194.8043213</ele>
        <time>2010-04-04T15:43:02Z</time>
      </trkpt>
      <trkpt lat="43.61186" lon="6.85168">
        <ele>196.2463379</ele>
        <time>2010-04-04T15:43:08Z</time>
      </trkpt>
      <trkpt lat="43.61201" lon="6.85175">
        <ele>196.7269287</ele>
        <time>2010-04-04T15:43:15Z</time>
      </trkpt>
      <trkpt lat="43.61214" lon="6.85177">
        <ele>197.2075195</ele>
        <time>2010-04-04T15:43:22Z</time>
      </trkpt>
      <trkpt lat="43.61221" lon="6.85178">
        <ele>199.130127</ele>
        <time>2010-04-04T15:43:27Z</time>
      </trkpt>
      <trkpt lat="43.61226" lon="6.85169">
        <ele>202.0142822</ele>
        <time>2010-04-04T15:43:33Z</time>
      </trkpt>
      <trkpt lat="43.61227" lon="6.85166">
        <ele>202.494873</ele>
        <time>2010-04-04T15:43:35Z</time>
      </trkpt>
      <trkpt lat="43.61229" lon="6.85163">
        <ele>203.4561768</ele>
        <time>2010-04-04T15:43:37Z</time>
      </trkpt>
      <trkpt lat="43.6123" lon="6.85147">
        <ele>206.3400879</ele>
        <time>2010-04-04T15:43:45Z</time>
      </trkpt>
      <trkpt lat="43.6123" lon="6.85135">
        <ele>208.2628174</ele>
        <time>2010-04-04T15:43:51Z</time>
      </trkpt>
      <trkpt lat="43.6123" lon="6.85119">
        <ele>211.1467285</ele>
        <time>2010-04-04T15:43:58Z</time>
      </trkpt>
      <trkpt lat="43.6123" lon="6.851">
        <ele>213.5500488</ele>
        <time>2010-04-04T15:44:06Z</time>
      </trkpt>
      <trkpt lat="43.61232" lon="6.85083">
        <ele>214.9919434</ele>
        <time>2010-04-04T15:44:13Z</time>
      </trkpt>
      <trkpt lat="43.6124" lon="6.85062">
        <ele>215.9532471</ele>
        <time>2010-04-04T15:44:21Z</time>
      </trkpt>
      <trkpt lat="43.61248" lon="6.85052">
        <ele>216.9146729</ele>
        <time>2010-04-04T15:44:27Z</time>
      </trkpt>
      <trkpt lat="43.6125" lon="6.85051">
        <ele>216.9146729</ele>
        <time>2010-04-04T15:44:31Z</time>
      </trkpt>
      <trkpt lat="43.61254" lon="6.85046">
        <ele>216.9146729</ele>
        <time>2010-04-04T15:44:40Z</time>
      </trkpt>
      <trkpt lat="43.61266" lon="6.85036">
        <ele>217.3953857</ele>
        <time>2010-04-04T15:44:47Z</time>
      </trkpt>
      <trkpt lat="43.6128" lon="6.85023">
        <ele>218.8372803</ele>
        <time>2010-04-04T15:44:55Z</time>
      </trkpt>
      <trkpt lat="43.61298" lon="6.85012">
        <ele>219.798584</ele>
        <time>2010-04-04T15:45:04Z</time>
      </trkpt>
      <trkpt lat="43.61309" lon="6.85008">
        <ele>220.7598877</ele>
        <time>2010-04-04T15:45:10Z</time>
      </trkpt>
      <trkpt lat="43.61323" lon="6.85013">
        <ele>221.7211914</ele>
        <time>2010-04-04T15:45:17Z</time>
      </trkpt>
      <trkpt lat="43.61334" lon="6.85027">
        <ele>221.2406006</ele>
        <time>2010-04-04T15:45:23Z</time>
      </trkpt>
      <trkpt lat="43.61341" lon="6.85042">
        <ele>222.2017822</ele>
        <time>2010-04-04T15:45:29Z</time>
      </trkpt>
      <trkpt lat="43.61344" lon="6.85046">
        <ele>223.6437988</ele>
        <time>2010-04-04T15:45:32Z</time>
      </trkpt>
      <trkpt lat="43.61346" lon="6.85052">
        <ele>225.0859375</ele>
        <time>2010-04-04T15:45:37Z</time>
      </trkpt>
      <trkpt lat="43.6135" lon="6.85063">
        <ele>226.0471191</ele>
        <time>2010-04-04T15:45:44Z</time>
      </trkpt>
      <trkpt lat="43.61352" lon="6.85067">
        <ele>226.527832</ele>
        <time>2010-04-04T15:45:46Z</time>
      </trkpt>
      <trkpt lat="43.61355" lon="6.85082">
        <ele>227.0085449</ele>
        <time>2010-04-04T15:45:53Z</time>
      </trkpt>
      <trkpt lat="43.61365" lon="6.85106">
        <ele>228.9311523</ele>
        <time>2010-04-04T15:46:02Z</time>
      </trkpt>
      <trkpt lat="43.61373" lon="6.85123">
        <ele>230.3730469</ele>
        <time>2010-04-04T15:46:09Z</time>
      </trkpt>
      <trkpt lat="43.61381" lon="6.85141">
        <ele>231.3343506</ele>
        <time>2010-04-04T15:46:16Z</time>
      </trkpt>
      <trkpt lat="43.61381" lon="6.85148">
        <ele>231.3343506</ele>
        <time>2010-04-04T15:46:19Z</time>
      </trkpt>
      <trkpt lat="43.61386" lon="6.85155">
        <ele>231.3343506</ele>
        <time>2010-04-04T15:46:25Z</time>
      </trkpt>
      <trkpt lat="43.61392" lon="6.85157">
        <ele>230.8537598</ele>
        <time>2010-04-04T15:46:31Z</time>
      </trkpt>
      <trkpt lat="43.61394" lon="6.85159">
        <ele>231.3343506</ele>
        <time>2010-04-04T15:46:33Z</time>
      </trkpt>
      <trkpt lat="43.61409" lon="6.85173">
        <ele>229.4117432</ele>
        <time>2010-04-04T15:46:40Z</time>
      </trkpt>
      <trkpt lat="43.61431" lon="6.85196">
        <ele>228.4504395</ele>
        <time>2010-04-04T15:46:46Z</time>
      </trkpt>
      <trkpt lat="43.61459" lon="6.85223">
        <ele>228.9311523</ele>
        <time>2010-04-04T15:46:53Z</time>
      </trkpt>
      <trkpt lat="43.61483" lon="6.85231">
        <ele>228.9311523</ele>
        <time>2010-04-04T15:46:59Z</time>
      </trkpt>
      <trkpt lat="43.61498" lon="6.85236">
        <ele>228.4504395</ele>
        <time>2010-04-04T15:47:02Z</time>
      </trkpt>
      <trkpt lat="43.61508" lon="6.8524">
        <ele>228.9311523</ele>
        <time>2010-04-04T15:47:04Z</time>
      </trkpt>
      <trkpt lat="43.61525" lon="6.85247">
        <ele>229.4117432</ele>
        <time>2010-04-04T15:47:08Z</time>
      </trkpt>
      <trkpt lat="43.61541" lon="6.85251">
        <ele>229.892334</ele>
        <time>2010-04-04T15:47:12Z</time>
      </trkpt>
      <trkpt lat="43.61555" lon="6.85256">
        <ele>231.3343506</ele>
        <time>2010-04-04T15:47:17Z</time>
      </trkpt>
      <trkpt lat="43.61558" lon="6.85257">
        <ele>231.3343506</ele>
        <time>2010-04-04T15:47:20Z</time>
      </trkpt>
      <trkpt lat="43.61568" lon="6.85269">
        <ele>232.7764893</ele>
        <time>2010-04-04T15:47:27Z</time>
      </trkpt>
      <trkpt lat="43.61572" lon="6.85275">
        <ele>233.7376709</ele>
        <time>2010-04-04T15:47:30Z</time>
      </trkpt>
      <trkpt lat="43.61581" lon="6.85283">
        <ele>236.6217041</ele>
        <time>2010-04-04T15:47:37Z</time>
      </trkpt>
      <trkpt lat="43.61587" lon="6.85285">
        <ele>238.0635986</ele>
        <time>2010-04-04T15:47:41Z</time>
      </trkpt>
      <trkpt lat="43.61598" lon="6.85296">
        <ele>241.4282227</ele>
        <time>2010-04-04T15:47:50Z</time>
      </trkpt>
      <trkpt lat="43.61605" lon="6.85307">
        <ele>242.8702393</ele>
        <time>2010-04-04T15:47:57Z</time>
      </trkpt>
      <trkpt lat="43.61606" lon="6.8531">
        <ele>243.3508301</ele>
        <time>2010-04-04T15:47:59Z</time>
      </trkpt>
      <trkpt lat="43.61613" lon="6.85314">
        <ele>245.2734375</ele>
        <time>2010-04-04T15:48:04Z</time>
      </trkpt>
      <trkpt lat="43.61622" lon="6.85321">
        <ele>248.6381836</ele>
        <time>2010-04-04T15:48:11Z</time>
      </trkpt>
      <trkpt lat="43.61634" lon="6.85327">
        <ele>250.0802002</ele>
        <time>2010-04-04T15:48:19Z</time>
      </trkpt>
      <trkpt lat="43.61643" lon="6.85332">
        <ele>251.5220947</ele>
        <time>2010-04-04T15:48:25Z</time>
      </trkpt>
      <trkpt lat="43.6165" lon="6.85339">
        <ele>252.9639893</ele>
        <time>2010-04-04T15:48:31Z</time>
      </trkpt>
      <trkpt lat="43.61658" lon="6.85348">
        <ele>254.4060059</ele>
        <time>2010-04-04T15:48:38Z</time>
      </trkpt>
      <trkpt lat="43.61667" lon="6.85358">
        <ele>254.8865967</ele>
        <time>2010-04-04T15:48:45Z</time>
      </trkpt>
      <trkpt lat="43.61673" lon="6.85368">
        <ele>254.8865967</ele>
        <time>2010-04-04T15:48:51Z</time>
      </trkpt>
      <trkpt lat="43.61675" lon="6.85371">
        <ele>254.8865967</ele>
        <time>2010-04-04T15:48:54Z</time>
      </trkpt>
      <trkpt lat="43.61679" lon="6.85367">
        <ele>254.8865967</ele>
        <time>2010-04-04T15:49:00Z</time>
      </trkpt>
      <trkpt lat="43.61685" lon="6.85366">
        <ele>255.8480225</ele>
        <time>2010-04-04T15:49:05Z</time>
      </trkpt>
      <trkpt lat="43.61685" lon="6.85363">
        <ele>256.3287354</ele>
        <time>2010-04-04T15:49:08Z</time>
      </trkpt>
      <trkpt lat="43.61681" lon="6.85367">
        <ele>256.3287354</ele>
        <time>2010-04-04T15:49:12Z</time>
      </trkpt>
      <trkpt lat="43.61678" lon="6.85371">
        <ele>255.8480225</ele>
        <time>2010-04-04T15:49:14Z</time>
      </trkpt>
      <trkpt lat="43.61676" lon="6.85371">
        <ele>260.654541</ele>
        <time>2010-04-04T15:49:28Z</time>
      </trkpt>
      <trkpt lat="43.61674" lon="6.85377">
        <ele>260.654541</ele>
        <time>2010-04-04T15:49:34Z</time>
      </trkpt>
      <trkpt lat="43.61666" lon="6.85392">
        <ele>258.2513428</ele>
        <time>2010-04-04T15:49:40Z</time>
      </trkpt>
      <trkpt lat="43.61658" lon="6.85403">
        <ele>255.8480225</ele>
        <time>2010-04-04T15:49:45Z</time>
      </trkpt>
      <trkpt lat="43.6165" lon="6.85423">
        <ele>256.3287354</ele>
        <time>2010-04-04T15:49:52Z</time>
      </trkpt>
      <trkpt lat="43.61646" lon="6.85444">
        <ele>256.8093262</ele>
        <time>2010-04-04T15:49:58Z</time>
      </trkpt>
      <trkpt lat="43.61639" lon="6.85474">
        <ele>255.3673096</ele>
        <time>2010-04-04T15:50:05Z</time>
      </trkpt>
      <trkpt lat="43.61633" lon="6.85493">
        <ele>257.770752</ele>
        <time>2010-04-04T15:50:10Z</time>
      </trkpt>
      <trkpt lat="43.61631" lon="6.85519">
        <ele>259.2126465</ele>
        <time>2010-04-04T15:50:18Z</time>
      </trkpt>
      <trkpt lat="43.61631" lon="6.85528">
        <ele>259.2126465</ele>
        <time>2010-04-04T15:50:22Z</time>
      </trkpt>
      <trkpt lat="43.61633" lon="6.85535">
        <ele>259.6933594</ele>
        <time>2010-04-04T15:50:28Z</time>
      </trkpt>
      <trkpt lat="43.6164" lon="6.85554">
        <ele>260.1739502</ele>
        <time>2010-04-04T15:50:34Z</time>
      </trkpt>
      <trkpt lat="43.61655" lon="6.85585">
        <ele>260.654541</ele>
        <time>2010-04-04T15:50:42Z</time>
      </trkpt>
      <trkpt lat="43.61664" lon="6.85604">
        <ele>261.6159668</ele>
        <time>2010-04-04T15:50:48Z</time>
      </trkpt>
      <trkpt lat="43.6167" lon="6.85615">
        <ele>262.0965576</ele>
        <time>2010-04-04T15:50:53Z</time>
      </trkpt>
      <trkpt lat="43.61681" lon="6.8563">
        <ele>263.5385742</ele>
        <time>2010-04-04T15:51:00Z</time>
      </trkpt>
      <trkpt lat="43.61692" lon="6.85645">
        <ele>262.5771484</ele>
        <time>2010-04-04T15:51:05Z</time>
      </trkpt>
      <trkpt lat="43.6171" lon="6.85667">
        <ele>261.1352539</ele>
        <time>2010-04-04T15:51:09Z</time>
      </trkpt>
      <trkpt lat="43.61721" lon="6.85677">
        <ele>261.1352539</ele>
        <time>2010-04-04T15:51:11Z</time>
      </trkpt>
      <trkpt lat="43.61753" lon="6.85688">
        <ele>260.654541</ele>
        <time>2010-04-04T15:51:16Z</time>
      </trkpt>
      <trkpt lat="43.61769" lon="6.85681">
        <ele>261.6159668</ele>
        <time>2010-04-04T15:51:20Z</time>
      </trkpt>
      <trkpt lat="43.61779" lon="6.85681">
        <ele>262.0965576</ele>
        <time>2010-04-04T15:51:23Z</time>
      </trkpt>
      <trkpt lat="43.6179" lon="6.85682">
        <ele>261.6159668</ele>
        <time>2010-04-04T15:51:25Z</time>
      </trkpt>
      <trkpt lat="43.61803" lon="6.85681">
        <ele>261.1352539</ele>
        <time>2010-04-04T15:51:27Z</time>
      </trkpt>
      <trkpt lat="43.61834" lon="6.85693">
        <ele>256.8093262</ele>
        <time>2010-04-04T15:51:31Z</time>
      </trkpt>
      <trkpt lat="43.61842" lon="6.857">
        <ele>256.3287354</ele>
        <time>2010-04-04T15:51:32Z</time>
      </trkpt>
      <trkpt lat="43.61878" lon="6.85703">
        <ele>253.925415</ele>
        <time>2010-04-04T15:51:36Z</time>
      </trkpt>
      <trkpt lat="43.61896" lon="6.85704">
        <ele>253.4447021</ele>
        <time>2010-04-04T15:51:38Z</time>
      </trkpt>
      <trkpt lat="43.61919" lon="6.85708">
        <ele>252.0028076</ele>
        <time>2010-04-04T15:51:41Z</time>
      </trkpt>
      <trkpt lat="43.61947" lon="6.85709">
        <ele>250.560791</ele>
        <time>2010-04-04T15:51:45Z</time>
      </trkpt>
      <trkpt lat="43.61967" lon="6.85705">
        <ele>249.1187744</ele>
        <time>2010-04-04T15:51:49Z</time>
      </trkpt>
      <trkpt lat="43.61966" lon="6.85705">
        <ele>249.5994873</ele>
        <time>2010-04-04T15:51:51Z</time>
      </trkpt>
      <trkpt lat="43.61965" lon="6.85706">
        <ele>248.1575928</ele>
        <time>2010-04-04T15:51:58Z</time>
      </trkpt>
      <trkpt lat="43.61969" lon="6.85705">
        <ele>249.1187744</ele>
        <time>2010-04-04T15:52:09Z</time>
      </trkpt>
      <trkpt lat="43.61975" lon="6.85695">
        <ele>250.560791</ele>
        <time>2010-04-04T15:52:14Z</time>
      </trkpt>
      <trkpt lat="43.61986" lon="6.85688">
        <ele>252.4833984</ele>
        <time>2010-04-04T15:52:20Z</time>
      </trkpt>
      <trkpt lat="43.61998" lon="6.85683">
        <ele>253.925415</ele>
        <time>2010-04-04T15:52:25Z</time>
      </trkpt>
      <trkpt lat="43.62008" lon="6.85664">
        <ele>254.8865967</ele>
        <time>2010-04-04T15:52:32Z</time>
      </trkpt>
      <trkpt lat="43.62015" lon="6.85651">
        <ele>255.3673096</ele>
        <time>2010-04-04T15:52:37Z</time>
      </trkpt>
      <trkpt lat="43.6202" lon="6.85654">
        <ele>255.8480225</ele>
        <time>2010-04-04T15:52:41Z</time>
      </trkpt>
      <trkpt lat="43.62019" lon="6.85656">
        <ele>256.3287354</ele>
        <time>2010-04-04T15:52:49Z</time>
      </trkpt>
      <trkpt lat="43.62019" lon="6.85657">
        <ele>255.8480225</ele>
        <time>2010-04-04T15:52:55Z</time>
      </trkpt>
      <trkpt lat="43.62015" lon="6.8567">
        <ele>254.8865967</ele>
        <time>2010-04-04T15:53:01Z</time>
      </trkpt>
      <trkpt lat="43.62013" lon="6.85675">
        <ele>254.8865967</ele>
        <time>2010-04-04T15:53:05Z</time>
      </trkpt>
      <trkpt lat="43.62013" lon="6.85674">
        <ele>255.3673096</ele>
        <time>2010-04-04T15:53:07Z</time>
      </trkpt>
      <trkpt lat="43.62016" lon="6.85663">
        <ele>253.925415</ele>
        <time>2010-04-04T15:53:13Z</time>
      </trkpt>
      <trkpt lat="43.62016" lon="6.85662">
        <ele>256.3287354</ele>
        <time>2010-04-04T15:53:23Z</time>
      </trkpt>
      <trkpt lat="43.62017" lon="6.85665">
        <ele>257.2900391</ele>
        <time>2010-04-04T15:53:30Z</time>
      </trkpt>
      <trkpt lat="43.62015" lon="6.8567">
        <ele>257.2900391</ele>
        <time>2010-04-04T15:53:38Z</time>
      </trkpt>
      <trkpt lat="43.62012" lon="6.85684">
        <ele>256.3287354</ele>
        <time>2010-04-04T15:53:42Z</time>
      </trkpt>
      <trkpt lat="43.62005" lon="6.85717">
        <ele>254.4060059</ele>
        <time>2010-04-04T15:53:47Z</time>
      </trkpt>
      <trkpt lat="43.62003" lon="6.85734">
        <ele>253.4447021</ele>
        <time>2010-04-04T15:53:50Z</time>
      </trkpt>
      <trkpt lat="43.61999" lon="6.85755">
        <ele>252.0028076</ele>
        <time>2010-04-04T15:53:55Z</time>
      </trkpt>
      <trkpt lat="43.61996" lon="6.85764">
        <ele>251.0413818</ele>
        <time>2010-04-04T15:53:58Z</time>
      </trkpt>
      <trkpt lat="43.61993" lon="6.85796">
        <ele>249.1187744</ele>
        <time>2010-04-04T15:54:03Z</time>
      </trkpt>
      <trkpt lat="43.61992" lon="6.8581">
        <ele>246.2348633</ele>
        <time>2010-04-04T15:54:06Z</time>
      </trkpt>
      <trkpt lat="43.61991" lon="6.85818">
        <ele>244.7928467</ele>
        <time>2010-04-04T15:54:07Z</time>
      </trkpt>
      <trkpt lat="43.61995" lon="6.85842">
        <ele>239.9862061</ele>
        <time>2010-04-04T15:54:11Z</time>
      </trkpt>
      <trkpt lat="43.61999" lon="6.85859">
        <ele>236.6217041</ele>
        <time>2010-04-04T15:54:14Z</time>
      </trkpt>
      <trkpt lat="43.62" lon="6.8587">
        <ele>234.2183838</ele>
        <time>2010-04-04T15:54:16Z</time>
      </trkpt>
      <trkpt lat="43.61999" lon="6.85891">
        <ele>228.9311523</ele>
        <time>2010-04-04T15:54:21Z</time>
      </trkpt>
      <trkpt lat="43.61997" lon="6.85922">
        <ele>226.527832</ele>
        <time>2010-04-04T15:54:25Z</time>
      </trkpt>
      <trkpt lat="43.61996" lon="6.85938">
        <ele>226.0471191</ele>
        <time>2010-04-04T15:54:27Z</time>
      </trkpt>
      <trkpt lat="43.61993" lon="6.85992">
        <ele>224.1245117</ele>
        <time>2010-04-04T15:54:34Z</time>
      </trkpt>
      <trkpt lat="43.61992" lon="6.86025">
        <ele>223.163208</ele>
        <time>2010-04-04T15:54:39Z</time>
      </trkpt>
      <trkpt lat="43.61997" lon="6.86046">
        <ele>223.163208</ele>
        <time>2010-04-04T15:54:43Z</time>
      </trkpt>
      <trkpt lat="43.61999" lon="6.86052">
        <ele>223.6437988</ele>
        <time>2010-04-04T15:54:44Z</time>
      </trkpt>
      <trkpt lat="43.62006" lon="6.8608">
        <ele>224.6052246</ele>
        <time>2010-04-04T15:54:50Z</time>
      </trkpt>
      <trkpt lat="43.62004" lon="6.86089">
        <ele>226.0471191</ele>
        <time>2010-04-04T15:54:55Z</time>
      </trkpt>
      <trkpt lat="43.62004" lon="6.8609">
        <ele>227.9697266</ele>
        <time>2010-04-04T15:55:05Z</time>
      </trkpt>
      <trkpt lat="43.62005" lon="6.8609">
        <ele>229.4117432</ele>
        <time>2010-04-04T15:55:12Z</time>
      </trkpt>
      <trkpt lat="43.62003" lon="6.86093">
        <ele>230.8537598</ele>
        <time>2010-04-04T15:55:41Z</time>
      </trkpt>
      <trkpt lat="43.61992" lon="6.86093">
        <ele>230.8537598</ele>
        <time>2010-04-04T15:55:47Z</time>
      </trkpt>
      <trkpt lat="43.61984" lon="6.86098">
        <ele>231.3343506</ele>
        <time>2010-04-04T15:55:51Z</time>
      </trkpt>
      <trkpt lat="43.6198" lon="6.86109">
        <ele>230.8537598</ele>
        <time>2010-04-04T15:55:56Z</time>
      </trkpt>
      <trkpt lat="43.61983" lon="6.86124">
        <ele>230.8537598</ele>
        <time>2010-04-04T15:56:01Z</time>
      </trkpt>
      <trkpt lat="43.61986" lon="6.86141">
        <ele>230.8537598</ele>
        <time>2010-04-04T15:56:07Z</time>
      </trkpt>
      <trkpt lat="43.61987" lon="6.86143">
        <ele>231.3343506</ele>
        <time>2010-04-04T15:56:08Z</time>
      </trkpt>
      <trkpt lat="43.61986" lon="6.86156">
        <ele>231.8149414</ele>
        <time>2010-04-04T15:56:14Z</time>
      </trkpt>
      <trkpt lat="43.61981" lon="6.86173">
        <ele>233.2570801</ele>
        <time>2010-04-04T15:56:20Z</time>
      </trkpt>
      <trkpt lat="43.61972" lon="6.86183">
        <ele>233.2570801</ele>
        <time>2010-04-04T15:56:25Z</time>
      </trkpt>
      <trkpt lat="43.6197" lon="6.86185">
        <ele>233.2570801</ele>
        <time>2010-04-04T15:56:26Z</time>
      </trkpt>
      <trkpt lat="43.61962" lon="6.86206">
        <ele>234.6990967</ele>
        <time>2010-04-04T15:56:32Z</time>
      </trkpt>
      <trkpt lat="43.61954" lon="6.86226">
        <ele>236.6217041</ele>
        <time>2010-04-04T15:56:38Z</time>
      </trkpt>
      <trkpt lat="43.61953" lon="6.86245">
        <ele>237.5828857</ele>
        <time>2010-04-04T15:56:43Z</time>
      </trkpt>
      <trkpt lat="43.61958" lon="6.86265">
        <ele>238.0635986</ele>
        <time>2010-04-04T15:56:49Z</time>
      </trkpt>
      <trkpt lat="43.61961" lon="6.86284">
        <ele>238.0635986</ele>
        <time>2010-04-04T15:56:54Z</time>
      </trkpt>
      <trkpt lat="43.61955" lon="6.86302">
        <ele>238.5443115</ele>
        <time>2010-04-04T15:56:58Z</time>
      </trkpt>
      <trkpt lat="43.61947" lon="6.86327">
        <ele>238.0635986</ele>
        <time>2010-04-04T15:57:04Z</time>
      </trkpt>
      <trkpt lat="43.6194" lon="6.86347">
        <ele>239.9862061</ele>
        <time>2010-04-04T15:57:09Z</time>
      </trkpt>
      <trkpt lat="43.61932" lon="6.86365">
        <ele>241.4282227</ele>
        <time>2010-04-04T15:57:15Z</time>
      </trkpt>
      <trkpt lat="43.61921" lon="6.86383">
        <ele>242.3896484</ele>
        <time>2010-04-04T15:57:21Z</time>
      </trkpt>
      <trkpt lat="43.61916" lon="6.86399">
        <ele>244.3122559</ele>
        <time>2010-04-04T15:57:27Z</time>
      </trkpt>
      <trkpt lat="43.61915" lon="6.86414">
        <ele>246.2348633</ele>
        <time>2010-04-04T15:57:32Z</time>
      </trkpt>
      <trkpt lat="43.61913" lon="6.8644">
        <ele>245.2734375</ele>
        <time>2010-04-04T15:57:40Z</time>
      </trkpt>
      <trkpt lat="43.61908" lon="6.86452">
        <ele>246.2348633</ele>
        <time>2010-04-04T15:57:45Z</time>
      </trkpt>
      <trkpt lat="43.61907" lon="6.86457">
        <ele>246.2348633</ele>
        <time>2010-04-04T15:57:47Z</time>
      </trkpt>
      <trkpt lat="43.61905" lon="6.86473">
        <ele>246.2348633</ele>
        <time>2010-04-04T15:57:53Z</time>
      </trkpt>
      <trkpt lat="43.61901" lon="6.8649">
        <ele>246.7154541</ele>
        <time>2010-04-04T15:57:59Z</time>
      </trkpt>
      <trkpt lat="43.61897" lon="6.86494">
        <ele>247.1960449</ele>
        <time>2010-04-04T15:58:01Z</time>
      </trkpt>
      <trkpt lat="43.6189" lon="6.8651">
        <ele>248.6381836</ele>
        <time>2010-04-04T15:58:07Z</time>
      </trkpt>
      <trkpt lat="43.61891" lon="6.86516">
        <ele>249.5994873</ele>
        <time>2010-04-04T15:58:10Z</time>
      </trkpt>
      <trkpt lat="43.61893" lon="6.86527">
        <ele>249.1187744</ele>
        <time>2010-04-04T15:58:16Z</time>
      </trkpt>
      <trkpt lat="43.61894" lon="6.8653">
        <ele>249.1187744</ele>
        <time>2010-04-04T15:58:18Z</time>
      </trkpt>
      <trkpt lat="43.61903" lon="6.86534">
        <ele>248.6381836</ele>
        <time>2010-04-04T15:58:25Z</time>
      </trkpt>
      <trkpt lat="43.61905" lon="6.86536">
        <ele>248.6381836</ele>
        <time>2010-04-04T15:58:26Z</time>
      </trkpt>
      <trkpt lat="43.61919" lon="6.86551">
        <ele>247.1960449</ele>
        <time>2010-04-04T15:58:30Z</time>
      </trkpt>
      <trkpt lat="43.61928" lon="6.86565">
        <ele>246.7154541</ele>
        <time>2010-04-04T15:58:33Z</time>
      </trkpt>
      <trkpt lat="43.6193" lon="6.8657">
        <ele>246.7154541</ele>
        <time>2010-04-04T15:58:37Z</time>
      </trkpt>
      <trkpt lat="43.61944" lon="6.86569">
        <ele>247.1960449</ele>
        <time>2010-04-04T15:58:43Z</time>
      </trkpt>
      <trkpt lat="43.61969" lon="6.8656">
        <ele>247.1960449</ele>
        <time>2010-04-04T15:58:51Z</time>
      </trkpt>
      <trkpt lat="43.61978" lon="6.86556">
        <ele>247.6767578</ele>
        <time>2010-04-04T15:58:54Z</time>
      </trkpt>
      <trkpt lat="43.61989" lon="6.86568">
        <ele>247.1960449</ele>
        <time>2010-04-04T15:58:59Z</time>
      </trkpt>
      <trkpt lat="43.61999" lon="6.86572">
        <ele>247.1960449</ele>
        <time>2010-04-04T15:59:02Z</time>
      </trkpt>
      <trkpt lat="43.62013" lon="6.86591">
        <ele>247.1960449</ele>
        <time>2010-04-04T15:59:07Z</time>
      </trkpt>
      <trkpt lat="43.62012" lon="6.8661">
        <ele>246.7154541</ele>
        <time>2010-04-04T15:59:11Z</time>
      </trkpt>
      <trkpt lat="43.62009" lon="6.86623">
        <ele>246.2348633</ele>
        <time>2010-04-04T15:59:14Z</time>
      </trkpt>
      <trkpt lat="43.61996" lon="6.86653">
        <ele>245.7541504</ele>
        <time>2010-04-04T15:59:21Z</time>
      </trkpt>
      <trkpt lat="43.61985" lon="6.86679">
        <ele>246.7154541</ele>
        <time>2010-04-04T15:59:27Z</time>
      </trkpt>
      <trkpt lat="43.61972" lon="6.86713">
        <ele>247.1960449</ele>
        <time>2010-04-04T15:59:34Z</time>
      </trkpt>
      <trkpt lat="43.61958" lon="6.86746">
        <ele>248.1575928</ele>
        <time>2010-04-04T15:59:41Z</time>
      </trkpt>
      <trkpt lat="43.61945" lon="6.8678">
        <ele>249.1187744</ele>
        <time>2010-04-04T15:59:48Z</time>
      </trkpt>
      <trkpt lat="43.61933" lon="6.86813">
        <ele>250.560791</ele>
        <time>2010-04-04T15:59:55Z</time>
      </trkpt>
      <trkpt lat="43.6192" lon="6.86841">
        <ele>251.5220947</ele>
        <time>2010-04-04T16:00:02Z</time>
      </trkpt>
      <trkpt lat="43.61916" lon="6.86856">
        <ele>252.4833984</ele>
        <time>2010-04-04T16:00:06Z</time>
      </trkpt>
      <trkpt lat="43.61907" lon="6.86877">
        <ele>253.925415</ele>
        <time>2010-04-04T16:00:12Z</time>
      </trkpt>
      <trkpt lat="43.61903" lon="6.86893">
        <ele>254.8865967</ele>
        <time>2010-04-04T16:00:17Z</time>
      </trkpt>
      <trkpt lat="43.61899" lon="6.86902">
        <ele>254.8865967</ele>
        <time>2010-04-04T16:00:22Z</time>
      </trkpt>
      <trkpt lat="43.61895" lon="6.86915">
        <ele>255.3673096</ele>
        <time>2010-04-04T16:00:27Z</time>
      </trkpt>
      <trkpt lat="43.61892" lon="6.86931">
        <ele>256.3287354</ele>
        <time>2010-04-04T16:00:32Z</time>
      </trkpt>
      <trkpt lat="43.61887" lon="6.86944">
        <ele>257.2900391</ele>
        <time>2010-04-04T16:00:37Z</time>
      </trkpt>
      <trkpt lat="43.61878" lon="6.86966">
        <ele>258.7319336</ele>
        <time>2010-04-04T16:00:44Z</time>
      </trkpt>
      <trkpt lat="43.61877" lon="6.86982">
        <ele>259.2126465</ele>
        <time>2010-04-04T16:00:49Z</time>
      </trkpt>
      <trkpt lat="43.61881" lon="6.86988">
        <ele>259.6933594</ele>
        <time>2010-04-04T16:00:52Z</time>
      </trkpt>
      <trkpt lat="43.61886" lon="6.87009">
        <ele>261.6159668</ele>
        <time>2010-04-04T16:00:59Z</time>
      </trkpt>
      <trkpt lat="43.61887" lon="6.87028">
        <ele>262.5771484</ele>
        <time>2010-04-04T16:01:05Z</time>
      </trkpt>
      <trkpt lat="43.61887" lon="6.87049">
        <ele>264.0192871</ele>
        <time>2010-04-04T16:01:12Z</time>
      </trkpt>
      <trkpt lat="43.6189" lon="6.8706">
        <ele>264.4998779</ele>
        <time>2010-04-04T16:01:17Z</time>
      </trkpt>
      <trkpt lat="43.61891" lon="6.87063">
        <ele>264.4998779</ele>
        <time>2010-04-04T16:01:20Z</time>
      </trkpt>
      <trkpt lat="43.61892" lon="6.87065">
        <ele>264.9805908</ele>
        <time>2010-04-04T16:01:26Z</time>
      </trkpt>
      <trkpt lat="43.61892" lon="6.87065">
        <ele>265.4613037</ele>
        <time>2010-04-04T16:01:35Z</time>
      </trkpt>
      <trkpt lat="43.61892" lon="6.87066">
        <ele>265.9418945</ele>
        <time>2010-04-04T16:01:43Z</time>
      </trkpt>
      <trkpt lat="43.61892" lon="6.87066">
        <ele>264.9805908</ele>
        <time>2010-04-04T16:02:15Z</time>
      </trkpt>
      <trkpt lat="43.61894" lon="6.87068">
        <ele>266.4224854</ele>
        <time>2010-04-04T16:02:41Z</time>
      </trkpt>
      <trkpt lat="43.61905" lon="6.87077">
        <ele>266.9031982</ele>
        <time>2010-04-04T16:02:47Z</time>
      </trkpt>
      <trkpt lat="43.61921" lon="6.87091">
        <ele>267.864502</ele>
        <time>2010-04-04T16:02:53Z</time>
      </trkpt>
      <trkpt lat="43.6194" lon="6.87098">
        <ele>268.8258057</ele>
        <time>2010-04-04T16:02:59Z</time>
      </trkpt>
      <trkpt lat="43.61961" lon="6.87094">
        <ele>268.8258057</ele>
        <time>2010-04-04T16:03:05Z</time>
      </trkpt>
      <trkpt lat="43.61982" lon="6.87089">
        <ele>268.8258057</ele>
        <time>2010-04-04T16:03:12Z</time>
      </trkpt>
      <trkpt lat="43.6201" lon="6.87084">
        <ele>268.3450928</ele>
        <time>2010-04-04T16:03:20Z</time>
      </trkpt>
      <trkpt lat="43.62013" lon="6.87085">
        <ele>268.3450928</ele>
        <time>2010-04-04T16:03:21Z</time>
      </trkpt>
      <trkpt lat="43.62024" lon="6.87089">
        <ele>267.3839111</ele>
        <time>2010-04-04T16:03:26Z</time>
      </trkpt>
      <trkpt lat="43.62028" lon="6.8709">
        <ele>267.3839111</ele>
        <time>2010-04-04T16:03:27Z</time>
      </trkpt>
      <trkpt lat="43.62038" lon="6.87107">
        <ele>264.4998779</ele>
        <time>2010-04-04T16:03:31Z</time>
      </trkpt>
      <trkpt lat="43.6205" lon="6.87123">
        <ele>261.6159668</ele>
        <time>2010-04-04T16:03:34Z</time>
      </trkpt>
      <trkpt lat="43.62056" lon="6.87129">
        <ele>260.654541</ele>
        <time>2010-04-04T16:03:35Z</time>
      </trkpt>
      <trkpt lat="43.62082" lon="6.87155">
        <ele>258.7319336</ele>
        <time>2010-04-04T16:03:39Z</time>
      </trkpt>
      <trkpt lat="43.62088" lon="6.87172">
        <ele>257.770752</ele>
        <time>2010-04-04T16:03:42Z</time>
      </trkpt>
      <trkpt lat="43.62085" lon="6.87176">
        <ele>256.8093262</ele>
        <time>2010-04-04T16:03:43Z</time>
      </trkpt>
      <trkpt lat="43.62073" lon="6.87216">
        <ele>254.8865967</ele>
        <time>2010-04-04T16:03:48Z</time>
      </trkpt>
      <trkpt lat="43.62074" lon="6.87252">
        <ele>252.9639893</ele>
        <time>2010-04-04T16:03:53Z</time>
      </trkpt>
      <trkpt lat="43.62075" lon="6.87275">
        <ele>253.4447021</ele>
        <time>2010-04-04T16:03:57Z</time>
      </trkpt>
      <trkpt lat="43.62076" lon="6.87295">
        <ele>253.925415</ele>
        <time>2010-04-04T16:04:01Z</time>
      </trkpt>
      <trkpt lat="43.6208" lon="6.87323">
        <ele>253.925415</ele>
        <time>2010-04-04T16:04:05Z</time>
      </trkpt>
      <trkpt lat="43.62097" lon="6.87359">
        <ele>252.4833984</ele>
        <time>2010-04-04T16:04:10Z</time>
      </trkpt>
      <trkpt lat="43.62108" lon="6.87378">
        <ele>252.0028076</ele>
        <time>2010-04-04T16:04:13Z</time>
      </trkpt>
      <trkpt lat="43.62117" lon="6.87392">
        <ele>251.5220947</ele>
        <time>2010-04-04T16:04:16Z</time>
      </trkpt>
      <trkpt lat="43.6214" lon="6.87418">
        <ele>250.0802002</ele>
        <time>2010-04-04T16:04:25Z</time>
      </trkpt>
      <trkpt lat="43.62163" lon="6.87447">
        <ele>251.5220947</ele>
        <time>2010-04-04T16:04:33Z</time>
      </trkpt>
      <trkpt lat="43.62182" lon="6.87465">
        <ele>252.4833984</ele>
        <time>2010-04-04T16:04:38Z</time>
      </trkpt>
      <trkpt lat="43.62185" lon="6.87469">
        <ele>252.4833984</ele>
        <time>2010-04-04T16:04:39Z</time>
      </trkpt>
      <trkpt lat="43.62201" lon="6.8748">
        <ele>253.4447021</ele>
        <time>2010-04-04T16:04:43Z</time>
      </trkpt>
      <trkpt lat="43.62209" lon="6.87486">
        <ele>253.925415</ele>
        <time>2010-04-04T16:04:45Z</time>
      </trkpt>
      <trkpt lat="43.62223" lon="6.87493">
        <ele>254.8865967</ele>
        <time>2010-04-04T16:04:49Z</time>
      </trkpt>
      <trkpt lat="43.62233" lon="6.87497">
        <ele>255.8480225</ele>
        <time>2010-04-04T16:04:54Z</time>
      </trkpt>
      <trkpt lat="43.62248" lon="6.87496">
        <ele>257.770752</ele>
        <time>2010-04-04T16:05:01Z</time>
      </trkpt>
      <trkpt lat="43.62263" lon="6.87495">
        <ele>259.2126465</ele>
        <time>2010-04-04T16:05:07Z</time>
      </trkpt>
      <trkpt lat="43.62285" lon="6.87499">
        <ele>261.1352539</ele>
        <time>2010-04-04T16:05:15Z</time>
      </trkpt>
      <trkpt lat="43.62305" lon="6.87502">
        <ele>262.5771484</ele>
        <time>2010-04-04T16:05:22Z</time>
      </trkpt>
      <trkpt lat="43.62327" lon="6.875">
        <ele>264.0192871</ele>
        <time>2010-04-04T16:05:29Z</time>
      </trkpt>
      <trkpt lat="43.62345" lon="6.87507">
        <ele>264.0192871</ele>
        <time>2010-04-04T16:05:35Z</time>
      </trkpt>
      <trkpt lat="43.62365" lon="6.87523">
        <ele>264.9805908</ele>
        <time>2010-04-04T16:05:42Z</time>
      </trkpt>
      <trkpt lat="43.62384" lon="6.87535">
        <ele>266.4224854</ele>
        <time>2010-04-04T16:05:48Z</time>
      </trkpt>
      <trkpt lat="43.62402" lon="6.87542">
        <ele>267.864502</ele>
        <time>2010-04-04T16:05:54Z</time>
      </trkpt>
      <trkpt lat="43.62421" lon="6.87545">
        <ele>268.8258057</ele>
        <time>2010-04-04T16:06:00Z</time>
      </trkpt>
      <trkpt lat="43.62439" lon="6.87546">
        <ele>268.3450928</ele>
        <time>2010-04-04T16:06:07Z</time>
      </trkpt>
      <trkpt lat="43.6244" lon="6.87546">
        <ele>268.3450928</ele>
        <time>2010-04-04T16:06:11Z</time>
      </trkpt>
      <trkpt lat="43.62442" lon="6.87546">
        <ele>267.864502</ele>
        <time>2010-04-04T16:06:16Z</time>
      </trkpt>
      <trkpt lat="43.62442" lon="6.87548">
        <ele>267.864502</ele>
        <time>2010-04-04T16:06:21Z</time>
      </trkpt>
      <trkpt lat="43.62442" lon="6.87549">
        <ele>267.3839111</ele>
        <time>2010-04-04T16:06:29Z</time>
      </trkpt>
      <trkpt lat="43.62442" lon="6.87561">
        <ele>266.9031982</ele>
        <time>2010-04-04T16:06:34Z</time>
      </trkpt>
      <trkpt lat="43.62442" lon="6.87563">
        <ele>266.9031982</ele>
        <time>2010-04-04T16:06:35Z</time>
      </trkpt>
      <trkpt lat="43.62451" lon="6.87572">
        <ele>267.3839111</ele>
        <time>2010-04-04T16:06:40Z</time>
      </trkpt>
      <trkpt lat="43.62475" lon="6.87582">
        <ele>268.3450928</ele>
        <time>2010-04-04T16:06:48Z</time>
      </trkpt>
      <trkpt lat="43.62488" lon="6.87589">
        <ele>268.8258057</ele>
        <time>2010-04-04T16:06:53Z</time>
      </trkpt>
      <trkpt lat="43.62506" lon="6.87604">
        <ele>269.3065186</ele>
        <time>2010-04-04T16:07:00Z</time>
      </trkpt>
      <trkpt lat="43.62518" lon="6.87618">
        <ele>269.3065186</ele>
        <time>2010-04-04T16:07:05Z</time>
      </trkpt>
      <trkpt lat="43.62522" lon="6.87623">
        <ele>268.8258057</ele>
        <time>2010-04-04T16:07:07Z</time>
      </trkpt>
      <trkpt lat="43.62529" lon="6.87634">
        <ele>268.8258057</ele>
        <time>2010-04-04T16:07:11Z</time>
      </trkpt>
      <trkpt lat="43.62548" lon="6.87656">
        <ele>268.8258057</ele>
        <time>2010-04-04T16:07:18Z</time>
      </trkpt>
      <trkpt lat="43.62567" lon="6.87673">
        <ele>267.864502</ele>
        <time>2010-04-04T16:07:23Z</time>
      </trkpt>
      <trkpt lat="43.62574" lon="6.87687">
        <ele>267.3839111</ele>
        <time>2010-04-04T16:07:27Z</time>
      </trkpt>
      <trkpt lat="43.62573" lon="6.87691">
        <ele>267.3839111</ele>
        <time>2010-04-04T16:07:28Z</time>
      </trkpt>
      <trkpt lat="43.62558" lon="6.87717">
        <ele>267.3839111</ele>
        <time>2010-04-04T16:07:34Z</time>
      </trkpt>
      <trkpt lat="43.62547" lon="6.87738">
        <ele>267.864502</ele>
        <time>2010-04-04T16:07:38Z</time>
      </trkpt>
      <trkpt lat="43.62533" lon="6.87771">
        <ele>268.3450928</ele>
        <time>2010-04-04T16:07:44Z</time>
      </trkpt>
      <trkpt lat="43.62526" lon="6.87789">
        <ele>268.8258057</ele>
        <time>2010-04-04T16:07:47Z</time>
      </trkpt>
      <trkpt lat="43.62508" lon="6.87844">
        <ele>268.8258057</ele>
        <time>2010-04-04T16:07:56Z</time>
      </trkpt>
      <trkpt lat="43.62499" lon="6.8788">
        <ele>269.7871094</ele>
        <time>2010-04-04T16:08:02Z</time>
      </trkpt>
      <trkpt lat="43.62497" lon="6.87903">
        <ele>270.7484131</ele>
        <time>2010-04-04T16:08:06Z</time>
      </trkpt>
      <trkpt lat="43.62495" lon="6.87922">
        <ele>271.229126</ele>
        <time>2010-04-04T16:08:10Z</time>
      </trkpt>
      <trkpt lat="43.62493" lon="6.87939">
        <ele>272.1904297</ele>
        <time>2010-04-04T16:08:13Z</time>
      </trkpt>
      <trkpt lat="43.62492" lon="6.87949">
        <ele>272.1904297</ele>
        <time>2010-04-04T16:08:15Z</time>
      </trkpt>
      <trkpt lat="43.6249" lon="6.87977">
        <ele>272.6711426</ele>
        <time>2010-04-04T16:08:21Z</time>
      </trkpt>
      <trkpt lat="43.62488" lon="6.88001">
        <ele>273.1518555</ele>
        <time>2010-04-04T16:08:26Z</time>
      </trkpt>
      <trkpt lat="43.62485" lon="6.88037">
        <ele>273.1518555</ele>
        <time>2010-04-04T16:08:32Z</time>
      </trkpt>
      <trkpt lat="43.62481" lon="6.88076">
        <ele>272.6711426</ele>
        <time>2010-04-04T16:08:38Z</time>
      </trkpt>
      <trkpt lat="43.62474" lon="6.88134">
        <ele>272.1904297</ele>
        <time>2010-04-04T16:08:46Z</time>
      </trkpt>
      <trkpt lat="43.62464" lon="6.88181">
        <ele>271.229126</ele>
        <time>2010-04-04T16:08:52Z</time>
      </trkpt>
      <trkpt lat="43.62451" lon="6.88207">
        <ele>271.229126</ele>
        <time>2010-04-04T16:08:56Z</time>
      </trkpt>
      <trkpt lat="43.62435" lon="6.88203">
        <ele>271.229126</ele>
        <time>2010-04-04T16:08:59Z</time>
      </trkpt>
      <trkpt lat="43.6243" lon="6.88203">
        <ele>271.7097168</ele>
        <time>2010-04-04T16:09:00Z</time>
      </trkpt>
      <trkpt lat="43.62382" lon="6.88213">
        <ele>272.1904297</ele>
        <time>2010-04-04T16:09:09Z</time>
      </trkpt>
      <trkpt lat="43.6236" lon="6.88215">
        <ele>274.1130371</ele>
        <time>2010-04-04T16:09:15Z</time>
      </trkpt>
      <trkpt lat="43.62344" lon="6.88217">
        <ele>276.0356445</ele>
        <time>2010-04-04T16:09:21Z</time>
      </trkpt>
      <trkpt lat="43.62329" lon="6.88219">
        <ele>278.9196777</ele>
        <time>2010-04-04T16:09:27Z</time>
      </trkpt>
      <trkpt lat="43.62303" lon="6.88222">
        <ele>280.3616943</ele>
        <time>2010-04-04T16:09:37Z</time>
      </trkpt>
      <trkpt lat="43.62285" lon="6.88225">
        <ele>281.8035889</ele>
        <time>2010-04-04T16:09:44Z</time>
      </trkpt>
      <trkpt lat="43.62267" lon="6.88226">
        <ele>283.2456055</ele>
        <time>2010-04-04T16:09:51Z</time>
      </trkpt>
      <trkpt lat="43.62248" lon="6.88225">
        <ele>285.1682129</ele>
        <time>2010-04-04T16:09:58Z</time>
      </trkpt>
      <trkpt lat="43.62231" lon="6.88224">
        <ele>286.1295166</ele>
        <time>2010-04-04T16:10:05Z</time>
      </trkpt>
      <trkpt lat="43.62227" lon="6.88229">
        <ele>286.6102295</ele>
        <time>2010-04-04T16:10:08Z</time>
      </trkpt>
      <trkpt lat="43.62227" lon="6.88254">
        <ele>285.1682129</ele>
        <time>2010-04-04T16:10:14Z</time>
      </trkpt>
      <trkpt lat="43.62225" lon="6.8829">
        <ele>284.6876221</ele>
        <time>2010-04-04T16:10:22Z</time>
      </trkpt>
      <trkpt lat="43.62228" lon="6.88318">
        <ele>284.2069092</ele>
        <time>2010-04-04T16:10:28Z</time>
      </trkpt>
      <trkpt lat="43.62239" lon="6.88335">
        <ele>281.8035889</ele>
        <time>2010-04-04T16:10:31Z</time>
      </trkpt>
      <trkpt lat="43.62243" lon="6.88342">
        <ele>280.8424072</ele>
        <time>2010-04-04T16:10:32Z</time>
      </trkpt>
      <trkpt lat="43.62246" lon="6.88353">
        <ele>278.9196777</ele>
        <time>2010-04-04T16:10:34Z</time>
      </trkpt>
      <trkpt lat="43.62252" lon="6.88356">
        <ele>278.4389648</ele>
        <time>2010-04-04T16:10:38Z</time>
      </trkpt>
      <trkpt lat="43.62253" lon="6.88355">
        <ele>278.4389648</ele>
        <time>2010-04-04T16:10:42Z</time>
      </trkpt>
      <trkpt lat="43.62255" lon="6.88353">
        <ele>278.9196777</ele>
        <time>2010-04-04T16:10:49Z</time>
      </trkpt>
      <trkpt lat="43.62256" lon="6.88349">
        <ele>277.958252</ele>
        <time>2010-04-04T16:10:51Z</time>
      </trkpt>
      <trkpt lat="43.62257" lon="6.88335">
        <ele>278.9196777</ele>
        <time>2010-04-04T16:10:58Z</time>
      </trkpt>
      <trkpt lat="43.62258" lon="6.88334">
        <ele>281.8035889</ele>
        <time>2010-04-04T16:11:08Z</time>
      </trkpt>
      <trkpt lat="43.62257" lon="6.88329">
        <ele>284.2069092</ele>
        <time>2010-04-04T16:11:34Z</time>
      </trkpt>
      <trkpt lat="43.62257" lon="6.88325">
        <ele>285.1682129</ele>
        <time>2010-04-04T16:11:41Z</time>
      </trkpt>
      <trkpt lat="43.62259" lon="6.88318">
        <ele>284.6876221</ele>
        <time>2010-04-04T16:11:48Z</time>
      </trkpt>
      <trkpt lat="43.6226" lon="6.88316">
        <ele>285.6488037</ele>
        <time>2010-04-04T16:11:53Z</time>
      </trkpt>
      <trkpt lat="43.62261" lon="6.88322">
        <ele>285.1682129</ele>
        <time>2010-04-04T16:11:58Z</time>
      </trkpt>
      <trkpt lat="43.62262" lon="6.8833">
        <ele>284.2069092</ele>
        <time>2010-04-04T16:12:04Z</time>
      </trkpt>
      <trkpt lat="43.62261" lon="6.88332">
        <ele>282.2843018</ele>
        <time>2010-04-04T16:12:09Z</time>
      </trkpt>
      <trkpt lat="43.62261" lon="6.88332">
        <ele>281.8035889</ele>
        <time>2010-04-04T16:12:12Z</time>
      </trkpt>
      <trkpt lat="43.62257" lon="6.88335">
        <ele>277.958252</ele>
        <time>2010-04-04T16:58:14Z</time>
      </trkpt>
      <trkpt lat="43.62257" lon="6.88335">
        <ele>278.4389648</ele>
        <time>2010-04-04T16:58:15Z</time>
      </trkpt>
      <trkpt lat="43.62257" lon="6.88334">
        <ele>278.4389648</ele>
        <time>2010-04-04T16:58:17Z</time>
      </trkpt>
    </trkseg>
  </trk>
</gpx>